Darstellungsparameter: Aktuell verwendete Einstellungen:
Skalierung der Graphiken ... ?
xyx+y,   Skalierungsfaktor:      Skalierung: Modus: x, Faktor: 1
Darstellungszeitraum ... ?
Vom - - bis: - -   Zeitraum: 16.02.2011 - 15.08.2011
Min/Max/Avg-Anzeige ... ?
Zeige MMA aktuell
Zeige MMA Monat
Zeige MMA alles
Zeige --A aktuell
Zeige --A Monat
Zeige --A alles
Keine MMA-Anzeige
MMA:
Minimum Maximum Average (ber die Originaldaten)
MMA-Basis: 16.02.2011 - 15.08.2011
Quicknavigation für Darstellung... ?
Tage:      1T, 2T, 3T, 5T -1T -2T -3T -5T +1T +2T +3T +5T
Wochen: 1W, 2W, 3W -1W -2W -3W +1W +2W +3W
Monate: 1M, 3M, 6M -1M -3M -6M +1M +3M +6M
Jahre:    1J, 3J, 5J, 10J -1J -3J -5J -10J +1J +3J +5J +10J
Nutze für die Darstellung ... ?
Originaldaten oder Mittelwerte auf ...
Stundenbasis Tagesbasis Wochenbasis
Monatsbasis Jahresbasis      Datenbasis: Original-Daten
Darstellen als:
Statistik (Auto) Statistik J:M      Darstellung:
Zur Graphik,    zurück zur Übersicht aller Sensoren.
 
Tabellarische Datenbersicht: ?
 
Sensor: Nr:Datum:Temp:Feuchte:Taupunkt:
Aussen-T/F 1 16-02-2011 00:00:03 4.5 C 87 % 2.53 C
2 16-02-2011 00:12:03 4.8 C 87 % 2.82 C
3 16-02-2011 00:24:03 5.2 C 84 % 2.72 C
4 16-02-2011 00:36:03 5.2 C 84 % 2.72 C
5 16-02-2011 00:48:03 4.2 C 83 % 1.58 C
6 16-02-2011 01:00:03 3.5 C 84 % 1.06 C
7 16-02-2011 01:12:03 2.9 C 86 % 0.8 C
8 16-02-2011 01:24:03 3.4 C 87 % 1.45 C
9 16-02-2011 01:36:03 3.7 C 88 % 1.9 C
10 16-02-2011 01:48:03 4.1 C 88 % 2.3 C
11 16-02-2011 02:00:03 4.3 C 89 % 2.65 C
12 16-02-2011 02:12:04 4.5 C 89 % 2.85 C
13 16-02-2011 02:24:04 4.4 C 89 % 2.75 C
14 16-02-2011 02:36:04 3.8 C 89 % 2.16 C
15 16-02-2011 02:48:04 4.1 C 89 % 2.45 C
16 16-02-2011 03:00:04 4.5 C 89 % 2.85 C
17 16-02-2011 03:12:04 4.3 C 89 % 2.65 C
18 16-02-2011 03:24:04 4.2 C 89 % 2.55 C
19 16-02-2011 03:36:04 4.4 C 89 % 2.75 C
20 16-02-2011 03:48:04 4.7 C 89 % 3.05 C
21 16-02-2011 04:00:04 4.5 C 88 % 2.69 C
22 16-02-2011 04:12:04 4.1 C 88 % 2.3 C
23 16-02-2011 04:24:04 4 C 88 % 2.2 C
24 16-02-2011 04:36:04 3.2 C 88 % 1.41 C
25 16-02-2011 04:48:04 3.1 C 88 % 1.31 C
Sensor: Nr:Datum:Temp:Feuchte:Taupunkt:
Aussen-T/F 26 16-02-2011 05:00:04 2.7 C 89 % 1.07 C
27 16-02-2011 05:12:04 2.2 C 89 % 0.58 C
28 16-02-2011 05:24:04 2.4 C 89 % 0.78 C
29 16-02-2011 05:36:04 2.3 C 89 % 0.68 C
30 16-02-2011 05:48:04 3.3 C 90 % 1.82 C
31 16-02-2011 06:00:04 3.2 C 90 % 1.72 C
32 16-02-2011 06:12:04 3.6 C 90 % 2.12 C
33 16-02-2011 06:24:05 3.8 C 90 % 2.31 C
34 16-02-2011 06:36:05 3.9 C 90 % 2.41 C
35 16-02-2011 06:48:05 4.2 C 89 % 2.55 C
36 16-02-2011 07:00:05 4.5 C 88 % 2.69 C
37 16-02-2011 07:12:05 4.3 C 87 % 2.33 C
38 16-02-2011 07:24:05 3.8 C 87 % 1.84 C
39 16-02-2011 07:36:05 4.1 C 86 % 1.97 C
40 16-02-2011 07:48:02 3.8 C 86 % 1.68 C
41 16-02-2011 08:00:02 3.8 C 86 % 1.68 C
42 16-02-2011 08:12:02 4.1 C 85 % 1.81 C
43 16-02-2011 08:24:03 4.2 C 85 % 1.91 C
44 16-02-2011 08:36:02 4.4 C 85 % 2.11 C
45 16-02-2011 08:48:03 4.5 C 85 % 2.2 C
46 16-02-2011 09:00:03 4.7 C 85 % 2.4 C
47 16-02-2011 09:12:02 5.1 C 82 % 2.29 C
48 16-02-2011 09:24:02 5.7 C 82 % 2.87 C
49 16-02-2011 09:36:02 5.9 C 80 % 2.72 C
50 16-02-2011 09:48:02 5.8 C 78 % 2.27 C
Sensor: Nr:Datum:Temp:Feuchte:Taupunkt:
Aussen-T/F 51 16-02-2011 10:00:02 6.6 C 75 % 2.49 C
52 16-02-2011 10:12:02 6.5 C 71 % 1.63 C
53 16-02-2011 10:24:02 6.7 C 70 % 1.63 C
54 16-02-2011 10:36:02 7.5 C 68 % 1.99 C
55 16-02-2011 10:48:02 7.6 C 67 % 1.88 C
56 16-02-2011 11:00:02 7.4 C 68 % 1.89 C
57 16-02-2011 11:12:03 7.4 C 66 % 1.48 C
58 16-02-2011 11:24:02 7.4 C 68 % 1.89 C
59 16-02-2011 11:36:02 7.9 C 66 % 1.95 C
60 16-02-2011 11:48:01 8.2 C 64 % 1.81 C
61 16-02-2011 12:00:01 8.3 C 63 % 1.68 C
62 16-02-2011 12:12:02 7.8 C 63 % 1.21 C
63 16-02-2011 12:24:01 7.9 C 66 % 1.95 C
64 16-02-2011 12:36:01 7.9 C 66 % 1.95 C
65 16-02-2011 12:48:01 7.7 C 66 % 1.76 C
66 16-02-2011 13:00:01 8.4 C 62 % 1.55 C
67 16-02-2011 13:12:02 9.5 C 59 % 1.9 C
68 16-02-2011 13:24:02 9.5 C 58 % 1.66 C
69 16-02-2011 13:36:01 9.3 C 59 % 1.71 C
70 16-02-2011 13:48:02 8.6 C 61 % 1.52 C
71 16-02-2011 14:00:02 8.4 C 62 % 1.55 C
72 16-02-2011 14:12:01 8.6 C 62 % 1.74 C
73 16-02-2011 14:24:02 9.6 C 59 % 1.99 C
74 16-02-2011 14:36:01 9.6 C 57 % 1.51 C
75 16-02-2011 14:48:02 9 C 59 % 1.43 C
Sensor: Nr:Datum:Temp:Feuchte:Taupunkt:
Aussen-T/F 76 16-02-2011 15:00:02 8.8 C 61 % 1.71 C
77 16-02-2011 15:12:02 8.7 C 61 % 1.61 C
78 16-02-2011 15:24:02 8.8 C 61 % 1.71 C
79 16-02-2011 15:36:02 9.5 C 61 % 2.37 C
80 16-02-2011 15:48:02 9.3 C 60 % 1.95 C
81 16-02-2011 16:00:02 10.6 C 56 % 2.2 C
82 16-02-2011 16:12:02 10.6 C 55 % 1.95 C
83 16-02-2011 16:24:01 10.7 C 53 % 1.52 C
84 16-02-2011 16:36:02 9.8 C 57 % 1.7 C
85 16-02-2011 16:48:02 8.8 C 62 % 1.93 C
86 16-02-2011 17:00:02 7.9 C 67 % 2.16 C
87 16-02-2011 17:12:02 7.5 C 69 % 2.19 C
88 16-02-2011 17:24:02 6.4 C 73 % 1.92 C
89 16-02-2011 17:36:02 5.4 C 77 % 1.7 C
90 16-02-2011 17:48:02 4.9 C 80 % 1.75 C
91 16-02-2011 18:00:02 4.4 C 82 % 1.6 C
92 16-02-2011 18:12:03 4.2 C 83 % 1.58 C
93 16-02-2011 18:24:02 3.8 C 84 % 1.35 C
94 16-02-2011 18:36:02 3.5 C 85 % 1.22 C
95 16-02-2011 18:48:02 3.5 C 86 % 1.38 C
96 16-02-2011 19:00:02 3.3 C 86 % 1.19 C
97 16-02-2011 19:12:01 3 C 87 % 1.05 C
98 16-02-2011 19:24:01 2.9 C 88 % 1.11 C
99 16-02-2011 19:36:02 2.7 C 88 % 0.92 C
100 16-02-2011 19:48:02 2.6 C 88 % 0.82 C
Sensor: Nr:Datum:Temp:Feuchte:Taupunkt:
Aussen-T/F 101 16-02-2011 20:00:02 2.3 C 88 % 0.52 C
102 16-02-2011 20:12:02 2.3 C 88 % 0.52 C
103 16-02-2011 20:24:02 2.1 C 89 % 0.48 C
104 16-02-2011 20:36:02 2.1 C 89 % 0.48 C
105 16-02-2011 20:48:01 1.4 C 89 % -0.21 C
106 16-02-2011 21:00:01 1.8 C 90 % 0.34 C
107 16-02-2011 21:12:02 1.5 C 89 % -0.11 C
108 16-02-2011 21:24:01 1.3 C 90 % -0.15 C
109 16-02-2011 21:36:02 1.5 C 90 % 0.04 C
110 16-02-2011 21:49:03 1.4 C 90 % -0.06 C
111 16-02-2011 22:01:04 1.4 C 90 % -0.06 C
112 16-02-2011 22:13:04 0.7 C 91 % -0.6 C
113 16-02-2011 22:25:04 0.6 C 91 % -0.7 C
114 16-02-2011 22:37:04 0.6 C 91 % -0.7 C
115 16-02-2011 22:49:04 0 C 91 % -1.29 C
116 16-02-2011 23:01:04 -0.2 C 91 % -1.49 C
117 16-02-2011 23:13:04 -0.4 C 91 % -1.69 C
118 16-02-2011 23:25:04 -0.4 C 91 % -1.69 C
119 16-02-2011 23:37:04 0 C 91 % -1.29 C
120 16-02-2011 23:49:04 -0.3 C 91 % -1.59 C
121 17-02-2011 00:01:04 -0.8 C 91 % -2.08 C
122 17-02-2011 00:13:04 -0.9 C 90 % -2.33 C
123 17-02-2011 00:25:04 -1 C 90 % -2.43 C
124 17-02-2011 00:37:04 -1 C 90 % -2.43 C
125 17-02-2011 00:49:04 -1 C 90 % -2.43 C
Sensor: Nr:Datum:Temp:Feuchte:Taupunkt:
Aussen-T/F 126 17-02-2011 01:01:04 -0.9 C 90 % -2.33 C
127 17-02-2011 01:13:04 -0.7 C 91 % -1.98 C
128 17-02-2011 01:25:04 -1 C 91 % -2.28 C
129 17-02-2011 01:37:04 -0.5 C 91 % -1.78 C
130 17-02-2011 01:49:04 -0.5 C 91 % -1.78 C
131 17-02-2011 02:01:05 -0.4 C 91 % -1.69 C
132 17-02-2011 02:13:05 -0.3 C 91 % -1.59 C
133 17-02-2011 02:25:05 -0.3 C 92 % -1.44 C
134 17-02-2011 02:37:05 -0.7 C 91 % -1.98 C
135 17-02-2011 02:49:05 -0.5 C 91 % -1.78 C
136 17-02-2011 03:01:05 -0.5 C 92 % -1.64 C
137 17-02-2011 03:13:05 -0.4 C 92 % -1.54 C
138 17-02-2011 03:25:05 -0.2 C 92 % -1.34 C
139 17-02-2011 03:37:05 -0.1 C 92 % -1.24 C
140 17-02-2011 03:49:05 0 C 92 % -1.14 C
141 17-02-2011 04:01:05 -0.1 C 92 % -1.24 C
142 17-02-2011 04:13:05 0 C 92 % -1.14 C
143 17-02-2011 04:25:05 0.1 C 92 % -1.04 C
144 17-02-2011 04:37:05 0.2 C 92 % -0.94 C
145 17-02-2011 04:49:05 0.4 C 93 % -0.6 C
146 17-02-2011 05:01:05 0.5 C 93 % -0.5 C
147 17-02-2011 05:13:05 0.5 C 93 % -0.5 C
148 17-02-2011 05:25:05 0.5 C 93 % -0.5 C
149 17-02-2011 05:37:05 0.5 C 93 % -0.5 C
150 17-02-2011 05:49:05 0.6 C 93 % -0.4 C
Sensor: Nr:Datum:Temp:Feuchte:Taupunkt:
Aussen-T/F 151 17-02-2011 06:01:05 0.8 C 93 % -0.2 C
152 17-02-2011 06:13:06 0.8 C 93 % -0.2 C
153 17-02-2011 06:25:06 0.9 C 93 % -0.1 C
154 17-02-2011 06:37:06 1.1 C 93 % 0.1 C
155 17-02-2011 06:49:06 1.1 C 93 % 0.1 C
156 17-02-2011 07:01:06 1.1 C 93 % 0.1 C
157 17-02-2011 07:13:06 1.2 C 93 % 0.2 C
158 17-02-2011 07:25:06 1.2 C 93 % 0.2 C
159 17-02-2011 07:37:03 1.3 C 93 % 0.3 C
160 17-02-2011 07:49:02 1.3 C 93 % 0.3 C
161 17-02-2011 08:01:02 1.4 C 93 % 0.4 C
162 17-02-2011 08:13:02 1.4 C 93 % 0.4 C
163 17-02-2011 08:25:02 1.4 C 93 % 0.4 C
164 17-02-2011 08:37:02 1.6 C 93 % 0.59 C
165 17-02-2011 08:49:02 1.8 C 93 % 0.79 C
166 17-02-2011 09:01:02 2.1 C 93 % 1.09 C
167 17-02-2011 09:13:02 2.2 C 93 % 1.19 C
168 17-02-2011 09:25:02 2.5 C 93 % 1.49 C
169 17-02-2011 09:37:02 2.4 C 92 % 1.24 C
170 17-02-2011 09:49:02 2.4 C 92 % 1.24 C
171 17-02-2011 10:01:02 3.1 C 92 % 1.93 C
172 17-02-2011 10:13:02 3.4 C 90 % 1.92 C
173 17-02-2011 10:25:02 4.1 C 85 % 1.81 C
174 17-02-2011 10:37:02 4.2 C 75 % 0.17 C
175 17-02-2011 10:49:02 4.1 C 69 % -1.06 C
Sensor: Nr:Datum:Temp:Feuchte:Taupunkt:
Aussen-T/F 176 17-02-2011 11:01:03 3.8 C 68 % -1.55 C
177 17-02-2011 11:13:03 3.6 C 69 % -1.54 C
178 17-02-2011 11:25:02 3.5 C 70 % -1.44 C
179 17-02-2011 11:37:02 4.4 C 65 % -1.59 C
180 17-02-2011 11:49:01 4.7 C 61 % -2.16 C
181 17-02-2011 12:01:01 6.1 C 55 % -2.25 C
182 17-02-2011 12:13:02 5.8 C 55 % -2.53 C
183 17-02-2011 12:25:01 5.6 C 54 % -2.96 C
184 17-02-2011 12:37:01 5.7 C 54 % -2.87 C
185 17-02-2011 12:49:01 7.4 C 52 % -1.8 C
186 17-02-2011 13:01:01 8 C 47 % -2.61 C
187 17-02-2011 13:13:01 6.5 C 48 % -3.7 C
188 17-02-2011 13:25:02 7 C 48 % -3.24 C
189 17-02-2011 13:37:01 5.6 C 53 % -3.21 C
190 17-02-2011 13:49:02 5 C 56 % -3.03 C
191 17-02-2011 14:01:02 5.1 C 57 % -2.7 C
192 17-02-2011 14:13:02 5.3 C 56 % -2.75 C
193 17-02-2011 14:25:02 5.7 C 55 % -2.62 C
194 17-02-2011 14:37:02 5.8 C 55 % -2.53 C
195 17-02-2011 14:49:02 5.6 C 52 % -3.46 C
196 17-02-2011 15:01:01 6.1 C 53 % -2.74 C
197 17-02-2011 15:13:01 6.1 C 52 % -3 C
198 17-02-2011 15:25:02 5.5 C 54 % -3.05 C
199 17-02-2011 15:37:02 5.5 C 54 % -3.05 C
200 17-02-2011 15:49:02 5.8 C 52 % -3.28 C
Sensor: Nr:Datum:Temp:Feuchte:Taupunkt:
Aussen-T/F 201 17-02-2011 16:01:02 4.7 C 56 % -3.31 C
202 17-02-2011 16:13:02 4.4 C 58 % -3.12 C
203 17-02-2011 16:25:02 4.1 C 59 % -3.18 C
204 17-02-2011 16:37:02 4 C 59 % -3.27 C
205 17-02-2011 16:49:01 3.6 C 62 % -2.98 C
206 17-02-2011 17:01:01 3.3 C 61 % -3.49 C
207 17-02-2011 17:13:01 3 C 62 % -3.55 C
208 17-02-2011 17:25:01 2.9 C 64 % -3.22 C
209 17-02-2011 17:37:01 2.6 C 63 % -3.72 C
210 17-02-2011 17:49:01 2.1 C 66 % -3.57 C
211 17-02-2011 18:01:01 1.5 C 69 % -3.55 C
212 17-02-2011 18:13:01 1.4 C 71 % -3.27 C
213 17-02-2011 18:25:02 1 C 72 % -3.47 C
214 17-02-2011 18:37:01 0.6 C 73 % -3.67 C
215 17-02-2011 18:49:03 0.3 C 74 % -3.78 C
216 17-02-2011 19:01:02 0 C 76 % -3.71 C
217 17-02-2011 19:13:02 -0.4 C 78 % -3.76 C
218 17-02-2011 19:25:02 -0.4 C 79 % -3.59 C
219 17-02-2011 19:37:02 -0.9 C 79 % -4.08 C
220 17-02-2011 19:49:02 -0.8 C 81 % -3.64 C
221 17-02-2011 20:01:02 -0.2 C 83 % -2.73 C
222 17-02-2011 20:13:02 0.2 C 83 % -2.34 C
223 17-02-2011 20:25:02 0.2 C 83 % -2.34 C
224 17-02-2011 20:37:02 0.3 C 82 % -2.4 C
225 17-02-2011 20:49:01 0.5 C 81 % -2.37 C
Sensor: Nr:Datum:Temp:Feuchte:Taupunkt:
Aussen-T/F 226 17-02-2011 21:02:02 0.5 C 81 % -2.37 C
227 17-02-2011 21:14:03 0.8 C 80 % -2.25 C
228 17-02-2011 21:26:03 1 C 78 % -2.39 C
229 17-02-2011 21:38:03 1.1 C 76 % -2.65 C
230 17-02-2011 21:50:03 1.3 C 74 % -2.81 C
231 17-02-2011 22:02:03 1.3 C 73 % -2.99 C
232 17-02-2011 22:14:03 1.3 C 72 % -3.18 C
233 17-02-2011 22:26:03 1.3 C 72 % -3.18 C
234 17-02-2011 22:38:03 1.3 C 72 % -3.18 C
235 17-02-2011 22:50:03 1.3 C 72 % -3.18 C
236 17-02-2011 23:02:03 1.3 C 72 % -3.18 C
237 17-02-2011 23:14:03 1.4 C 71 % -3.27 C
238 17-02-2011 23:26:03 1.4 C 71 % -3.27 C
239 17-02-2011 23:38:03 1.4 C 72 % -3.08 C
240 17-02-2011 23:50:03 1.3 C 72 % -3.18 C
241 18-02-2011 00:02:03 1.3 C 72 % -3.18 C
242 18-02-2011 00:14:03 1.4 C 72 % -3.08 C
243 18-02-2011 00:26:03 1.3 C 72 % -3.18 C
244 18-02-2011 00:38:03 1.2 C 73 % -3.09 C
245 18-02-2011 00:50:03 1.2 C 73 % -3.09 C
246 18-02-2011 01:02:03 1.3 C 73 % -2.99 C
247 18-02-2011 01:14:03 1.2 C 72 % -3.27 C
248 18-02-2011 01:26:04 1.2 C 72 % -3.27 C
249 18-02-2011 01:38:04 1.2 C 72 % -3.27 C
250 18-02-2011 01:50:04 1.2 C 72 % -3.27 C
Sensor: Nr:Datum:Temp:Feuchte:Taupunkt:
Aussen-T/F 251 18-02-2011 02:02:04 1.2 C 73 % -3.09 C
252 18-02-2011 02:14:04 1.3 C 74 % -2.81 C
253 18-02-2011 02:26:04 1.2 C 74 % -2.91 C
254 18-02-2011 02:38:04 1.2 C 74 % -2.91 C
255 18-02-2011 02:50:04 1.2 C 74 % -2.91 C
256 18-02-2011 03:02:04 1.2 C 74 % -2.91 C
257 18-02-2011 03:14:04 1.2 C 74 % -2.91 C
258 18-02-2011 03:26:04 1.3 C 73 % -2.99 C
259 18-02-2011 03:38:04 1.3 C 73 % -2.99 C
260 18-02-2011 03:50:04 1.3 C 72 % -3.18 C
261 18-02-2011 04:02:04 1.3 C 73 % -2.99 C
262 18-02-2011 04:14:04 1.3 C 73 % -2.99 C
263 18-02-2011 04:26:04 1.3 C 72 % -3.18 C
264 18-02-2011 04:38:04 1.3 C 72 % -3.18 C
265 18-02-2011 04:50:04 1.3 C 72 % -3.18 C
266 18-02-2011 05:02:04 1.2 C 72 % -3.27 C
267 18-02-2011 05:14:04 1.2 C 72 % -3.27 C
268 18-02-2011 05:26:04 1.2 C 73 % -3.09 C
269 18-02-2011 05:38:05 1.2 C 73 % -3.09 C
270 18-02-2011 05:50:05 1.1 C 74 % -3 C
271 18-02-2011 06:02:05 1.1 C 74 % -3 C
272 18-02-2011 06:14:05 1.2 C 74 % -2.91 C
273 18-02-2011 06:26:05 1.2 C 75 % -2.73 C
274 18-02-2011 06:38:05 1.2 C 74 % -2.91 C
275 18-02-2011 06:50:05 1.2 C 74 % -2.91 C
Sensor: Nr:Datum:Temp:Feuchte:Taupunkt:
Aussen-T/F 276 18-02-2011 07:02:05 1.3 C 74 % -2.81 C
277 18-02-2011 07:14:05 1.2 C 75 % -2.73 C
278 18-02-2011 07:26:05 1.2 C 75 % -2.73 C
279 18-02-2011 07:38:02 1.3 C 74 % -2.81 C
280 18-02-2011 07:50:02 1.2 C 74 % -2.91 C
281 18-02-2011 08:02:03 1.4 C 74 % -2.71 C
282 18-02-2011 08:14:03 1.4 C 75 % -2.53 C
283 18-02-2011 08:26:02 1.5 C 74 % -2.62 C
284 18-02-2011 08:38:03 1.6 C 74 % -2.52 C
285 18-02-2011 08:50:02 1.7 C 74 % -2.42 C
286 18-02-2011 09:02:02 1.8 C 74 % -2.33 C
287 18-02-2011 09:14:02 2 C 71 % -2.69 C
288 18-02-2011 09:26:01 2.2 C 70 % -2.69 C
289 18-02-2011 09:38:02 2.3 C 69 % -2.79 C
290 18-02-2011 09:50:02 2.3 C 69 % -2.79 C
291 18-02-2011 10:02:02 2.5 C 69 % -2.6 C
292 18-02-2011 10:14:02 2.4 C 68 % -2.89 C
293 18-02-2011 10:26:02 2.5 C 68 % -2.79 C
294 18-02-2011 10:38:02 2.5 C 69 % -2.6 C
295 18-02-2011 10:50:02 2.7 C 69 % -2.4 C
296 18-02-2011 11:02:01 2.8 C 69 % -2.31 C
297 18-02-2011 11:14:01 2.8 C 68 % -2.51 C
298 18-02-2011 11:26:02 3 C 67 % -2.51 C
299 18-02-2011 11:38:02 3 C 67 % -2.51 C
300 18-02-2011 11:50:02 3 C 67 % -2.51 C
Sensor: Nr:Datum:Temp:Feuchte:Taupunkt:
Aussen-T/F 301 18-02-2011 12:02:02 3.1 C 67 % -2.42 C
302 18-02-2011 12:14:02 3.3 C 67 % -2.23 C
303 18-02-2011 12:26:02 3.2 C 67 % -2.32 C
304 18-02-2011 12:38:02 3.2 C 67 % -2.32 C
305 18-02-2011 12:50:02 3.1 C 67 % -2.42 C
306 18-02-2011 13:02:02 3.2 C 68 % -2.12 C
307 18-02-2011 13:14:02 3.2 C 67 % -2.32 C
308 18-02-2011 13:26:01 3.5 C 68 % -1.84 C
309 18-02-2011 13:38:02 3.4 C 67 % -2.13 C
310 18-02-2011 13:50:02 3.6 C 66 % -2.14 C
311 18-02-2011 14:02:02 3.4 C 67 % -2.13 C
312 18-02-2011 14:14:03 3.7 C 67 % -1.85 C
313 18-02-2011 14:26:01 3.6 C 67 % -1.94 C
314 18-02-2011 14:38:02 3.6 C 67 % -1.94 C
315 18-02-2011 14:50:01 3.5 C 68 % -1.84 C
316 18-02-2011 15:02:02 3.7 C 68 % -1.64 C
317 18-02-2011 15:14:02 3.8 C 67 % -1.75 C
318 18-02-2011 15:26:02 3.6 C 66 % -2.14 C
319 18-02-2011 15:38:02 3.6 C 66 % -2.14 C
320 18-02-2011 15:50:02 3.6 C 67 % -1.94 C
321 18-02-2011 16:02:01 3.6 C 67 % -1.94 C
322 18-02-2011 16:14:01 3.5 C 68 % -1.84 C
323 18-02-2011 16:26:02 3.4 C 68 % -1.93 C
324 18-02-2011 16:38:01 3.2 C 69 % -1.93 C
325 18-02-2011 16:50:03 3.1 C 70 % -1.83 C
Sensor: Nr:Datum:Temp:Feuchte:Taupunkt:
Aussen-T/F 326 18-02-2011 17:02:02 3 C 71 % -1.73 C
327 18-02-2011 17:14:02 2.9 C 72 % -1.64 C
328 18-02-2011 17:26:02 2.9 C 72 % -1.64 C
329 18-02-2011 17:38:03 2.9 C 73 % -1.45 C
330 18-02-2011 17:50:02 2.8 C 74 % -1.36 C
331 18-02-2011 18:02:02 2.8 C 74 % -1.36 C
332 18-02-2011 18:14:02 2.8 C 75 % -1.18 C
333 18-02-2011 18:26:02 2.7 C 75 % -1.28 C
334 18-02-2011 18:38:02 2.7 C 76 % -1.1 C
335 18-02-2011 18:50:02 2.6 C 75 % -1.37 C
336 18-02-2011 19:02:01 2.6 C 76 % -1.19 C
337 18-02-2011 19:14:01 2.7 C 76 % -1.1 C
338 18-02-2011 19:26:02 2.6 C 76 % -1.19 C
339 18-02-2011 19:38:01 2.7 C 77 % -0.92 C
340 18-02-2011 19:50:02 2.6 C 77 % -1.02 C
341 18-02-2011 20:02:01 2.5 C 77 % -1.11 C
342 18-02-2011 20:14:01 2.5 C 77 % -1.11 C
343 18-02-2011 20:26:01 2.5 C 77 % -1.11 C
344 18-02-2011 20:38:02 2.5 C 78 % -0.94 C
345 18-02-2011 20:50:02 2.4 C 78 % -1.03 C
346 18-02-2011 21:02:02 2.4 C 79 % -0.86 C
347 18-02-2011 21:14:02 2.4 C 79 % -0.86 C
348 18-02-2011 21:26:02 2.4 C 79 % -0.86 C
349 18-02-2011 21:38:02 2.4 C 79 % -0.86 C
350 18-02-2011 21:51:04 2.3 C 79 % -0.96 C
Sensor: Nr:Datum:Temp:Feuchte:Taupunkt:
Aussen-T/F 351 18-02-2011 22:03:04 2.3 C 79 % -0.96 C
352 18-02-2011 22:15:04 2.3 C 79 % -0.96 C
353 18-02-2011 22:27:04 2.2 C 79 % -1.05 C
354 18-02-2011 22:39:04 2.2 C 80 % -0.88 C
355 18-02-2011 22:51:04 2.2 C 80 % -0.88 C
356 18-02-2011 23:03:04 2.3 C 80 % -0.79 C
357 18-02-2011 23:15:04 2.2 C 81 % -0.71 C
358 18-02-2011 23:27:04 2.2 C 81 % -0.71 C
359 18-02-2011 23:39:04 2.2 C 81 % -0.71 C
360 18-02-2011 23:51:04 2.2 C 81 % -0.71 C
361 19-02-2011 00:03:04 2.1 C 81 % -0.81 C
362 19-02-2011 00:15:04 2.1 C 81 % -0.81 C
363 19-02-2011 00:27:04 2.2 C 81 % -0.71 C
364 19-02-2011 00:39:04 2.2 C 82 % -0.55 C
365 19-02-2011 00:51:04 2.2 C 82 % -0.55 C
366 19-02-2011 01:03:04 2.1 C 82 % -0.64 C
367 19-02-2011 01:15:05 2.1 C 82 % -0.64 C
368 19-02-2011 01:27:05 2.1 C 82 % -0.64 C
369 19-02-2011 01:39:05 2.1 C 82 % -0.64 C
370 19-02-2011 01:51:05 2 C 82 % -0.74 C
371 19-02-2011 02:03:05 2 C 82 % -0.74 C
372 19-02-2011 02:15:05 2 C 82 % -0.74 C
373 19-02-2011 02:27:05 1.9 C 83 % -0.67 C
374 19-02-2011 02:39:05 2 C 82 % -0.74 C
375 19-02-2011 02:51:05 2 C 82 % -0.74 C
Sensor: Nr:Datum:Temp:Feuchte:Taupunkt:
Aussen-T/F 376 19-02-2011 03:03:05 1.9 C 83 % -0.67 C
377 19-02-2011 03:15:05 1.9 C 83 % -0.67 C
378 19-02-2011 03:27:05 2 C 83 % -0.58 C
379 19-02-2011 03:39:05 2 C 83 % -0.58 C
380 19-02-2011 03:51:05 1.9 C 83 % -0.67 C
381 19-02-2011 04:03:05 1.9 C 84 % -0.51 C
382 19-02-2011 04:15:05 1.9 C 84 % -0.51 C
383 19-02-2011 04:27:05 1.8 C 84 % -0.61 C
384 19-02-2011 04:39:05 1.9 C 84 % -0.51 C
385 19-02-2011 04:51:05 1.8 C 84 % -0.61 C
386 19-02-2011 05:03:05 1.8 C 84 % -0.61 C
387 19-02-2011 05:15:05 1.8 C 84 % -0.61 C
388 19-02-2011 05:27:06 1.9 C 83 % -0.67 C
389 19-02-2011 05:39:06 1.9 C 82 % -0.84 C
390 19-02-2011 05:51:06 2 C 79 % -1.25 C
391 19-02-2011 06:03:06 2 C 79 % -1.25 C
392 19-02-2011 06:15:06 1.8 C 79 % -1.44 C
393 19-02-2011 06:27:06 1.7 C 80 % -1.37 C
394 19-02-2011 06:39:06 1.7 C 81 % -1.2 C
395 19-02-2011 06:51:06 1.8 C 81 % -1.1 C
396 19-02-2011 07:03:06 1.8 C 80 % -1.27 C
397 19-02-2011 07:15:06 1.7 C 80 % -1.37 C
398 19-02-2011 07:27:06 1.6 C 80 % -1.47 C
399 19-02-2011 07:39:06 1.6 C 81 % -1.3 C
400 19-02-2011 07:51:06 1.7 C 80 % -1.37 C
Sensor: Nr:Datum:Temp:Feuchte:Taupunkt:
Aussen-T/F 401 19-02-2011 08:03:06 1.7 C 80 % -1.37 C
402 19-02-2011 08:15:06 1.7 C 79 % -1.54 C
403 19-02-2011 08:27:06 1.8 C 78 % -1.62 C
404 19-02-2011 08:39:06 1.8 C 77 % -1.79 C
405 19-02-2011 08:51:02 1.9 C 77 % -1.69 C
406 19-02-2011 09:03:02 2 C 75 % -1.95 C
407 19-02-2011 09:15:02 2 C 74 % -2.13 C
408 19-02-2011 09:27:02 2.1 C 73 % -2.22 C
409 19-02-2011 09:39:02 2.2 C 73 % -2.13 C
410 19-02-2011 09:51:02 2.1 C 73 % -2.22 C
411 19-02-2011 10:03:02 2.2 C 73 % -2.13 C
412 19-02-2011 10:15:02 2.5 C 72 % -2.02 C
413 19-02-2011 10:27:02 2.8 C 71 % -1.92 C
414 19-02-2011 10:39:02 3.2 C 69 % -1.93 C
415 19-02-2011 10:51:02 3.4 C 68 % -1.93 C
416 19-02-2011 11:03:02 3.4 C 67 % -2.13 C
417 19-02-2011 11:15:02 3.8 C 66 % -1.95 C
418 19-02-2011 11:27:02 3.8 C 65 % -2.16 C
419 19-02-2011 11:39:02 4 C 63 % -2.39 C
420 19-02-2011 11:51:02 4.1 C 61 % -2.73 C
421 19-02-2011 12:03:02 4.4 C 61 % -2.45 C
422 19-02-2011 12:15:02 4.9 C 60 % -2.2 C
423 19-02-2011 12:27:03 5.4 C 57 % -2.42 C
424 19-02-2011 12:39:01 5.3 C 56 % -2.75 C
425 19-02-2011 12:51:02 4.7 C 60 % -2.39 C
Sensor: Nr:Datum:Temp:Feuchte:Taupunkt:
Aussen-T/F 426 19-02-2011 13:03:01 4.7 C 61 % -2.16 C
427 19-02-2011 13:15:01 4.9 C 60 % -2.2 C
428 19-02-2011 13:27:01 5.1 C 59 % -2.24 C
429 19-02-2011 13:39:02 5.2 C 59 % -2.14 C
430 19-02-2011 13:51:02 5.8 C 57 % -2.04 C
431 19-02-2011 14:03:02 5.2 C 58 % -2.37 C
432 19-02-2011 14:15:02 4.8 C 59 % -2.52 C
433 19-02-2011 14:27:02 4.6 C 61 % -2.26 C
434 19-02-2011 14:39:02 4.5 C 61 % -2.35 C
435 19-02-2011 14:51:02 4.6 C 61 % -2.26 C
436 19-02-2011 15:03:02 4.7 C 61 % -2.16 C
437 19-02-2011 15:15:02 4.6 C 62 % -2.04 C
438 19-02-2011 15:27:02 4.6 C 61 % -2.26 C
439 19-02-2011 15:39:02 4.5 C 61 % -2.35 C
440 19-02-2011 15:51:02 4.9 C 61 % -1.97 C
441 19-02-2011 16:03:02 4.8 C 61 % -2.07 C
442 19-02-2011 16:15:03 4.6 C 62 % -2.04 C
443 19-02-2011 16:27:03 4.3 C 64 % -1.89 C
444 19-02-2011 16:39:02 4.2 C 65 % -1.78 C
445 19-02-2011 16:51:02 4.1 C 65 % -1.87 C
446 19-02-2011 17:03:02 4.1 C 66 % -1.67 C
447 19-02-2011 17:15:02 3.8 C 67 % -1.75 C
448 19-02-2011 17:27:02 3.6 C 69 % -1.54 C
449 19-02-2011 17:39:02 3.6 C 70 % -1.35 C
450 19-02-2011 17:51:02 3.6 C 70 % -1.35 C
Sensor: Nr:Datum:Temp:Feuchte:Taupunkt:
Aussen-T/F 451 19-02-2011 18:03:02 3.3 C 71 % -1.44 C
452 19-02-2011 18:15:02 3.1 C 71 % -1.63 C
453 19-02-2011 18:27:02 3 C 72 % -1.54 C
454 19-02-2011 18:39:01 2.9 C 74 % -1.27 C
455 19-02-2011 18:51:02 2.8 C 74 % -1.36 C
456 19-02-2011 19:03:01 2.8 C 74 % -1.36 C
457 19-02-2011 19:15:01 3 C 74 % -1.17 C
458 19-02-2011 19:27:01 2.9 C 74 % -1.27 C
459 19-02-2011 19:39:02 2.9 C 74 % -1.27 C
460 19-02-2011 19:51:02 2.9 C 74 % -1.27 C
461 19-02-2011 20:03:02 2.6 C 74 % -1.56 C
462 19-02-2011 20:15:01 2.5 C 74 % -1.65 C
463 19-02-2011 20:27:01 2.4 C 74 % -1.75 C
464 19-02-2011 20:39:02 1.6 C 76 % -2.16 C
465 19-02-2011 20:51:02 1.6 C 79 % -1.64 C
466 19-02-2011 21:03:02 2 C 80 % -1.08 C
467 19-02-2011 21:15:01 2.3 C 79 % -0.96 C
468 19-02-2011 21:27:01 2.4 C 77 % -1.21 C
469 19-02-2011 21:39:02 2.5 C 76 % -1.29 C
470 19-02-2011 21:51:02 2.6 C 74 % -1.56 C
471 19-02-2011 22:03:02 2.5 C 74 % -1.65 C
472 19-02-2011 22:15:02 2.4 C 73 % -1.93 C
473 19-02-2011 22:27:02 2.2 C 73 % -2.13 C
474 19-02-2011 22:40:03 1.9 C 75 % -2.05 C
475 19-02-2011 22:52:03 1.8 C 75 % -2.15 C
Sensor: Nr:Datum:Temp:Feuchte:Taupunkt:
Aussen-T/F 476 19-02-2011 23:04:03 1.8 C 75 % -2.15 C
477 19-02-2011 23:16:03 1.7 C 76 % -2.07 C
478 19-02-2011 23:28:03 1.8 C 76 % -1.97 C
479 19-02-2011 23:40:03 1.9 C 75 % -2.05 C
480 19-02-2011 23:52:03 1.8 C 74 % -2.33 C
481 20-02-2011 00:04:03 1.7 C 74 % -2.42 C
482 20-02-2011 00:16:03 1.7 C 73 % -2.61 C
483 20-02-2011 00:28:03 1.6 C 72 % -2.89 C
484 20-02-2011 00:40:04 1.5 C 72 % -2.99 C
485 20-02-2011 00:52:04 1.4 C 72 % -3.08 C
486 20-02-2011 01:04:04 1.3 C 72 % -3.18 C
487 20-02-2011 01:16:04 1.1 C 72 % -3.37 C
488 20-02-2011 01:28:04 0.9 C 74 % -3.2 C
489 20-02-2011 01:40:04 0.7 C 75 % -3.21 C
490 20-02-2011 01:52:04 0.5 C 75 % -3.4 C
491 20-02-2011 02:04:04 0.5 C 76 % -3.23 C
492 20-02-2011 02:16:04 0.5 C 76 % -3.23 C
493 20-02-2011 02:28:04 0.5 C 76 % -3.23 C
494 20-02-2011 02:40:04 0.6 C 76 % -3.13 C
495 20-02-2011 02:52:04 0.7 C 75 % -3.21 C
496 20-02-2011 03:04:04 0.8 C 74 % -3.29 C
497 20-02-2011 03:16:04 0.8 C 73 % -3.48 C
498 20-02-2011 03:28:04 0.7 C 73 % -3.57 C
499 20-02-2011 03:40:04 0.6 C 72 % -3.85 C
500 20-02-2011 03:52:04 0.6 C 72 % -3.85 C
Sensor: Nr:Datum:Temp:Feuchte:Taupunkt:
Aussen-T/F 501 20-02-2011 04:04:04 0.6 C 72 % -3.85 C
502 20-02-2011 04:16:04 0.5 C 72 % -3.95 C
503 20-02-2011 04:28:04 0.5 C 72 % -3.95 C
504 20-02-2011 04:40:05 0.5 C 72 % -3.95 C
505 20-02-2011 04:52:05 0.5 C 72 % -3.95 C
506 20-02-2011 05:04:05 0.5 C 71 % -4.13 C
507 20-02-2011 05:16:05 0.4 C 72 % -4.04 C
508 20-02-2011 05:28:05 0.3 C 72 % -4.14 C
509 20-02-2011 05:40:05 0.3 C 72 % -4.14 C
510 20-02-2011 05:52:05 0.2 C 72 % -4.24 C
511 20-02-2011 06:04:05 0.3 C 71 % -4.33 C
512 20-02-2011 06:16:05 0.3 C 71 % -4.33 C
513 20-02-2011 06:28:05 0.4 C 71 % -4.23 C
514 20-02-2011 06:40:05 0.4 C 71 % -4.23 C
515 20-02-2011 06:52:05 0.4 C 71 % -4.23 C
516 20-02-2011 07:04:05 0.4 C 71 % -4.23 C
517 20-02-2011 07:16:05 0.5 C 70 % -4.32 C
518 20-02-2011 07:28:05 0.4 C 70 % -4.42 C
519 20-02-2011 07:40:05 0.4 C 69 % -4.61 C
520 20-02-2011 07:52:05 0.4 C 68 % -4.8 C
521 20-02-2011 08:04:05 0.5 C 68 % -4.71 C
522 20-02-2011 08:16:05 0.4 C 68 % -4.8 C
523 20-02-2011 08:28:05 0.5 C 67 % -4.9 C
524 20-02-2011 08:40:05 0.6 C 67 % -4.81 C
525 20-02-2011 08:52:06 0.7 C 66 % -4.91 C
Sensor: Nr:Datum:Temp:Feuchte:Taupunkt:
Aussen-T/F 526 20-02-2011 09:04:06 0.7 C 66 % -4.91 C
527 20-02-2011 09:16:06 0.9 C 65 % -4.92 C
528 20-02-2011 09:28:06 1.2 C 63 % -5.05 C
529 20-02-2011 09:40:03 1.2 C 62 % -5.26 C
530 20-02-2011 09:52:01 1.5 C 61 % -5.19 C
531 20-02-2011 10:04:02 1.5 C 60 % -5.4 C
532 20-02-2011 10:16:02 1.6 C 60 % -5.31 C
533 20-02-2011 10:28:02 1.6 C 59 % -5.53 C
534 20-02-2011 10:40:01 1.7 C 59 % -5.43 C
535 20-02-2011 10:52:02 1.7 C 58 % -5.66 C
536 20-02-2011 11:04:01 1.8 C 57 % -5.79 C
537 20-02-2011 11:16:02 2.3 C 57 % -5.32 C
538 20-02-2011 11:28:02 2 C 56 % -5.84 C
539 20-02-2011 11:40:01 2.4 C 56 % -5.46 C
540 20-02-2011 11:52:03 2.2 C 55 % -5.89 C
541 20-02-2011 12:04:02 2.5 C 55 % -5.61 C
542 20-02-2011 12:16:02 2.4 C 54 % -5.94 C
543 20-02-2011 12:28:02 2.5 C 54 % -5.85 C
544 20-02-2011 12:40:02 2.5 C 54 % -5.85 C
545 20-02-2011 12:52:02 2.2 C 54 % -6.12 C
546 20-02-2011 13:04:01 2.3 C 54 % -6.03 C
547 20-02-2011 13:16:02 2.2 C 54 % -6.12 C
548 20-02-2011 13:28:02 2.3 C 54 % -6.03 C
549 20-02-2011 13:40:02 2.1 C 54 % -6.22 C
550 20-02-2011 13:52:01 2.2 C 54 % -6.12 C
Sensor: Nr:Datum:Temp:Feuchte:Taupunkt:
Aussen-T/F 551 20-02-2011 14:04:02 2.2 C 54 % -6.12 C
552 20-02-2011 14:16:01 2.2 C 53 % -6.37 C
553 20-02-2011 14:28:01 2 C 53 % -6.55 C
554 20-02-2011 14:40:01 1.9 C 54 % -6.4 C
555 20-02-2011 14:52:01 2.4 C 52 % -6.43 C
556 20-02-2011 15:04:02 2.5 C 51 % -6.59 C
557 20-02-2011 15:16:01 2.6 C 50 % -6.75 C
558 20-02-2011 15:28:01 2.5 C 50 % -6.85 C
559 20-02-2011 15:40:02 2.6 C 50 % -6.75 C
560 20-02-2011 15:52:01 2.2 C 50 % -7.12 C
561 20-02-2011 16:04:02 1.7 C 53 % -6.83 C
562 20-02-2011 16:16:02 1.6 C 53 % -6.93 C
563 20-02-2011 16:28:02 1.3 C 55 % -6.73 C
564 20-02-2011 16:40:01 1.1 C 55 % -6.91 C
565 20-02-2011 16:52:01 1 C 56 % -6.77 C
566 20-02-2011 17:04:01 1 C 57 % -6.54 C
567 20-02-2011 17:16:02 0.7 C 57 % -6.82 C
568 20-02-2011 17:28:02 0.5 C 58 % -6.79 C
569 20-02-2011 17:40:01 0.5 C 58 % -6.79 C
570 20-02-2011 17:52:02 0.3 C 58 % -6.97 C
571 20-02-2011 18:04:01 0.1 C 57 % -7.39 C
572 20-02-2011 18:16:01 0.1 C 58 % -7.16 C
573 20-02-2011 18:28:01 0 C 59 % -7.04 C
574 20-02-2011 18:40:01 0 C 58 % -7.26 C
575 20-02-2011 18:52:02 -0.2 C 58 % -7.45 C
Sensor: Nr:Datum:Temp:Feuchte:Taupunkt:
Aussen-T/F 576 20-02-2011 19:04:01 -0.2 C 58 % -7.45 C
577 20-02-2011 19:16:02 -0.3 C 58 % -7.55 C
578 20-02-2011 19:28:02 -0.3 C 59 % -7.33 C
579 20-02-2011 19:40:02 -0.3 C 58 % -7.55 C
580 20-02-2011 19:52:02 -0.5 C 57 % -7.96 C
581 20-02-2011 20:04:02 -0.6 C 58 % -7.83 C
582 20-02-2011 20:16:02 -0.7 C 58 % -7.92 C
583 20-02-2011 20:28:02 -0.8 C 57 % -8.24 C
584 20-02-2011 20:40:01 -0.9 C 57 % -8.34 C
585 20-02-2011 20:52:01 -0.9 C 57 % -8.34 C
586 20-02-2011 21:04:01 -0.9 C 57 % -8.34 C
587 20-02-2011 21:16:02 -0.9 C 56 % -8.56 C
588 20-02-2011 21:28:02 -1.1 C 56 % -8.75 C
589 20-02-2011 21:40:01 -1.1 C 57 % -8.52 C
590 20-02-2011 21:53:06 -1.2 C 57 % -8.62 C
591 20-02-2011 22:05:06 -1.3 C 57 % -8.71 C
592 20-02-2011 22:17:06 -1.4 C 57 % -8.81 C
593 20-02-2011 22:29:06 -1.4 C 57 % -8.81 C
594 20-02-2011 22:41:06 -1.4 C 57 % -8.81 C
595 20-02-2011 22:53:06 -1.5 C 57 % -8.9 C
596 20-02-2011 23:05:06 -1.6 C 57 % -8.99 C
597 20-02-2011 23:17:07 -1.6 C 57 % -8.99 C
598 20-02-2011 23:29:07 -1.7 C 57 % -9.09 C
599 20-02-2011 23:41:07 -1.6 C 57 % -8.99 C
600 20-02-2011 23:53:07 -1.7 C 56 % -9.31 C
Sensor: Nr:Datum:Temp:Feuchte:Taupunkt:
Aussen-T/F 601 21-02-2011 00:05:07 -1.8 C 56 % -9.41 C
602 21-02-2011 00:17:07 -1.8 C 56 % -9.41 C
603 21-02-2011 00:29:07 -1.8 C 56 % -9.41 C
604 21-02-2011 00:41:07 -1.9 C 57 % -9.28 C
605 21-02-2011 00:53:07 -1.9 C 57 % -9.28 C
606 21-02-2011 01:05:07 -1.9 C 56 % -9.5 C
607 21-02-2011 01:17:07 -2 C 55 % -9.82 C
608 21-02-2011 01:29:07 -2 C 56 % -9.59 C
609 21-02-2011 01:41:07 -2.1 C 56 % -9.69 C
610 21-02-2011 01:53:07 -2.1 C 56 % -9.69 C
611 21-02-2011 02:05:07 -2.1 C 56 % -9.69 C
612 21-02-2011 02:17:07 -2.2 C 56 % -9.78 C
613 21-02-2011 02:29:07 -2.3 C 56 % -9.87 C
614 21-02-2011 02:41:07 -2.3 C 56 % -9.87 C
615 21-02-2011 02:53:07 -2.3 C 56 % -9.87 C
616 21-02-2011 03:05:07 -2.3 C 56 % -9.87 C
617 21-02-2011 03:17:08 -2.3 C 56 % -9.87 C
618 21-02-2011 03:29:08 -2.4 C 55 % -10.2 C
619 21-02-2011 03:41:08 -2.5 C 55 % -10.29 C
620 21-02-2011 03:53:08 -2.5 C 56 % -10.06 C
621 21-02-2011 04:05:08 -2.6 C 55 % -10.38 C
622 21-02-2011 04:17:08 -2.6 C 54 % -10.61 C
623 21-02-2011 04:29:08 -2.7 C 55 % -10.48 C
624 21-02-2011 04:41:08 -2.6 C 55 % -10.38 C
625 21-02-2011 04:53:08 -2.7 C 55 % -10.48 C
Sensor: Nr:Datum:Temp:Feuchte:Taupunkt:
Aussen-T/F 626 21-02-2011 05:05:08 -2.7 C 55 % -10.48 C
627 21-02-2011 05:17:08 -2.7 C 55 % -10.48 C
628 21-02-2011 05:29:08 -2.7 C 55 % -10.48 C
629 21-02-2011 05:41:08 -2.7 C 55 % -10.48 C
630 21-02-2011 05:53:08 -2.8 C 55 % -10.57 C
631 21-02-2011 06:05:08 -2.8 C 55 % -10.57 C
632 21-02-2011 06:17:08 -2.9 C 55 % -10.66 C
633 21-02-2011 06:29:08 -2.9 C 55 % -10.66 C
634 21-02-2011 06:41:08 -3 C 55 % -10.76 C
635 21-02-2011 06:53:08 -3 C 55 % -10.76 C
636 21-02-2011 07:05:08 -3.1 C 55 % -10.85 C
637 21-02-2011 07:17:02 -3.2 C 55 % -10.94 C
638 21-02-2011 07:29:02 -3.2 C 55 % -10.94 C
639 21-02-2011 07:41:02 -3.3 C 54 % -11.27 C
640 21-02-2011 07:53:02 -3.3 C 54 % -11.27 C
641 21-02-2011 08:05:03 -3.3 C 54 % -11.27 C
642 21-02-2011 08:17:02 -3.4 C 53 % -11.59 C
643 21-02-2011 08:29:02 -3.3 C 54 % -11.27 C
644 21-02-2011 08:41:02 -3.3 C 54 % -11.27 C
645 21-02-2011 08:53:01 -3.3 C 54 % -11.27 C
646 21-02-2011 09:05:02 -3.2 C 53 % -11.41 C
647 21-02-2011 09:17:01 -3.2 C 53 % -11.41 C
648 21-02-2011 09:29:01 -3 C 53 % -11.22 C
649 21-02-2011 09:41:02 -2.7 C 52 % -11.18 C
650 21-02-2011 09:53:02 -2.5 C 51 % -11.24 C
Sensor: Nr:Datum:Temp:Feuchte:Taupunkt:
Aussen-T/F 651 21-02-2011 10:05:02 -2.4 C 51 % -11.14 C
652 21-02-2011 10:17:02 -2.2 C 50 % -11.21 C
653 21-02-2011 10:29:03 -2 C 50 % -11.02 C
654 21-02-2011 10:41:01 -1.6 C 49 % -10.91 C
655 21-02-2011 10:53:02 -2 C 48 % -11.53 C
656 21-02-2011 11:05:01 -1.8 C 47 % -11.61 C
657 21-02-2011 11:17:01 -1.5 C 48 % -11.07 C
658 21-02-2011 11:29:01 -1.1 C 47 % -10.97 C
659 21-02-2011 11:41:02 -1.9 C 46 % -11.97 C
660 21-02-2011 11:53:02 -1.3 C 46 % -11.42 C
661 21-02-2011 12:05:02 -1 C 45 % -11.42 C
662 21-02-2011 12:17:02 -1.2 C 46 % -11.33 C
663 21-02-2011 12:29:02 -1.1 C 46 % -11.24 C
664 21-02-2011 12:41:02 -1.1 C 46 % -11.24 C
665 21-02-2011 12:53:02 -1.3 C 46 % -11.42 C
666 21-02-2011 13:05:02 -1.1 C 46 % -11.24 C
667 21-02-2011 13:17:02 -1 C 47 % -10.87 C
668 21-02-2011 13:29:02 -1 C 47 % -10.87 C
669 21-02-2011 13:41:02 -0.7 C 47 % -10.6 C
670 21-02-2011 13:53:02 -0.6 C 46 % -10.78 C
671 21-02-2011 14:05:02 -0.4 C 46 % -10.59 C
672 21-02-2011 14:17:03 -0.2 C 46 % -10.41 C
673 21-02-2011 14:29:03 -0.7 C 46 % -10.87 C
674 21-02-2011 14:41:02 -0.6 C 46 % -10.78 C
675 21-02-2011 14:53:02 -0.4 C 47 % -10.32 C
Sensor: Nr:Datum:Temp:Feuchte:Taupunkt:
Aussen-T/F 676 21-02-2011 15:05:02 -0.3 C 46 % -10.5 C
677 21-02-2011 15:17:02 0 C 46 % -10.21 C
678 21-02-2011 15:29:02 -0.2 C 46 % -10.41 C
679 21-02-2011 15:41:02 -0.1 C 47 % -10.05 C
680 21-02-2011 15:53:02 -0.2 C 47 % -10.14 C
681 21-02-2011 16:05:02 -0.6 C 47 % -10.51 C
682 21-02-2011 16:17:02 -0.7 C 48 % -10.33 C
683 21-02-2011 16:29:02 -0.6 C 49 % -9.98 C
684 21-02-2011 16:41:01 -0.6 C 49 % -9.98 C
685 21-02-2011 16:53:02 -0.7 C 50 % -9.82 C
686 21-02-2011 17:05:01 -0.8 C 50 % -9.91 C
687 21-02-2011 17:17:02 -0.9 C 50 % -10 C
688 21-02-2011 17:29:02 -1 C 51 % -9.85 C
689 21-02-2011 17:41:02 -1.1 C 51 % -9.94 C
690 21-02-2011 17:53:02 -1.2 C 51 % -10.03 C
691 21-02-2011 18:05:03 -1.1 C 52 % -9.69 C
692 21-02-2011 18:17:02 -1.1 C 51 % -9.94 C
693 21-02-2011 18:29:02 -1.2 C 51 % -10.03 C
694 21-02-2011 18:41:02 -1.2 C 52 % -9.79 C
695 21-02-2011 18:53:01 -1.2 C 51 % -10.03 C
696 21-02-2011 19:05:02 -1.2 C 51 % -10.03 C
697 21-02-2011 19:17:01 -1.1 C 51 % -9.94 C
698 21-02-2011 19:29:01 -1.2 C 51 % -10.03 C
699 21-02-2011 19:41:02 -1.1 C 51 % -9.94 C
700 21-02-2011 19:53:01 -1.1 C 51 % -9.94 C
Sensor: Nr:Datum:Temp:Feuchte:Taupunkt:
Aussen-T/F 701 21-02-2011 20:05:02 -1.1 C 51 % -9.94 C
702 21-02-2011 20:17:01 -1.1 C 51 % -9.94 C
703 21-02-2011 20:29:01 -1.1 C 52 % -9.69 C
704 21-02-2011 20:41:02 -1.2 C 51 % -10.03 C
705 21-02-2011 20:53:02 -1.1 C 51 % -9.94 C
706 21-02-2011 21:05:02 -1.2 C 52 % -9.79 C
707 21-02-2011 21:17:01 -1.3 C 53 % -9.64 C
708 21-02-2011 21:29:01 -1.4 C 52 % -9.97 C
709 21-02-2011 21:41:02 -1.3 C 52 % -9.88 C
710 21-02-2011 21:53:02 -1.3 C 50 % -10.37 C
711 21-02-2011 22:05:02 -1.5 C 50 % -10.56 C
712 21-02-2011 22:17:02 -1.5 C 50 % -10.56 C
713 21-02-2011 22:29:02 -1.7 C 49 % -11 C
714 21-02-2011 22:42:10 -1.9 C 50 % -10.93 C
715 21-02-2011 22:54:10 -2 C 50 % -11.02 C
716 21-02-2011 23:06:11 -2.4 C 51 % -11.14 C
717 21-02-2011 23:18:11 -2.6 C 52 % -11.09 C
718 21-02-2011 23:30:11 -2.9 C 53 % -11.13 C
719 21-02-2011 23:42:11 -3.3 C 54 % -11.27 C
720 21-02-2011 23:54:12 -3.7 C 56 % -11.19 C
721 22-02-2011 00:06:12 -3.9 C 57 % -11.15 C
722 22-02-2011 00:18:12 -3.7 C 58 % -10.75 C
723 22-02-2011 00:30:12 -3.6 C 56 % -11.09 C
724 22-02-2011 00:42:12 -3.3 C 55 % -11.04 C
725 22-02-2011 00:54:12 -3.3 C 54 % -11.27 C
Sensor: Nr:Datum:Temp:Feuchte:Taupunkt:
Aussen-T/F 726 22-02-2011 01:06:12 -3.1 C 54 % -11.08 C
727 22-02-2011 01:18:12 -3.1 C 53 % -11.31 C
728 22-02-2011 01:30:13 -3.2 C 53 % -11.41 C
729 22-02-2011 01:42:13 -3.3 C 53 % -11.5 C
730 22-02-2011 01:54:13 -3.2 C 53 % -11.41 C
731 22-02-2011 02:06:13 -3.3 C 53 % -11.5 C
732 22-02-2011 02:18:13 -3.3 C 53 % -11.5 C
733 22-02-2011 02:30:13 -3.3 C 52 % -11.74 C
734 22-02-2011 02:42:13 -3.3 C 52 % -11.74 C
735 22-02-2011 02:54:13 -3.5 C 53 % -11.69 C
736 22-02-2011 03:06:13 -3.7 C 53 % -11.87 C
737 22-02-2011 03:18:13 -3.8 C 53 % -11.97 C
738 22-02-2011 03:30:13 -4 C 53 % -12.15 C
739 22-02-2011 03:42:13 -4.2 C 54 % -12.11 C
740 22-02-2011 03:54:13 -4.4 C 55 % -12.07 C
741 22-02-2011 04:06:13 -4.5 C 55 % -12.16 C
742 22-02-2011 04:18:13 -4.7 C 55 % -12.35 C
743 22-02-2011 04:30:13 -4.9 C 55 % -12.54 C
744 22-02-2011 04:42:13 -5.2 C 56 % -12.59 C
745 22-02-2011 04:54:13 -5.5 C 56 % -12.88 C
746 22-02-2011 05:06:13 -5.6 C 58 % -12.54 C
747 22-02-2011 05:18:13 -5.7 C 58 % -12.63 C
748 22-02-2011 05:30:14 -6 C 58 % -12.91 C
749 22-02-2011 05:42:14 -6.3 C 60 % -12.78 C
750 22-02-2011 05:54:14 -6.7 C 60 % -13.16 C
Sensor: Nr:Datum:Temp:Feuchte:Taupunkt:
Aussen-T/F 751 22-02-2011 06:06:14 -7.2 C 62 % -13.23 C
752 22-02-2011 06:18:14 -7.9 C 64 % -13.5 C
753 22-02-2011 06:30:14 -8.1 C 67 % -13.13 C
754 22-02-2011 06:42:14 -8 C 68 % -12.85 C
755 22-02-2011 06:54:14 -7.7 C 69 % -12.39 C
756 22-02-2011 07:06:14 -8 C 68 % -12.85 C
757 22-02-2011 07:18:03 -8.2 C 69 % -12.87 C
758 22-02-2011 07:30:03 -8.7 C 69 % -13.35 C
759 22-02-2011 07:42:03 -8.4 C 71 % -12.71 C
760 22-02-2011 07:54:02 -8.3 C 71 % -12.61 C
761 22-02-2011 08:06:02 -8.1 C 71 % -12.42 C
762 22-02-2011 08:18:02 -7.7 C 70 % -12.21 C
763 22-02-2011 08:30:02 -7.8 C 67 % -12.85 C
764 22-02-2011 08:42:02 -7.5 C 66 % -12.74 C
765 22-02-2011 08:54:01 -7.5 C 65 % -12.93 C
766 22-02-2011 09:06:01 -7.3 C 65 % -12.74 C
767 22-02-2011 09:18:02 -6.9 C 64 % -12.55 C
768 22-02-2011 09:30:02 -6.9 C 63 % -12.75 C
769 22-02-2011 09:42:01 -6.9 C 62 % -12.94 C
770 22-02-2011 09:54:02 -6.8 C 61 % -13.05 C
771 22-02-2011 10:06:02 -6.5 C 60 % -12.97 C
772 22-02-2011 10:18:02 -6.1 C 59 % -12.8 C
773 22-02-2011 10:30:02 -5.7 C 58 % -12.63 C
774 22-02-2011 10:42:03 -5.3 C 57 % -12.47 C
775 22-02-2011 10:54:01 -5 C 55 % -12.63 C
Sensor: Nr:Datum:Temp:Feuchte:Taupunkt:
Aussen-T/F 776 22-02-2011 11:06:02 -4.5 C 53 % -12.62 C
777 22-02-2011 11:18:01 -3.6 C 50 % -12.5 C
778 22-02-2011 11:30:01 -3.7 C 49 % -12.85 C
779 22-02-2011 11:42:01 -3.1 C 47 % -12.81 C
780 22-02-2011 11:54:01 -2.8 C 45 % -13.07 C
781 22-02-2011 12:06:01 -1.9 C 44 % -12.52 C
782 22-02-2011 12:18:02 -1 C 41 % -12.57 C
783 22-02-2011 12:30:02 -1.1 C 41 % -12.67 C
784 22-02-2011 12:42:01 0.3 C 40 % -11.69 C
785 22-02-2011 12:54:03 3.5 C 31 % -12 C
786 22-02-2011 13:06:02 3.1 C 26 % -14.51 C
787 22-02-2011 13:18:02 3.8 C 26 % -13.9 C
788 22-02-2011 13:30:02 2.3 C 23 % -16.66 C
789 22-02-2011 13:42:02 0.7 C 32 % -14.07 C
790 22-02-2011 13:54:02 -0.2 C 37 % -13.12 C
791 22-02-2011 14:06:02 0.4 C 38 % -12.23 C
792 22-02-2011 14:18:02 1.3 C 35 % -12.44 C
793 22-02-2011 14:30:02 1.3 C 35 % -12.44 C
794 22-02-2011 14:42:02 2.9 C 32 % -12.14 C
795 22-02-2011 14:54:02 2.2 C 30 % -13.54 C
796 22-02-2011 15:06:02 3 C 30 % -12.85 C
797 22-02-2011 15:18:01 4.1 C 27 % -13.19 C
798 22-02-2011 15:30:01 3.5 C 25 % -14.64 C
799 22-02-2011 15:42:02 3 C 25 % -15.07 C
800 22-02-2011 15:54:02 3.8 C 25 % -14.38 C
Sensor: Nr:Datum:Temp:Feuchte:Taupunkt:
Aussen-T/F 801 22-02-2011 16:06:02 4.4 C 20 % -16.55 C
802 22-02-2011 16:18:01 6.3 C 20 % -14.97 C
803 22-02-2011 16:30:01 6.6 C 20 % -14.72 C
804 22-02-2011 16:42:02 5.5 C 20 % -15.64 C
805 22-02-2011 16:54:02 6.7 C 20 % -14.64 C
806 22-02-2011 17:06:02 5.2 C 20 % -15.89 C
807 22-02-2011 17:18:01 4 C 20 % -16.89 C
808 22-02-2011 17:30:01 1 C 36 % -12.36 C
809 22-02-2011 17:42:02 -1.2 C 42 % -12.46 C
810 22-02-2011 17:54:02 -2.5 C 46 % -12.52 C
811 22-02-2011 18:06:02 -3.3 C 50 % -12.23 C
812 22-02-2011 18:18:02 -3.8 C 55 % -11.51 C
813 22-02-2011 18:30:02 -3.8 C 57 % -11.06 C
814 22-02-2011 18:42:02 -4 C 58 % -11.03 C
815 22-02-2011 18:54:02 -3.9 C 60 % -10.51 C
816 22-02-2011 19:06:01 -4.4 C 59 % -11.19 C
817 22-02-2011 19:18:02 -4.5 C 59 % -11.29 C
818 22-02-2011 19:30:03 -4.2 C 60 % -10.79 C
819 22-02-2011 19:42:01 -4.7 C 61 % -11.06 C
820 22-02-2011 19:54:02 -4.8 C 61 % -11.15 C
821 22-02-2011 20:06:03 -4.8 C 59 % -11.57 C
822 22-02-2011 20:18:01 -5.3 C 60 % -11.83 C
823 22-02-2011 20:30:01 -5.4 C 62 % -11.52 C
824 22-02-2011 20:42:01 -5.2 C 64 % -10.93 C
825 22-02-2011 20:54:01 -5 C 66 % -10.36 C
Sensor: Nr:Datum:Temp:Feuchte:Taupunkt:
Aussen-T/F 826 22-02-2011 21:06:01 -5.2 C 64 % -10.93 C
827 22-02-2011 21:18:02 -5.1 C 63 % -11.04 C
828 22-02-2011 21:30:02 -5.3 C 62 % -11.43 C
829 22-02-2011 21:42:01 -5.5 C 61 % -11.82 C
830 22-02-2011 21:54:02 -5.7 C 62 % -11.8 C
831 22-02-2011 22:06:01 -5.5 C 62 % -11.61 C
832 22-02-2011 22:19:03 -5.4 C 62 % -11.52 C
833 22-02-2011 22:31:03 -5.6 C 63 % -11.51 C
834 22-02-2011 22:43:03 -5.5 C 64 % -11.22 C
835 22-02-2011 22:55:03 -5.8 C 61 % -12.1 C
836 22-02-2011 23:07:03 -5.9 C 61 % -12.2 C
837 22-02-2011 23:19:04 -6 C 61 % -12.29 C
838 22-02-2011 23:31:04 -6.1 C 60 % -12.59 C
839 22-02-2011 23:43:04 -6.3 C 59 % -12.99 C
840 22-02-2011 23:55:04 -6.2 C 62 % -12.28 C
841 23-02-2011 00:07:04 -6.4 C 63 % -12.27 C
842 23-02-2011 00:19:04 -6.4 C 63 % -12.27 C
843 23-02-2011 00:31:04 -6.8 C 63 % -12.65 C
844 23-02-2011 00:43:04 -7 C 64 % -12.65 C
845 23-02-2011 00:55:04 -6.9 C 64 % -12.55 C
846 23-02-2011 01:07:04 -6.9 C 65 % -12.36 C
847 23-02-2011 01:19:04 -7.3 C 65 % -12.74 C
848 23-02-2011 01:31:04 -7.4 C 65 % -12.84 C
849 23-02-2011 01:43:04 -7 C 66 % -12.27 C
850 23-02-2011 01:55:04 -7.4 C 65 % -12.84 C
Sensor: Nr:Datum:Temp:Feuchte:Taupunkt:
Aussen-T/F 851 23-02-2011 02:07:04 -7.8 C 65 % -13.22 C
852 23-02-2011 02:19:04 -7.8 C 65 % -13.22 C
853 23-02-2011 02:31:04 -7.9 C 65 % -13.31 C
854 23-02-2011 02:43:04 -8.1 C 66 % -13.32 C
855 23-02-2011 02:55:04 -7.9 C 67 % -12.94 C
856 23-02-2011 03:07:04 -7.9 C 68 % -12.76 C
857 23-02-2011 03:19:05 -7.3 C 68 % -12.18 C
858 23-02-2011 03:31:05 -8.1 C 67 % -13.13 C
859 23-02-2011 03:43:05 -8.6 C 68 % -13.43 C
860 23-02-2011 03:55:05 -8.8 C 69 % -13.44 C
861 23-02-2011 04:07:05 -8.6 C 70 % -13.07 C
862 23-02-2011 04:19:05 -8.5 C 70 % -12.98 C
863 23-02-2011 04:31:05 -8.7 C 70 % -13.17 C
864 23-02-2011 04:43:05 -8.9 C 71 % -13.19 C
865 23-02-2011 04:55:05 -9.1 C 71 % -13.38 C
866 23-02-2011 05:07:05 -8.9 C 72 % -13.02 C
867 23-02-2011 05:19:05 -8.8 C 73 % -12.75 C
868 23-02-2011 05:31:05 -8.7 C 73 % -12.65 C
869 23-02-2011 05:43:05 -8.7 C 73 % -12.65 C
870 23-02-2011 05:55:05 -8.9 C 72 % -13.02 C
871 23-02-2011 06:07:05 -9.1 C 72 % -13.21 C
872 23-02-2011 06:19:05 -9.4 C 72 % -13.5 C
873 23-02-2011 06:31:05 -9.5 C 72 % -13.59 C
874 23-02-2011 06:43:05 -9.4 C 72 % -13.5 C
875 23-02-2011 06:55:05 -9.4 C 72 % -13.5 C
Sensor: Nr:Datum:Temp:Feuchte:Taupunkt:
Aussen-T/F 876 23-02-2011 07:07:05 -9.5 C 72 % -13.59 C
877 23-02-2011 07:19:02 -9.1 C 73 % -13.04 C
878 23-02-2011 07:31:02 -9.2 C 73 % -13.14 C
879 23-02-2011 07:43:02 -9.3 C 73 % -13.23 C
880 23-02-2011 07:55:02 -8.8 C 74 % -12.58 C
881 23-02-2011 08:07:02 -8.3 C 75 % -11.93 C
882 23-02-2011 08:19:01 -7.9 C 75 % -11.54 C
883 23-02-2011 08:31:02 -7.6 C 75 % -11.25 C
884 23-02-2011 08:43:02 -7.2 C 75 % -10.87 C
885 23-02-2011 08:55:02 -6.5 C 74 % -10.36 C
886 23-02-2011 09:07:02 -5.8 C 73 % -9.85 C
887 23-02-2011 09:19:01 -5.3 C 70 % -9.9 C
888 23-02-2011 09:31:02 -4.8 C 67 % -9.97 C
889 23-02-2011 09:43:02 -4.5 C 65 % -10.07 C
890 23-02-2011 09:55:02 -3.8 C 61 % -10.21 C
891 23-02-2011 10:07:02 -3.3 C 61 % -9.73 C
892 23-02-2011 10:19:02 -2.7 C 59 % -9.59 C
893 23-02-2011 10:31:02 -2.3 C 56 % -9.87 C
894 23-02-2011 10:43:02 -1.8 C 53 % -10.1 C
895 23-02-2011 10:55:02 -1.3 C 49 % -10.63 C
896 23-02-2011 11:07:01 -0.9 C 46 % -11.05 C
897 23-02-2011 11:19:01 -0.5 C 44 % -11.24 C
898 23-02-2011 11:31:02 -0.6 C 41 % -12.21 C
899 23-02-2011 11:43:02 0.3 C 38 % -12.32 C
900 23-02-2011 11:55:02 0.2 C 39 % -12.09 C
Sensor: Nr:Datum:Temp:Feuchte:Taupunkt:
Aussen-T/F 901 23-02-2011 12:07:02 1.1 C 37 % -11.94 C
902 23-02-2011 12:19:02 1.2 C 32 % -13.63 C
903 23-02-2011 12:31:02 1.3 C 29 % -14.74 C
904 23-02-2011 12:43:02 1.8 C 23 % -17.08 C
905 23-02-2011 12:55:02 3.2 C 20 % -17.56 C
906 23-02-2011 13:07:02 4.4 C 20 % -16.55 C
907 23-02-2011 13:19:02 3.1 C 20 % -17.64 C
908 23-02-2011 13:31:02 3.8 C 20 % -17.05 C
909 23-02-2011 13:43:02 3.3 C 20 % -17.47 C
910 23-02-2011 13:55:02 3.7 C 20 % -17.14 C
911 23-02-2011 14:07:02 3.9 C 20 % -16.97 C
912 23-02-2011 14:19:03 4.2 C 20 % -16.72 C
913 23-02-2011 14:31:02 3.9 C 20 % -16.97 C
914 23-02-2011 14:43:02 3.8 C 20 % -17.05 C
915 23-02-2011 14:55:02 4 C 20 % -16.89 C
916 23-02-2011 15:07:02 4.1 C 20 % -16.8 C
917 23-02-2011 15:19:02 3.7 C 20 % -17.14 C
918 23-02-2011 15:31:02 3.5 C 20 % -17.31 C
919 23-02-2011 15:43:02 3.7 C 20 % -17.14 C
920 23-02-2011 15:55:02 3.7 C 20 % -17.14 C
921 23-02-2011 16:07:01 3.2 C 20 % -17.56 C
922 23-02-2011 16:19:02 3 C 20 % -17.72 C
923 23-02-2011 16:31:02 3.1 C 20 % -17.64 C
924 23-02-2011 16:43:02 2.8 C 20 % -17.89 C
925 23-02-2011 16:55:01 2.9 C 20 % -17.81 C
Sensor: Nr:Datum:Temp:Feuchte:Taupunkt:
Aussen-T/F 926 23-02-2011 17:07:02 2.3 C 20 % -18.31 C
927 23-02-2011 17:19:01 1.6 C 30 % -14.07 C
928 23-02-2011 17:31:02 1.4 C 30 % -14.24 C
929 23-02-2011 17:43:02 0.8 C 35 % -12.89 C
930 23-02-2011 17:55:02 0.2 C 41 % -11.47 C
931 23-02-2011 18:07:02 -0.1 C 45 % -10.6 C
932 23-02-2011 18:19:01 -0.2 C 45 % -10.69 C
933 23-02-2011 18:31:02 -0.3 C 45 % -10.78 C
934 23-02-2011 18:43:02 -0.3 C 46 % -10.5 C
935 23-02-2011 18:55:02 -0.6 C 48 % -10.24 C
936 23-02-2011 19:07:02 0.1 C 45 % -10.4 C
937 23-02-2011 19:19:02 0.1 C 42 % -11.26 C
938 23-02-2011 19:31:02 0.4 C 42 % -10.99 C
939 23-02-2011 19:43:02 0.3 C 42 % -11.08 C
940 23-02-2011 19:55:02 0.4 C 41 % -11.29 C
941 23-02-2011 20:07:02 0.3 C 41 % -11.38 C
942 23-02-2011 20:19:02 0.2 C 41 % -11.47 C
943 23-02-2011 20:31:02 0.1 C 43 % -10.97 C
944 23-02-2011 20:43:02 -0.3 C 45 % -10.78 C
945 23-02-2011 20:55:02 0.1 C 45 % -10.4 C
946 23-02-2011 21:07:02 0.5 C 42 % -10.9 C
947 23-02-2011 21:19:02 0.1 C 45 % -10.4 C
948 23-02-2011 21:31:02 -0.2 C 47 % -10.14 C
949 23-02-2011 21:43:02 -0.3 C 49 % -9.7 C
950 23-02-2011 21:55:02 -0.4 C 50 % -9.54 C
Sensor: Nr:Datum:Temp:Feuchte:Taupunkt:
Aussen-T/F 951 23-02-2011 22:07:02 -0.1 C 49 % -9.52 C
952 23-02-2011 22:19:02 0 C 47 % -9.94 C
953 23-02-2011 22:31:02 -0.1 C 48 % -9.78 C
954 23-02-2011 22:43:02 -0.1 C 49 % -9.52 C
955 23-02-2011 22:55:02 -0.1 C 48 % -9.78 C
956 23-02-2011 23:07:02 -0.2 C 52 % -8.86 C
957 23-02-2011 23:19:02 -0.3 C 50 % -9.45 C
958 23-02-2011 23:31:02 -0.2 C 54 % -8.37 C
959 23-02-2011 23:43:02 -0.3 C 54 % -8.47 C
960 23-02-2011 23:55:01 -0.3 C 54 % -8.47 C
961 24-02-2011 00:07:01 -0.3 C 55 % -8.23 C
962 24-02-2011 00:19:02 -0.4 C 54 % -8.56 C
963 24-02-2011 00:31:01 -0.4 C 55 % -8.33 C
964 24-02-2011 00:43:01 -0.5 C 55 % -8.42 C
965 24-02-2011 00:55:03 -0.6 C 56 % -8.28 C
966 24-02-2011 01:07:02 -0.7 C 57 % -8.15 C
967 24-02-2011 01:19:02 -0.9 C 58 % -8.11 C
968 24-02-2011 01:31:03 -0.9 C 59 % -7.89 C
969 24-02-2011 01:43:03 -0.6 C 59 % -7.61 C
970 24-02-2011 01:55:02 -0.6 C 58 % -7.83 C
971 24-02-2011 02:07:01 -0.6 C 58 % -7.83 C
972 24-02-2011 02:19:02 -0.6 C 58 % -7.83 C
973 24-02-2011 02:31:02 -0.5 C 56 % -8.19 C
974 24-02-2011 02:43:02 -0.4 C 52 % -9.04 C
975 24-02-2011 02:56:03 -0.3 C 54 % -8.47 C
Sensor: Nr:Datum:Temp:Feuchte:Taupunkt:
Aussen-T/F 976 24-02-2011 03:08:03 -0.2 C 55 % -8.14 C
977 24-02-2011 03:20:04 -0.2 C 57 % -7.68 C
978 24-02-2011 03:32:02 -0.2 C 57 % -7.68 C
979 24-02-2011 03:44:02 0 C 57 % -7.48 C
980 24-02-2011 03:56:03 0 C 57 % -7.48 C
981 24-02-2011 04:08:01 0.1 C 58 % -7.16 C
982 24-02-2011 04:20:02 0.4 C 54 % -7.8 C
983 24-02-2011 04:32:02 0.4 C 55 % -7.57 C
984 24-02-2011 04:44:02 0 C 62 % -6.39 C
985 24-02-2011 04:56:01 -0.3 C 66 % -5.87 C
986 24-02-2011 05:08:02 -0.6 C 70 % -5.38 C
987 24-02-2011 05:20:01 -0.8 C 71 % -5.39 C
988 24-02-2011 05:32:01 -0.8 C 75 % -4.67 C
989 24-02-2011 05:44:02 -1 C 77 % -4.51 C
990 24-02-2011 05:56:01 -1 C 79 % -4.17 C
991 24-02-2011 06:08:02 -0.9 C 80 % -3.91 C
992 24-02-2011 06:20:01 -0.9 C 79 % -4.08 C
993 24-02-2011 06:32:02 -0.9 C 78 % -4.24 C
994 24-02-2011 06:44:02 -0.9 C 78 % -4.24 C
995 24-02-2011 06:56:01 -0.8 C 78 % -4.15 C
996 24-02-2011 07:08:02 -0.8 C 79 % -3.98 C
997 24-02-2011 07:20:02 -0.8 C 79 % -3.98 C
998 24-02-2011 07:32:03 -0.8 C 80 % -3.81 C
999 24-02-2011 07:44:03 -0.7 C 80 % -3.71 C
1000 24-02-2011 07:56:02 -0.7 C 80 % -3.71 C
Sensor: Nr:Datum:Temp:Feuchte:Taupunkt:
Aussen-T/F 1001 24-02-2011 08:08:02 -0.6 C 81 % -3.45 C
1002 24-02-2011 08:20:02 -0.6 C 82 % -3.29 C
1003 24-02-2011 08:32:02 -0.5 C 82 % -3.19 C
1004 24-02-2011 08:44:02 -0.3 C 83 % -2.83 C
1005 24-02-2011 08:56:02 0 C 83 % -2.53 C
1006 24-02-2011 09:08:03 0 C 82 % -2.7 C
1007 24-02-2011 09:20:02 0.1 C 82 % -2.6 C
1008 24-02-2011 09:32:03 0.1 C 82 % -2.6 C
1009 24-02-2011 09:44:03 0.1 C 82 % -2.6 C
1010 24-02-2011 09:56:02 0.3 C 82 % -2.4 C
1011 24-02-2011 10:08:02 0.4 C 82 % -2.3 C
1012 24-02-2011 10:20:02 0.6 C 82 % -2.11 C
1013 24-02-2011 10:32:02 0.7 C 82 % -2.01 C
1014 24-02-2011 10:44:02 1 C 80 % -2.05 C
1015 24-02-2011 10:56:02 1.1 C 80 % -1.96 C
1016 24-02-2011 11:08:02 1.1 C 79 % -2.12 C
1017 24-02-2011 11:20:03 1.5 C 79 % -1.74 C
1018 24-02-2011 11:32:02 1.7 C 77 % -1.89 C
1019 24-02-2011 11:44:02 1.8 C 77 % -1.79 C
1020 24-02-2011 11:56:03 1.8 C 76 % -1.97 C
1021 24-02-2011 12:08:02 1.9 C 76 % -1.87 C
1022 24-02-2011 12:20:02 2.5 C 75 % -1.47 C
1023 24-02-2011 12:32:02 2.5 C 75 % -1.47 C
1024 24-02-2011 12:44:02 2.9 C 74 % -1.27 C
1025 24-02-2011 12:56:02 3.5 C 69 % -1.64 C
Sensor: Nr:Datum:Temp:Feuchte:Taupunkt:
Aussen-T/F 1026 24-02-2011 13:08:02 3.4 C 68 % -1.93 C
1027 24-02-2011 13:20:02 3.1 C 68 % -2.22 C
1028 24-02-2011 13:32:02 3.9 C 69 % -1.26 C
1029 24-02-2011 13:44:02 3.4 C 68 % -1.93 C
1030 24-02-2011 13:56:02 3.1 C 69 % -2.02 C
1031 24-02-2011 14:08:02 2.6 C 72 % -1.93 C
1032 24-02-2011 14:20:01 2.3 C 74 % -1.85 C
1033 24-02-2011 14:32:02 2.5 C 76 % -1.29 C
1034 24-02-2011 14:44:02 2.7 C 75 % -1.28 C
1035 24-02-2011 14:56:02 3 C 74 % -1.17 C
1036 24-02-2011 15:08:02 3.4 C 73 % -0.97 C
1037 24-02-2011 15:20:02 3.4 C 71 % -1.35 C
1038 24-02-2011 15:32:02 3 C 71 % -1.73 C
1039 24-02-2011 15:44:02 3.1 C 72 % -1.45 C
1040 24-02-2011 15:56:01 3 C 73 % -1.35 C
1041 24-02-2011 16:08:01 2.8 C 74 % -1.36 C
1042 24-02-2011 16:20:02 2.7 C 74 % -1.46 C
1043 24-02-2011 16:32:01 2.6 C 75 % -1.37 C
1044 24-02-2011 16:44:01 2.3 C 76 % -1.48 C
1045 24-02-2011 16:56:02 2.2 C 78 % -1.23 C
1046 24-02-2011 17:08:02 2 C 79 % -1.25 C
1047 24-02-2011 17:20:03 1.8 C 81 % -1.1 C
1048 24-02-2011 17:32:02 1.5 C 82 % -1.23 C
1049 24-02-2011 17:44:02 1.4 C 84 % -1 C
1050 24-02-2011 17:56:02 1.5 C 84 % -0.9 C
Sensor: Nr:Datum:Temp:Feuchte:Taupunkt:
Aussen-T/F 1051 24-02-2011 18:08:02 1.5 C 85 % -0.74 C
1052 24-02-2011 18:20:02 1.3 C 85 % -0.94 C
1053 24-02-2011 18:32:03 1.2 C 85 % -1.03 C
1054 24-02-2011 18:44:03 1.2 C 86 % -0.88 C
1055 24-02-2011 18:56:02 1.2 C 86 % -0.88 C
1056 24-02-2011 19:08:01 1.2 C 87 % -0.72 C
1057 24-02-2011 19:20:02 1.2 C 87 % -0.72 C
1058 24-02-2011 19:32:02 1.3 C 87 % -0.62 C
1059 24-02-2011 19:44:02 1.3 C 87 % -0.62 C
1060 24-02-2011 19:56:01 1.3 C 88 % -0.46 C
1061 24-02-2011 20:08:02 1.3 C 88 % -0.46 C
1062 24-02-2011 20:20:01 1.3 C 88 % -0.46 C
1063 24-02-2011 20:32:02 1.2 C 88 % -0.56 C
1064 24-02-2011 20:44:02 1.3 C 88 % -0.46 C
1065 24-02-2011 20:56:02 1.3 C 88 % -0.46 C
1066 24-02-2011 21:08:02 1.3 C 88 % -0.46 C
1067 24-02-2011 21:20:01 1.3 C 88 % -0.46 C
1068 24-02-2011 21:33:03 1.3 C 89 % -0.31 C
1069 24-02-2011 21:45:03 1.3 C 89 % -0.31 C
1070 24-02-2011 21:57:03 1.4 C 89 % -0.21 C
1071 24-02-2011 22:09:03 1.4 C 89 % -0.21 C
1072 24-02-2011 22:21:03 1.4 C 89 % -0.21 C
1073 24-02-2011 22:33:03 1.4 C 89 % -0.21 C
1074 24-02-2011 22:45:03 1.4 C 89 % -0.21 C
1075 24-02-2011 22:57:03 1.4 C 89 % -0.21 C
Sensor: Nr:Datum:Temp:Feuchte:Taupunkt:
Aussen-T/F 1076 24-02-2011 23:09:03 1.4 C 89 % -0.21 C
1077 24-02-2011 23:21:03 1.4 C 89 % -0.21 C
1078 24-02-2011 23:33:03 1.4 C 89 % -0.21 C
1079 24-02-2011 23:45:03 1.4 C 89 % -0.21 C
1080 24-02-2011 23:57:03 1.4 C 89 % -0.21 C
1081 25-02-2011 00:09:03 1.4 C 89 % -0.21 C
1082 25-02-2011 00:21:03 1.4 C 89 % -0.21 C
1083 25-02-2011 00:33:04 1.5 C 89 % -0.11 C
1084 25-02-2011 00:45:04 1.5 C 89 % -0.11 C
1085 25-02-2011 00:57:04 1.4 C 89 % -0.21 C
1086 25-02-2011 01:09:04 1.4 C 89 % -0.21 C
1087 25-02-2011 01:21:04 1.5 C 89 % -0.11 C
1088 25-02-2011 01:33:04 1.4 C 90 % -0.06 C
1089 25-02-2011 01:45:04 1.4 C 90 % -0.06 C
1090 25-02-2011 01:57:04 1.5 C 90 % 0.04 C
1091 25-02-2011 02:09:04 1.4 C 90 % -0.06 C
1092 25-02-2011 02:21:04 1.4 C 90 % -0.06 C
1093 25-02-2011 02:33:04 1.4 C 90 % -0.06 C
1094 25-02-2011 02:45:04 1.4 C 90 % -0.06 C
1095 25-02-2011 02:57:04 1.5 C 90 % 0.04 C
1096 25-02-2011 03:09:04 1.5 C 90 % 0.04 C
1097 25-02-2011 03:21:04 1.5 C 90 % 0.04 C
1098 25-02-2011 03:33:04 1.6 C 90 % 0.14 C
1099 25-02-2011 03:45:04 1.5 C 90 % 0.04 C
1100 25-02-2011 03:57:04 1.4 C 90 % -0.06 C
Sensor: Nr:Datum:Temp:Feuchte:Taupunkt:
Aussen-T/F 1101 25-02-2011 04:09:04 1.5 C 90 % 0.04 C
1102 25-02-2011 04:21:04 1.4 C 90 % -0.06 C
1103 25-02-2011 04:33:04 1.5 C 90 % 0.04 C
1104 25-02-2011 04:45:05 1.5 C 90 % 0.04 C
1105 25-02-2011 04:57:05 1.5 C 90 % 0.04 C
1106 25-02-2011 05:09:05 1.6 C 91 % 0.29 C
1107 25-02-2011 05:21:05 1.6 C 91 % 0.29 C
1108 25-02-2011 05:33:05 1.6 C 91 % 0.29 C
1109 25-02-2011 05:45:05 1.7 C 91 % 0.39 C
1110 25-02-2011 05:57:05 1.7 C 91 % 0.39 C
1111 25-02-2011 06:09:05 1.7 C 91 % 0.39 C
1112 25-02-2011 06:21:05 1.6 C 91 % 0.29 C
1113 25-02-2011 06:33:05 1.7 C 91 % 0.39 C
1114 25-02-2011 06:45:05 1.7 C 91 % 0.39 C
1115 25-02-2011 06:57:05 1.8 C 91 % 0.49 C
1116 25-02-2011 07:09:05 1.8 C 91 % 0.49 C
1117 25-02-2011 07:21:03 1.9 C 91 % 0.59 C
1118 25-02-2011 07:33:02 1.9 C 91 % 0.59 C
1119 25-02-2011 07:45:03 1.7 C 91 % 0.39 C
1120 25-02-2011 07:57:03 1.8 C 91 % 0.49 C
1121 25-02-2011 08:09:02 1.8 C 91 % 0.49 C
1122 25-02-2011 08:21:02 2 C 90 % 0.54 C
1123 25-02-2011 08:33:02 2.2 C 90 % 0.73 C
1124 25-02-2011 08:45:02 2.4 C 91 % 1.08 C
1125 25-02-2011 08:57:03 2.6 C 91 % 1.28 C
Sensor: Nr:Datum:Temp:Feuchte:Taupunkt:
Aussen-T/F 1126 25-02-2011 09:09:01 2.6 C 90 % 1.13 C
1127 25-02-2011 09:21:02 2.7 C 90 % 1.23 C
1128 25-02-2011 09:33:02 2.7 C 90 % 1.23 C
1129 25-02-2011 09:45:02 3.3 C 90 % 1.82 C
1130 25-02-2011 09:57:02 3.3 C 89 % 1.67 C
1131 25-02-2011 10:09:03 3.4 C 88 % 1.61 C
1132 25-02-2011 10:21:02 3.3 C 87 % 1.35 C
1133 25-02-2011 10:33:02 3.9 C 87 % 1.94 C
1134 25-02-2011 10:45:01 4 C 85 % 1.71 C
1135 25-02-2011 10:57:01 3.8 C 85 % 1.52 C
1136 25-02-2011 11:09:02 4.4 C 83 % 1.77 C
1137 25-02-2011 11:21:01 4.3 C 82 % 1.51 C
1138 25-02-2011 11:33:01 4.3 C 81 % 1.34 C
1139 25-02-2011 11:45:01 4.7 C 81 % 1.73 C
1140 25-02-2011 11:57:01 5.1 C 78 % 1.59 C
1141 25-02-2011 12:09:01 5.1 C 76 % 1.23 C
1142 25-02-2011 12:21:02 5.6 C 75 % 1.53 C
1143 25-02-2011 12:33:01 5.1 C 74 % 0.86 C
1144 25-02-2011 12:45:03 5.6 C 74 % 1.34 C
1145 25-02-2011 12:57:03 5.2 C 73 % 0.77 C
1146 25-02-2011 13:09:02 5.8 C 74 % 1.53 C
1147 25-02-2011 13:21:02 6.3 C 72 % 1.63 C
1148 25-02-2011 13:33:02 6.3 C 70 % 1.24 C
1149 25-02-2011 13:45:02 6.2 C 71 % 1.34 C
1150 25-02-2011 13:57:03 6 C 70 % 0.95 C
Sensor: Nr:Datum:Temp:Feuchte:Taupunkt:
Aussen-T/F 1151 25-02-2011 14:09:01 6.1 C 71 % 1.25 C
1152 25-02-2011 14:21:02 6.2 C 71 % 1.34 C
1153 25-02-2011 14:33:03 6.3 C 72 % 1.63 C
1154 25-02-2011 14:45:02 5.8 C 71 % 0.96 C
1155 25-02-2011 14:57:03 5.9 C 72 % 1.25 C
1156 25-02-2011 15:09:01 6.3 C 71 % 1.44 C
1157 25-02-2011 15:21:01 6.4 C 71 % 1.54 C
1158 25-02-2011 15:33:02 6.1 C 70 % 1.05 C
1159 25-02-2011 15:45:02 6 C 72 % 1.35 C
1160 25-02-2011 15:57:02 5.9 C 74 % 1.63 C
1161 25-02-2011 16:09:02 5.9 C 75 % 1.82 C
1162 25-02-2011 16:21:02 5.4 C 76 % 1.52 C
1163 25-02-2011 16:33:02 5.3 C 78 % 1.78 C
1164 25-02-2011 16:45:02 5.2 C 79 % 1.86 C
1165 25-02-2011 16:57:02 5.1 C 79 % 1.77 C
1166 25-02-2011 17:09:02 5 C 79 % 1.67 C
1167 25-02-2011 17:21:02 4.8 C 81 % 1.82 C
1168 25-02-2011 17:33:02 4.8 C 79 % 1.47 C
1169 25-02-2011 17:45:02 4.5 C 80 % 1.36 C
1170 25-02-2011 17:57:02 4.2 C 81 % 1.24 C
1171 25-02-2011 18:09:02 4.1 C 81 % 1.14 C
1172 25-02-2011 18:21:02 4.1 C 82 % 1.31 C
1173 25-02-2011 18:33:02 4.2 C 82 % 1.41 C
1174 25-02-2011 18:45:02 4.3 C 82 % 1.51 C
1175 25-02-2011 18:57:02 4.4 C 82 % 1.6 C
Sensor: Nr:Datum:Temp:Feuchte:Taupunkt:
Aussen-T/F 1176 25-02-2011 19:09:02 4.1 C 82 % 1.31 C
1177 25-02-2011 19:21:02 4 C 82 % 1.21 C
1178 25-02-2011 19:33:01 3.8 C 83 % 1.19 C
1179 25-02-2011 19:45:02 3.9 C 84 % 1.45 C
1180 25-02-2011 19:57:02 3.9 C 84 % 1.45 C
1181 25-02-2011 20:09:01 3.8 C 84 % 1.35 C
1182 25-02-2011 20:21:01 3.8 C 84 % 1.35 C
1183 25-02-2011 20:33:02 3.8 C 84 % 1.35 C
1184 25-02-2011 20:45:02 3.9 C 85 % 1.61 C
1185 25-02-2011 20:57:02 3.8 C 85 % 1.52 C
1186 25-02-2011 21:09:02 3.7 C 85 % 1.42 C
1187 25-02-2011 21:21:02 3.7 C 85 % 1.42 C
1188 25-02-2011 21:33:02 3.6 C 85 % 1.32 C
1189 25-02-2011 21:45:02 3.6 C 86 % 1.48 C
1190 25-02-2011 21:57:02 3.6 C 86 % 1.48 C
1191 25-02-2011 22:09:02 3.7 C 86 % 1.58 C
1192 25-02-2011 22:21:03 3.7 C 86 % 1.58 C
1193 25-02-2011 22:34:04 3.7 C 86 % 1.58 C
1194 25-02-2011 22:46:04 3.8 C 87 % 1.84 C
1195 25-02-2011 22:58:04 4 C 86 % 1.88 C
1196 25-02-2011 23:10:04 4 C 85 % 1.71 C
1197 25-02-2011 23:22:04 3.9 C 86 % 1.78 C
1198 25-02-2011 23:34:04 3.8 C 86 % 1.68 C
1199 25-02-2011 23:46:04 3.7 C 86 % 1.58 C
1200 25-02-2011 23:58:04 3.6 C 86 % 1.48 C
Sensor: Nr:Datum:Temp:Feuchte:Taupunkt:
Aussen-T/F 1201 26-02-2011 00:10:04 3.6 C 86 % 1.48 C
1202 26-02-2011 00:22:04 3.6 C 86 % 1.48 C
1203 26-02-2011 00:34:04 3.6 C 86 % 1.48 C
1204 26-02-2011 00:46:04 3.6 C 86 % 1.48 C
1205 26-02-2011 00:58:04 3.6 C 87 % 1.64 C
1206 26-02-2011 01:10:04 3.6 C 87 % 1.64 C
1207 26-02-2011 01:22:04 3.5 C 87 % 1.55 C
1208 26-02-2011 01:34:04 3.5 C 87 % 1.55 C
1209 26-02-2011 01:46:05 3.5 C 87 % 1.55 C
1210 26-02-2011 01:58:05 3.5 C 87 % 1.55 C
1211 26-02-2011 02:10:05 3.5 C 87 % 1.55 C
1212 26-02-2011 02:22:05 3.5 C 87 % 1.55 C
1213 26-02-2011 02:34:05 3.5 C 87 % 1.55 C
1214 26-02-2011 02:46:05 3.5 C 87 % 1.55 C
1215 26-02-2011 02:58:05 3.5 C 87 % 1.55 C
1216 26-02-2011 03:10:05 3.5 C 86 % 1.38 C
1217 26-02-2011 03:22:05 3.4 C 86 % 1.29 C
1218 26-02-2011 03:34:05 3.4 C 86 % 1.29 C
1219 26-02-2011 03:46:05 3.4 C 86 % 1.29 C
1220 26-02-2011 03:58:05 3.4 C 86 % 1.29 C
1221 26-02-2011 04:10:05 3.3 C 86 % 1.19 C
1222 26-02-2011 04:22:05 3.3 C 86 % 1.19 C
1223 26-02-2011 04:34:05 3.4 C 86 % 1.29 C
1224 26-02-2011 04:46:05 3.5 C 86 % 1.38 C
1225 26-02-2011 04:58:05 3.4 C 86 % 1.29 C
Sensor: Nr:Datum:Temp:Feuchte:Taupunkt:
Aussen-T/F 1226 26-02-2011 05:10:05 3.3 C 86 % 1.19 C
1227 26-02-2011 05:22:05 3.4 C 86 % 1.29 C
1228 26-02-2011 05:34:05 3.8 C 85 % 1.52 C
1229 26-02-2011 05:46:06 4.1 C 82 % 1.31 C
1230 26-02-2011 05:58:06 4.1 C 79 % 0.79 C
1231 26-02-2011 06:10:06 4.1 C 77 % 0.44 C
1232 26-02-2011 06:22:06 4 C 77 % 0.34 C
1233 26-02-2011 06:34:06 3.7 C 78 % 0.23 C
1234 26-02-2011 06:46:06 3.4 C 79 % 0.11 C
1235 26-02-2011 06:58:06 2.9 C 82 % 0.14 C
1236 26-02-2011 07:10:06 2.7 C 83 % 0.11 C
1237 26-02-2011 07:22:06 2.7 C 84 % 0.27 C
1238 26-02-2011 07:34:06 2.6 C 85 % 0.34 C
1239 26-02-2011 07:46:06 2.9 C 85 % 0.63 C
1240 26-02-2011 07:58:06 3.6 C 83 % 0.99 C
1241 26-02-2011 08:10:06 3.8 C 79 % 0.5 C
1242 26-02-2011 08:22:06 3.8 C 78 % 0.33 C
1243 26-02-2011 08:34:03 3.9 C 78 % 0.42 C
1244 26-02-2011 08:46:02 4 C 76 % 0.16 C
1245 26-02-2011 08:58:02 4.2 C 75 % 0.17 C
1246 26-02-2011 09:10:02 4.2 C 74 % -0.01 C
1247 26-02-2011 09:22:02 4.2 C 73 % -0.2 C
1248 26-02-2011 09:34:02 4.1 C 73 % -0.29 C
1249 26-02-2011 09:46:02 3.9 C 73 % -0.49 C
1250 26-02-2011 09:58:03 4.1 C 72 % -0.48 C
Sensor: Nr:Datum:Temp:Feuchte:Taupunkt:
Aussen-T/F 1251 26-02-2011 10:10:01 4.1 C 72 % -0.48 C
1252 26-02-2011 10:22:02 4.3 C 71 % -0.48 C
1253 26-02-2011 10:34:02 4.7 C 69 % -0.49 C
1254 26-02-2011 10:46:02 5.2 C 67 % -0.41 C
1255 26-02-2011 10:58:02 5.7 C 65 % -0.35 C
1256 26-02-2011 11:10:03 5.6 C 63 % -0.87 C
1257 26-02-2011 11:22:02 5.6 C 62 % -1.09 C
1258 26-02-2011 11:34:03 5.6 C 62 % -1.09 C
1259 26-02-2011 11:46:02 6.5 C 62 % -0.24 C
1260 26-02-2011 11:58:02 6.1 C 60 % -1.07 C
1261 26-02-2011 12:10:02 7.4 C 58 % -0.31 C
1262 26-02-2011 12:22:02 7.8 C 56 % -0.41 C
1263 26-02-2011 12:34:02 8 C 53 % -0.98 C
1264 26-02-2011 12:46:02 7.7 C 55 % -0.75 C
1265 26-02-2011 12:58:02 7.1 C 57 % -0.83 C
1266 26-02-2011 13:10:02 7.4 C 57 % -0.55 C
1267 26-02-2011 13:22:02 8.4 C 54 % -0.35 C
1268 26-02-2011 13:34:02 8.6 C 51 % -0.95 C
1269 26-02-2011 13:46:02 8.9 C 53 % -0.15 C
1270 26-02-2011 13:58:02 8.7 C 53 % -0.33 C
1271 26-02-2011 14:10:02 8.6 C 53 % -0.42 C
1272 26-02-2011 14:22:02 8 C 56 % -0.23 C
1273 26-02-2011 14:34:02 8.9 C 54 % 0.11 C
1274 26-02-2011 14:46:02 9.5 C 51 % -0.12 C
1275 26-02-2011 14:58:02 8.8 C 52 % -0.5 C
Sensor: Nr:Datum:Temp:Feuchte:Taupunkt:
Aussen-T/F 1276 26-02-2011 15:10:02 8.7 C 53 % -0.33 C
1277 26-02-2011 15:22:03 8 C 56 % -0.23 C
1278 26-02-2011 15:34:02 7.7 C 58 % -0.03 C
1279 26-02-2011 15:46:02 7.7 C 60 % 0.44 C
1280 26-02-2011 15:58:02 7.8 C 58 % 0.07 C
1281 26-02-2011 16:10:02 7.7 C 58 % -0.03 C
1282 26-02-2011 16:22:02 7.4 C 60 % 0.16 C
1283 26-02-2011 16:34:01 7 C 62 % 0.23 C
1284 26-02-2011 16:46:02 6.9 C 64 % 0.57 C
1285 26-02-2011 16:58:03 6.7 C 65 % 0.6 C
1286 26-02-2011 17:10:01 6.7 C 66 % 0.81 C
1287 26-02-2011 17:22:01 6.6 C 67 % 0.92 C
1288 26-02-2011 17:34:02 6.4 C 68 % 0.94 C
1289 26-02-2011 17:46:02 6.3 C 69 % 1.04 C
1290 26-02-2011 17:58:02 6 C 71 % 1.15 C
1291 26-02-2011 18:10:02 5.8 C 74 % 1.53 C
1292 26-02-2011 18:22:02 5.8 C 75 % 1.72 C
1293 26-02-2011 18:34:02 5.6 C 76 % 1.71 C
1294 26-02-2011 18:46:02 5.4 C 77 % 1.7 C
1295 26-02-2011 18:58:02 5.2 C 80 % 2.04 C
1296 26-02-2011 19:10:02 5.1 C 83 % 2.46 C
1297 26-02-2011 19:22:02 5 C 84 % 2.53 C
1298 26-02-2011 19:34:02 5 C 84 % 2.53 C
1299 26-02-2011 19:46:02 4.8 C 86 % 2.66 C
1300 26-02-2011 19:58:02 4.9 C 86 % 2.76 C
Sensor: Nr:Datum:Temp:Feuchte:Taupunkt:
Aussen-T/F 1301 26-02-2011 20:10:02 4.8 C 86 % 2.66 C
1302 26-02-2011 20:22:02 4.9 C 86 % 2.76 C
1303 26-02-2011 20:34:02 4.7 C 87 % 2.73 C
1304 26-02-2011 20:46:02 4.7 C 87 % 2.73 C
1305 26-02-2011 20:58:02 4.6 C 87 % 2.63 C
1306 26-02-2011 21:10:02 4.6 C 88 % 2.79 C
1307 26-02-2011 21:22:02 4.6 C 88 % 2.79 C
1308 26-02-2011 21:34:01 4.6 C 88 % 2.79 C
1309 26-02-2011 21:47:02 4.6 C 88 % 2.79 C
1310 26-02-2011 21:59:02 4.6 C 88 % 2.79 C
1311 26-02-2011 22:11:02 4.7 C 88 % 2.89 C
1312 26-02-2011 22:23:02 4.6 C 89 % 2.95 C
1313 26-02-2011 22:35:02 4.4 C 89 % 2.75 C
1314 26-02-2011 22:47:02 4.4 C 89 % 2.75 C
1315 26-02-2011 22:59:02 4.3 C 89 % 2.65 C
1316 26-02-2011 23:11:02 4.3 C 89 % 2.65 C
1317 26-02-2011 23:23:02 4.4 C 89 % 2.75 C
1318 26-02-2011 23:35:02 4.7 C 90 % 3.2 C
1319 26-02-2011 23:47:02 5 C 89 % 3.34 C
1320 26-02-2011 23:59:03 5.1 C 89 % 3.44 C
1321 27-02-2011 00:11:03 5.1 C 90 % 3.6 C
1322 27-02-2011 00:23:03 4.7 C 90 % 3.2 C
1323 27-02-2011 00:35:03 4.5 C 90 % 3.01 C
1324 27-02-2011 00:47:03 4.5 C 90 % 3.01 C
1325 27-02-2011 00:59:03 4.6 C 90 % 3.1 C
Sensor: Nr:Datum:Temp:Feuchte:Taupunkt:
Aussen-T/F 1326 27-02-2011 01:11:03 4.5 C 90 % 3.01 C
1327 27-02-2011 01:23:03 4.3 C 90 % 2.81 C
1328 27-02-2011 01:35:03 4.5 C 91 % 3.16 C
1329 27-02-2011 01:47:03 4.7 C 91 % 3.36 C
1330 27-02-2011 01:59:03 4.7 C 91 % 3.36 C
1331 27-02-2011 02:11:03 4.7 C 91 % 3.36 C
1332 27-02-2011 02:23:03 4.7 C 91 % 3.36 C
1333 27-02-2011 02:35:03 4.6 C 91 % 3.26 C
1334 27-02-2011 02:47:03 4.6 C 91 % 3.26 C
1335 27-02-2011 02:59:03 4.7 C 91 % 3.36 C
1336 27-02-2011 03:11:03 4.7 C 90 % 3.2 C
1337 27-02-2011 03:23:03 4.7 C 90 % 3.2 C
1338 27-02-2011 03:35:03 4.8 C 90 % 3.3 C
1339 27-02-2011 03:47:03 4.9 C 90 % 3.4 C
1340 27-02-2011 03:59:04 4.8 C 90 % 3.3 C
1341 27-02-2011 04:11:04 4.7 C 90 % 3.2 C
1342 27-02-2011 04:23:04 4.7 C 90 % 3.2 C
1343 27-02-2011 04:35:04 4.6 C 90 % 3.1 C
1344 27-02-2011 04:47:04 4.6 C 90 % 3.1 C
1345 27-02-2011 04:59:04 4.5 C 90 % 3.01 C
1346 27-02-2011 05:11:04 4.5 C 90 % 3.01 C
1347 27-02-2011 05:23:04 4.4 C 90 % 2.91 C
1348 27-02-2011 05:35:04 4.5 C 90 % 3.01 C
1349 27-02-2011 05:47:04 4.4 C 90 % 2.91 C
1350 27-02-2011 05:59:04 4.5 C 90 % 3.01 C
Sensor: Nr:Datum:Temp:Feuchte:Taupunkt:
Aussen-T/F 1351 27-02-2011 06:11:04 4.4 C 90 % 2.91 C
1352 27-02-2011 06:23:04 4.4 C 90 % 2.91 C
1353 27-02-2011 06:35:04 4.3 C 90 % 2.81 C
1354 27-02-2011 06:47:04 4.2 C 90 % 2.71 C
1355 27-02-2011 06:59:04 4.2 C 90 % 2.71 C
1356 27-02-2011 07:11:04 4.3 C 91 % 2.96 C
1357 27-02-2011 07:23:04 4.3 C 91 % 2.96 C
1358 27-02-2011 07:35:03 4.3 C 90 % 2.81 C
1359 27-02-2011 07:47:02 4.3 C 90 % 2.81 C
1360 27-02-2011 07:59:02 4.3 C 90 % 2.81 C
1361 27-02-2011 08:11:03 4.3 C 89 % 2.65 C
1362 27-02-2011 08:23:02 4.5 C 88 % 2.69 C
1363 27-02-2011 08:35:02 4.6 C 88 % 2.79 C
1364 27-02-2011 08:47:02 4.7 C 87 % 2.73 C
1365 27-02-2011 08:59:02 5 C 84 % 2.53 C
1366 27-02-2011 09:11:01 5 C 83 % 2.36 C
1367 27-02-2011 09:23:02 5.2 C 82 % 2.39 C
1368 27-02-2011 09:35:02 5.4 C 81 % 2.41 C
1369 27-02-2011 09:47:02 5.7 C 78 % 2.17 C
1370 27-02-2011 09:59:02 5.8 C 77 % 2.09 C
1371 27-02-2011 10:11:03 5.7 C 78 % 2.17 C
1372 27-02-2011 10:23:02 5.7 C 78 % 2.17 C
1373 27-02-2011 10:35:03 6.7 C 74 % 2.4 C
1374 27-02-2011 10:47:02 6.7 C 71 % 1.82 C
1375 27-02-2011 10:59:02 6.8 C 72 % 2.12 C
Sensor: Nr:Datum:Temp:Feuchte:Taupunkt:
Aussen-T/F 1376 27-02-2011 11:11:02 7 C 68 % 1.51 C
1377 27-02-2011 11:23:02 7.1 C 65 % 0.98 C
1378 27-02-2011 11:35:02 7.1 C 65 % 0.98 C
1379 27-02-2011 11:47:02 7.4 C 62 % 0.61 C
1380 27-02-2011 11:59:02 7.6 C 60 % 0.35 C
1381 27-02-2011 12:11:02 7.8 C 58 % 0.07 C
1382 27-02-2011 12:23:01 7.8 C 57 % -0.17 C
1383 27-02-2011 12:35:02 7.7 C 56 % -0.51 C
1384 27-02-2011 12:47:01 7.2 C 57 % -0.73 C
1385 27-02-2011 12:59:01 7.2 C 58 % -0.5 C
1386 27-02-2011 13:11:02 7.3 C 57 % -0.64 C
1387 27-02-2011 13:23:02 7.5 C 56 % -0.7 C
1388 27-02-2011 13:35:02 7.5 C 55 % -0.94 C
1389 27-02-2011 13:47:02 7.7 C 55 % -0.75 C
1390 27-02-2011 13:59:02 7.5 C 55 % -0.94 C
1391 27-02-2011 14:11:02 7.8 C 55 % -0.66 C
1392 27-02-2011 14:23:02 7.3 C 55 % -1.13 C
1393 27-02-2011 14:35:01 7.2 C 55 % -1.22 C
1394 27-02-2011 14:47:02 7.3 C 55 % -1.13 C
1395 27-02-2011 14:59:02 7.4 C 54 % -1.28 C
1396 27-02-2011 15:11:01 7.4 C 55 % -1.03 C
1397 27-02-2011 15:23:02 7.4 C 55 % -1.03 C
1398 27-02-2011 15:35:01 7.3 C 54 % -1.38 C
1399 27-02-2011 15:47:02 7.2 C 55 % -1.22 C
1400 27-02-2011 15:59:02 7.2 C 56 % -0.98 C
Sensor: Nr:Datum:Temp:Feuchte:Taupunkt:
Aussen-T/F 1401 27-02-2011 16:11:02 6.9 C 59 % -0.54 C
1402 27-02-2011 16:23:02 6.8 C 60 % -0.41 C
1403 27-02-2011 16:35:02 6.7 C 59 % -0.73 C
1404 27-02-2011 16:47:02 6.8 C 57 % -1.11 C
1405 27-02-2011 16:59:02 6.7 C 57 % -1.2 C
1406 27-02-2011 17:11:01 6.7 C 56 % -1.44 C
1407 27-02-2011 17:23:02 6.5 C 57 % -1.39 C
1408 27-02-2011 17:35:02 6.4 C 58 % -1.25 C
1409 27-02-2011 17:47:02 6.5 C 58 % -1.15 C
1410 27-02-2011 17:59:02 6.5 C 56 % -1.63 C
1411 27-02-2011 18:11:02 6.3 C 57 % -1.58 C
1412 27-02-2011 18:23:02 5.8 C 60 % -1.35 C
1413 27-02-2011 18:35:01 5.7 C 62 % -1 C
1414 27-02-2011 18:47:03 5.7 C 62 % -1 C
1415 27-02-2011 18:59:03 5.4 C 64 % -0.85 C
1416 27-02-2011 19:11:02 5.7 C 63 % -0.78 C
1417 27-02-2011 19:23:02 5.6 C 63 % -0.87 C
1418 27-02-2011 19:35:02 5 C 68 % -0.4 C
1419 27-02-2011 19:47:02 4.9 C 71 % 0.09 C
1420 27-02-2011 19:59:03 4.8 C 71 % 0 C
1421 27-02-2011 20:11:01 4.5 C 72 % -0.1 C
1422 27-02-2011 20:23:02 4.2 C 75 % 0.17 C
1423 27-02-2011 20:35:02 4.2 C 77 % 0.54 C
1424 27-02-2011 20:47:01 4.6 C 72 % 0 C
1425 27-02-2011 20:59:01 5 C 65 % -1.02 C
Sensor: Nr:Datum:Temp:Feuchte:Taupunkt:
Aussen-T/F 1426 27-02-2011 21:11:02 4.7 C 68 % -0.69 C
1427 27-02-2011 21:23:01 4.6 C 68 % -0.78 C
1428 27-02-2011 21:35:01 5.1 C 62 % -1.57 C
1429 27-02-2011 21:47:01 4.8 C 63 % -1.63 C
1430 27-02-2011 21:59:01 4.3 C 66 % -1.48 C
1431 27-02-2011 22:11:49 3.9 C 71 % -0.87 C
1432 27-02-2011 22:24:03 4.2 C 67 % -1.37 C
1433 27-02-2011 22:36:03 4.4 C 67 % -1.18 C
1434 27-02-2011 22:48:03 4.5 C 65 % -1.49 C
1435 27-02-2011 23:00:03 4.4 C 64 % -1.8 C
1436 27-02-2011 23:12:03 3.9 C 67 % -1.65 C
1437 27-02-2011 23:24:03 3.6 C 69 % -1.54 C
1438 27-02-2011 23:36:03 3.6 C 69 % -1.54 C
1439 27-02-2011 23:48:03 3.5 C 70 % -1.44 C
1440 28-02-2011 00:00:03 3.6 C 70 % -1.35 C
1441 28-02-2011 00:12:03 3.6 C 69 % -1.54 C
1442 28-02-2011 00:24:03 3 C 71 % -1.73 C
1443 28-02-2011 00:36:03 2.8 C 74 % -1.36 C
1444 28-02-2011 00:48:03 2.7 C 75 % -1.28 C
1445 28-02-2011 01:00:03 2.7 C 75 % -1.28 C
1446 28-02-2011 01:12:03 1.9 C 78 % -1.52 C
1447 28-02-2011 01:24:03 2 C 79 % -1.25 C
1448 28-02-2011 01:36:03 2.4 C 79 % -0.86 C
1449 28-02-2011 01:48:03 1.6 C 79 % -1.64 C
1450 28-02-2011 02:00:03 1.5 C 81 % -1.4 C
Sensor: Nr:Datum:Temp:Feuchte:Taupunkt:
Aussen-T/F 1451 28-02-2011 02:12:04 1.2 C 82 % -1.52 C
1452 28-02-2011 02:24:04 0.9 C 84 % -1.49 C
1453 28-02-2011 02:36:04 0.8 C 85 % -1.43 C
1454 28-02-2011 02:48:04 1.4 C 85 % -0.84 C
1455 28-02-2011 03:00:04 1.4 C 86 % -0.68 C
1456 28-02-2011 03:12:04 1.6 C 86 % -0.48 C
1457 28-02-2011 03:24:04 1.8 C 85 % -0.45 C
1458 28-02-2011 03:36:04 2.2 C 82 % -0.55 C
1459 28-02-2011 03:48:04 2.1 C 81 % -0.81 C
1460 28-02-2011 04:00:04 1.9 C 80 % -1.18 C
1461 28-02-2011 04:12:04 1.8 C 83 % -0.77 C
1462 28-02-2011 04:24:04 2.4 C 82 % -0.35 C
1463 28-02-2011 04:36:04 2.6 C 78 % -0.84 C
1464 28-02-2011 04:48:04 2.6 C 77 % -1.02 C
1465 28-02-2011 05:00:04 2.6 C 77 % -1.02 C
1466 28-02-2011 05:12:04 2.6 C 77 % -1.02 C
1467 28-02-2011 05:24:04 2.8 C 76 % -1 C
1468 28-02-2011 05:36:04 2.7 C 77 % -0.92 C
1469 28-02-2011 05:48:04 2.7 C 77 % -0.92 C
1470 28-02-2011 06:00:04 2.9 C 77 % -0.72 C
1471 28-02-2011 06:12:05 2.8 C 76 % -1 C
1472 28-02-2011 06:24:05 2.7 C 76 % -1.1 C
1473 28-02-2011 06:36:05 2.7 C 78 % -0.74 C
1474 28-02-2011 06:48:05 2.6 C 79 % -0.67 C
1475 28-02-2011 07:00:05 2.5 C 80 % -0.59 C
Sensor: Nr:Datum:Temp:Feuchte:Taupunkt:
Aussen-T/F 1476 28-02-2011 07:12:04 2.6 C 79 % -0.67 C
1477 28-02-2011 07:24:03 2.5 C 79 % -0.76 C
1478 28-02-2011 07:36:03 2.5 C 79 % -0.76 C
1479 28-02-2011 07:48:01 2.9 C 78 % -0.55 C
1480 28-02-2011 08:00:01 2.9 C 77 % -0.72 C
1481 28-02-2011 08:12:02 3.1 C 76 % -0.71 C
1482 28-02-2011 08:24:01 3.3 C 76 % -0.52 C
1483 28-02-2011 08:36:01 3.4 C 76 % -0.42 C
1484 28-02-2011 08:48:01 3.5 C 75 % -0.5 C
1485 28-02-2011 09:00:01 3.7 C 74 % -0.49 C
1486 28-02-2011 09:12:02 3.9 C 72 % -0.68 C
1487 28-02-2011 09:24:02 4.2 C 70 % -0.77 C
1488 28-02-2011 09:36:01 5 C 68 % -0.4 C
1489 28-02-2011 09:48:02 4.3 C 66 % -1.48 C
1490 28-02-2011 10:00:02 3.4 C 70 % -1.54 C
1491 28-02-2011 10:12:01 2.8 C 74 % -1.36 C
1492 28-02-2011 10:24:02 3.4 C 77 % -0.24 C
1493 28-02-2011 10:36:01 4.8 C 75 % 0.75 C
1494 28-02-2011 10:48:02 6.3 C 65 % 0.22 C
1495 28-02-2011 11:00:02 7.3 C 58 % -0.4 C
1496 28-02-2011 11:12:02 7.3 C 54 % -1.38 C
1497 28-02-2011 11:24:02 7 C 52 % -2.17 C
1498 28-02-2011 11:36:02 7.8 C 51 % -1.69 C
1499 28-02-2011 11:48:02 7.9 C 49 % -2.14 C
1500 28-02-2011 12:00:02 8.1 C 48 % -2.23 C
Sensor: Nr:Datum:Temp:Feuchte:Taupunkt:
Aussen-T/F 1501 28-02-2011 12:12:01 8.3 C 48 % -2.05 C
1502 28-02-2011 12:24:01 8.6 C 46 % -2.35 C
1503 28-02-2011 12:36:02 8.8 C 45 % -2.46 C
1504 28-02-2011 12:48:02 8.5 C 44 % -3.04 C
1505 28-02-2011 13:00:02 8.2 C 46 % -2.71 C
1506 28-02-2011 13:12:02 8.5 C 45 % -2.73 C
1507 28-02-2011 13:24:01 8.8 C 44 % -2.76 C
1508 28-02-2011 13:36:02 10.4 C 38 % -3.29 C
1509 28-02-2011 13:48:01 9.2 C 42 % -3.02 C
1510 28-02-2011 14:00:01 9.1 C 43 % -2.8 C
1511 28-02-2011 14:12:02 10.9 C 41 % -1.82 C
1512 28-02-2011 14:24:01 10 C 40 % -2.96 C
1513 28-02-2011 14:36:02 11.2 C 38 % -2.57 C
1514 28-02-2011 14:48:01 10.5 C 39 % -2.85 C
1515 28-02-2011 15:00:01 9.6 C 42 % -2.66 C
1516 28-02-2011 15:12:02 9.7 C 42 % -2.57 C
1517 28-02-2011 15:24:02 10 C 40 % -2.96 C
1518 28-02-2011 15:36:02 11 C 39 % -2.4 C
1519 28-02-2011 15:48:02 11.4 C 36 % -3.12 C
1520 28-02-2011 16:00:02 11.5 C 36 % -3.03 C
1521 28-02-2011 16:12:02 12.3 C 36 % -2.32 C
1522 28-02-2011 16:24:02 15.2 C 28 % -3.16 C
1523 28-02-2011 16:36:01 11.6 C 34 % -3.71 C
1524 28-02-2011 16:48:02 9.2 C 41 % -3.35 C
1525 28-02-2011 17:00:02 8.4 C 45 % -2.83 C
Sensor: Nr:Datum:Temp:Feuchte:Taupunkt:
Aussen-T/F 1526 28-02-2011 17:12:01 8.1 C 46 % -2.8 C
1527 28-02-2011 17:24:01 7.9 C 48 % -2.42 C
1528 28-02-2011 17:36:01 7.7 C 48 % -2.6 C
1529 28-02-2011 17:48:02 7.1 C 49 % -2.87 C
1530 28-02-2011 18:00:02 6.1 C 56 % -2 C
1531 28-02-2011 18:12:02 5.8 C 58 % -1.81 C
1532 28-02-2011 18:24:02 5.1 C 61 % -1.79 C
1533 28-02-2011 18:36:02 4.4 C 65 % -1.59 C
1534 28-02-2011 18:48:01 4.2 C 67 % -1.37 C
1535 28-02-2011 19:00:01 3.5 C 70 % -1.44 C
1536 28-02-2011 19:12:02 3 C 73 % -1.35 C
1537 28-02-2011 19:24:01 2.8 C 76 % -1 C
1538 28-02-2011 19:36:01 2.6 C 77 % -1.02 C
1539 28-02-2011 19:48:01 2.2 C 78 % -1.23 C
1540 28-02-2011 20:00:01 2 C 79 % -1.25 C
1541 28-02-2011 20:12:02 1.9 C 81 % -1.01 C
1542 28-02-2011 20:24:01 1.9 C 82 % -0.84 C
1543 28-02-2011 20:36:01 1.7 C 83 % -0.87 C
1544 28-02-2011 20:48:01 1.5 C 84 % -0.9 C
1545 28-02-2011 21:00:01 1.3 C 84 % -1.1 C
1546 28-02-2011 21:12:02 1.3 C 85 % -0.94 C
1547 28-02-2011 21:24:02 1.3 C 85 % -0.94 C
1548 28-02-2011 21:37:02 1.4 C 86 % -0.68 C
1549 28-02-2011 21:49:02 1.3 C 86 % -0.78 C
1550 28-02-2011 22:01:02 1.4 C 86 % -0.68 C
Sensor: Nr:Datum:Temp:Feuchte:Taupunkt:
Aussen-T/F 1551 28-02-2011 22:13:02 1.1 C 86 % -0.97 C
1552 28-02-2011 22:25:02 1.1 C 86 % -0.97 C
1553 28-02-2011 22:37:02 0.9 C 87 % -1.01 C
1554 28-02-2011 22:49:02 0.7 C 87 % -1.21 C
1555 28-02-2011 23:01:02 0.9 C 88 % -0.86 C
1556 28-02-2011 23:13:02 1 C 87 % -0.91 C
1557 28-02-2011 23:25:02 1.1 C 87 % -0.82 C
1558 28-02-2011 23:37:02 0.7 C 88 % -1.05 C
1559 28-02-2011 23:49:02 0.9 C 88 % -0.86 C
1560 01-03-2011 00:01:02 0.7 C 88 % -1.05 C
1561 01-03-2011 00:13:02 0.6 C 88 % -1.15 C
1562 01-03-2011 00:25:02 0.6 C 88 % -1.15 C
1563 01-03-2011 00:37:02 0.4 C 88 % -1.35 C
1564 01-03-2011 00:49:03 0.4 C 88 % -1.35 C
1565 01-03-2011 01:01:03 0.1 C 87 % -1.8 C
1566 01-03-2011 01:13:03 -0.3 C 87 % -2.2 C
1567 01-03-2011 01:25:03 -0.3 C 87 % -2.2 C
1568 01-03-2011 01:37:03 0.1 C 88 % -1.65 C
1569 01-03-2011 01:49:03 -0.1 C 88 % -1.84 C
1570 01-03-2011 02:01:03 0 C 88 % -1.74 C
1571 01-03-2011 02:13:03 0 C 88 % -1.74 C
1572 01-03-2011 02:25:03 -0.3 C 88 % -2.04 C
1573 01-03-2011 02:37:03 0.1 C 89 % -1.49 C
1574 01-03-2011 02:49:03 -0.3 C 89 % -1.89 C
1575 01-03-2011 03:01:03 -0.6 C 89 % -2.18 C
Sensor: Nr:Datum:Temp:Feuchte:Taupunkt:
Aussen-T/F 1576 01-03-2011 03:13:03 -0.8 C 89 % -2.38 C
1577 01-03-2011 03:25:03 -1 C 89 % -2.58 C
1578 01-03-2011 03:37:03 -0.9 C 89 % -2.48 C
1579 01-03-2011 03:49:03 -0.5 C 89 % -2.09 C
1580 01-03-2011 04:01:03 -0.9 C 89 % -2.48 C
1581 01-03-2011 04:13:03 -1.1 C 89 % -2.68 C
1582 01-03-2011 04:25:03 -0.8 C 89 % -2.38 C
1583 01-03-2011 04:37:03 -1.2 C 89 % -2.78 C
1584 01-03-2011 04:49:04 -1.2 C 89 % -2.78 C
1585 01-03-2011 05:01:04 -0.3 C 90 % -1.74 C
1586 01-03-2011 05:13:04 0.4 C 91 % -0.89 C
1587 01-03-2011 05:25:04 0.6 C 91 % -0.7 C
1588 01-03-2011 05:37:04 0.5 C 91 % -0.79 C
1589 01-03-2011 05:49:04 0.5 C 91 % -0.79 C
1590 01-03-2011 06:01:04 0.5 C 91 % -0.79 C
1591 01-03-2011 06:13:04 0.5 C 91 % -0.79 C
1592 01-03-2011 06:25:04 0.5 C 91 % -0.79 C
1593 01-03-2011 06:37:04 0.5 C 91 % -0.79 C
1594 01-03-2011 06:49:02 0.6 C 91 % -0.7 C
1595 01-03-2011 07:01:01 0.6 C 91 % -0.7 C
1596 01-03-2011 07:13:01 0.6 C 92 % -0.55 C
1597 01-03-2011 07:25:02 0.6 C 92 % -0.55 C
1598 01-03-2011 07:37:01 0.6 C 92 % -0.55 C
1599 01-03-2011 07:49:02 0.7 C 92 % -0.45 C
1600 01-03-2011 08:01:02 0.8 C 92 % -0.35 C
Sensor: Nr:Datum:Temp:Feuchte:Taupunkt:
Aussen-T/F 1601 01-03-2011 08:13:02 1.1 C 91 % -0.2 C
1602 01-03-2011 08:25:02 1.1 C 91 % -0.2 C
1603 01-03-2011 08:37:02 1.1 C 91 % -0.2 C
1604 01-03-2011 08:49:01 1.3 C 91 % 0 C
1605 01-03-2011 09:01:02 1.6 C 91 % 0.29 C
1606 01-03-2011 09:13:02 1.6 C 91 % 0.29 C
1607 01-03-2011 09:25:01 1.8 C 90 % 0.34 C
1608 01-03-2011 09:37:01 2 C 89 % 0.38 C
1609 01-03-2011 09:49:01 2.2 C 88 % 0.42 C
1610 01-03-2011 10:01:02 2.3 C 87 % 0.36 C
1611 01-03-2011 10:13:02 2.2 C 84 % -0.22 C
1612 01-03-2011 10:25:02 2.2 C 83 % -0.38 C
1613 01-03-2011 10:37:01 2.5 C 82 % -0.25 C
1614 01-03-2011 10:49:02 3 C 80 % -0.1 C
1615 01-03-2011 11:01:01 3.5 C 79 % 0.21 C
1616 01-03-2011 11:13:01 4.4 C 76 % 0.55 C
1617 01-03-2011 11:25:02 4.4 C 73 % 0 C
1618 01-03-2011 11:37:01 5.1 C 70 % 0.09 C
1619 01-03-2011 11:49:02 5.3 C 69 % 0.09 C
1620 01-03-2011 12:01:02 6.2 C 68 % 0.75 C
1621 01-03-2011 12:13:02 6.7 C 65 % 0.6 C
1622 01-03-2011 12:25:02 7.8 C 62 % 0.99 C
1623 01-03-2011 12:37:02 8.4 C 56 % 0.15 C
1624 01-03-2011 12:49:02 9.4 C 53 % 0.32 C
1625 01-03-2011 13:01:02 9.4 C 51 % -0.21 C
Sensor: Nr:Datum:Temp:Feuchte:Taupunkt:
Aussen-T/F 1626 01-03-2011 13:13:02 11.1 C 47 % 0.23 C
1627 01-03-2011 13:25:01 10.6 C 47 % -0.23 C
1628 01-03-2011 13:37:02 9.7 C 50 % -0.21 C
1629 01-03-2011 13:49:03 9.1 C 53 % 0.04 C
1630 01-03-2011 14:01:02 9.8 C 53 % 0.69 C
1631 01-03-2011 14:13:02 10.4 C 50 % 0.44 C
1632 01-03-2011 14:25:02 10.5 C 48 % -0.03 C
1633 01-03-2011 14:37:02 11.2 C 46 % 0.02 C
1634 01-03-2011 14:49:02 11.3 C 46 % 0.12 C
1635 01-03-2011 15:01:01 12.2 C 44 % 0.32 C
1636 01-03-2011 15:13:01 12.1 C 44 % 0.23 C
1637 01-03-2011 15:25:02 12 C 44 % 0.14 C
1638 01-03-2011 15:37:02 12.5 C 45 % 0.91 C
1639 01-03-2011 15:49:02 14.7 C 31 % -2.23 C
1640 01-03-2011 16:01:03 14.5 C 29 % -3.3 C
1641 01-03-2011 16:13:03 14.6 C 28 % -3.68 C
1642 01-03-2011 16:25:02 14.9 C 25 % -4.93 C
1643 01-03-2011 16:37:02 15.4 C 24 % -5.04 C
1644 01-03-2011 16:49:01 15.7 C 25 % -4.25 C
1645 01-03-2011 17:01:01 14 C 26 % -5.17 C
1646 01-03-2011 17:13:01 13.2 C 27 % -5.36 C
1647 01-03-2011 17:25:01 12.6 C 30 % -4.49 C
1648 01-03-2011 17:37:01 10.4 C 39 % -2.94 C
1649 01-03-2011 17:49:01 8.9 C 45 % -2.37 C
1650 01-03-2011 18:01:01 7.6 C 51 % -1.87 C
Sensor: Nr:Datum:Temp:Feuchte:Taupunkt:
Aussen-T/F 1651 01-03-2011 18:13:01 7 C 48 % -3.24 C
1652 01-03-2011 18:25:02 6.5 C 53 % -2.37 C
1653 01-03-2011 18:37:01 6.9 C 52 % -2.26 C
1654 01-03-2011 18:49:03 6.8 C 53 % -2.09 C
1655 01-03-2011 19:01:02 6.5 C 55 % -1.87 C
1656 01-03-2011 19:13:02 6.2 C 56 % -1.91 C
1657 01-03-2011 19:25:02 5.8 C 59 % -1.58 C
1658 01-03-2011 19:37:02 5.1 C 62 % -1.57 C
1659 01-03-2011 19:49:02 4.6 C 63 % -1.82 C
1660 01-03-2011 20:01:01 4.4 C 64 % -1.8 C
1661 01-03-2011 20:13:01 4.7 C 64 % -1.51 C
1662 01-03-2011 20:25:02 4.3 C 62 % -2.32 C
1663 01-03-2011 20:37:02 4.4 C 62 % -2.23 C
1664 01-03-2011 20:49:02 3.9 C 64 % -2.27 C
1665 01-03-2011 21:01:03 3.6 C 64 % -2.56 C
1666 01-03-2011 21:13:03 3.3 C 67 % -2.23 C
1667 01-03-2011 21:25:02 2.5 C 68 % -2.79 C
1668 01-03-2011 21:38:02 2.3 C 71 % -2.4 C
1669 01-03-2011 21:50:02 2.4 C 71 % -2.31 C
1670 01-03-2011 22:02:02 2 C 71 % -2.69 C
1671 01-03-2011 22:14:02 3.2 C 65 % -2.73 C
1672 01-03-2011 22:26:02 3.2 C 62 % -3.36 C
1673 01-03-2011 22:38:02 3.5 C 59 % -3.74 C
1674 01-03-2011 22:50:02 3.7 C 57 % -4.01 C
1675 01-03-2011 23:02:02 3.5 C 58 % -3.97 C
Sensor: Nr:Datum:Temp:Feuchte:Taupunkt:
Aussen-T/F 1676 01-03-2011 23:14:03 3.3 C 57 % -4.39 C
1677 01-03-2011 23:26:03 3 C 58 % -4.44 C
1678 01-03-2011 23:38:03 2.5 C 60 % -4.46 C
1679 01-03-2011 23:50:03 1.8 C 64 % -4.27 C
1680 02-03-2011 00:02:03 1.6 C 66 % -4.05 C
1681 02-03-2011 00:14:03 1.3 C 65 % -4.54 C
1682 02-03-2011 00:26:03 1.8 C 67 % -3.66 C
1683 02-03-2011 00:38:03 1.3 C 67 % -4.14 C
1684 02-03-2011 00:50:03 0.7 C 69 % -4.32 C
1685 02-03-2011 01:02:03 1.5 C 69 % -3.55 C
1686 02-03-2011 01:14:03 1.1 C 68 % -4.13 C
1687 02-03-2011 01:26:03 0.6 C 69 % -4.42 C
1688 02-03-2011 01:38:03 0.1 C 72 % -4.33 C
1689 02-03-2011 01:50:03 0.1 C 74 % -3.97 C
1690 02-03-2011 02:02:03 0 C 75 % -3.89 C
1691 02-03-2011 02:14:03 0 C 75 % -3.89 C
1692 02-03-2011 02:26:03 -0.4 C 76 % -4.1 C
1693 02-03-2011 02:38:03 -0.6 C 76 % -4.3 C
1694 02-03-2011 02:50:03 -0.8 C 77 % -4.32 C
1695 02-03-2011 03:02:03 -0.9 C 77 % -4.42 C
1696 02-03-2011 03:14:04 -1.1 C 78 % -4.44 C
1697 02-03-2011 03:26:04 -1 C 78 % -4.34 C
1698 02-03-2011 03:38:04 -1.2 C 77 % -4.71 C
1699 02-03-2011 03:50:04 -0.8 C 77 % -4.32 C
1700 02-03-2011 04:02:04 -1.2 C 76 % -4.88 C
Sensor: Nr:Datum:Temp:Feuchte:Taupunkt:
Aussen-T/F 1701 02-03-2011 04:14:04 -0.9 C 75 % -4.76 C
1702 02-03-2011 04:26:04 -0.9 C 74 % -4.94 C
1703 02-03-2011 04:38:04 -1 C 73 % -5.22 C
1704 02-03-2011 04:50:04 -1.1 C 72 % -5.5 C
1705 02-03-2011 05:02:04 -1.4 C 73 % -5.6 C
1706 02-03-2011 05:14:04 -1.3 C 73 % -5.51 C
1707 02-03-2011 05:26:04 -1.3 C 73 % -5.51 C
1708 02-03-2011 05:38:04 -1.6 C 74 % -5.62 C
1709 02-03-2011 05:50:04 -1.9 C 75 % -5.73 C
1710 02-03-2011 06:02:04 -2 C 76 % -5.66 C
1711 02-03-2011 06:14:04 -2.1 C 77 % -5.58 C
1712 02-03-2011 06:26:04 -2 C 77 % -5.48 C
1713 02-03-2011 06:38:04 -2.2 C 77 % -5.68 C
1714 02-03-2011 06:50:04 -2.1 C 76 % -5.75 C
1715 02-03-2011 07:02:04 -2.1 C 75 % -5.93 C
1716 02-03-2011 07:14:04 -2.2 C 74 % -6.2 C
1717 02-03-2011 07:26:05 -2.3 C 75 % -6.12 C
1718 02-03-2011 07:38:02 -2.2 C 75 % -6.02 C
1719 02-03-2011 07:50:02 -2.3 C 75 % -6.12 C
1720 02-03-2011 08:02:01 -2 C 76 % -5.66 C
1721 02-03-2011 08:14:01 -2.2 C 76 % -5.85 C
1722 02-03-2011 08:26:02 -2 C 76 % -5.66 C
1723 02-03-2011 08:38:02 -2 C 76 % -5.66 C
1724 02-03-2011 08:50:02 -1.8 C 76 % -5.46 C
1725 02-03-2011 09:02:02 -1.6 C 75 % -5.44 C
Sensor: Nr:Datum:Temp:Feuchte:Taupunkt:
Aussen-T/F 1726 02-03-2011 09:14:02 -0.9 C 73 % -5.12 C
1727 02-03-2011 09:26:01 -1 C 71 % -5.58 C
1728 02-03-2011 09:38:02 -0.5 C 71 % -5.1 C
1729 02-03-2011 09:50:02 -0.2 C 67 % -5.58 C
1730 02-03-2011 10:02:02 -0.2 C 68 % -5.38 C
1731 02-03-2011 10:14:02 0.7 C 65 % -5.11 C
1732 02-03-2011 10:26:02 1.5 C 61 % -5.19 C
1733 02-03-2011 10:38:02 2.3 C 56 % -5.56 C
1734 02-03-2011 10:50:02 2.9 C 55 % -5.23 C
1735 02-03-2011 11:02:02 4 C 50 % -5.46 C
1736 02-03-2011 11:14:02 5.2 C 43 % -6.33 C
1737 02-03-2011 11:26:02 5.2 C 41 % -6.95 C
1738 02-03-2011 11:38:01 6.9 C 30 % -9.45 C
1739 02-03-2011 11:50:02 7.1 C 23 % -12.6 C
1740 02-03-2011 12:02:01 7.6 C 21 % -13.29 C
1741 02-03-2011 12:14:01 8.2 C 20 % -13.39 C
1742 02-03-2011 12:26:02 10 C 20 % -11.89 C
1743 02-03-2011 12:38:02 11 C 20 % -11.06 C
1744 02-03-2011 12:50:02 12.1 C 20 % -10.15 C
1745 02-03-2011 13:02:02 12.9 C 20 % -9.49 C
1746 02-03-2011 13:14:02 12.3 C 20 % -9.98 C
1747 02-03-2011 13:26:02 11.2 C 20 % -10.9 C
1748 02-03-2011 13:38:02 11.1 C 20 % -10.98 C
1749 02-03-2011 13:50:02 10.7 C 20 % -11.31 C
1750 02-03-2011 14:02:03 10.2 C 20 % -11.73 C
Sensor: Nr:Datum:Temp:Feuchte:Taupunkt:
Aussen-T/F 1751 02-03-2011 14:14:03 11 C 20 % -11.06 C
1752 02-03-2011 14:26:02 11.2 C 20 % -10.9 C
1753 02-03-2011 14:38:02 11 C 20 % -11.06 C
1754 02-03-2011 14:50:01 10.8 C 20 % -11.23 C
1755 02-03-2011 15:02:01 11 C 20 % -11.06 C
1756 02-03-2011 15:14:01 10.6 C 20 % -11.39 C
1757 02-03-2011 15:26:01 11.8 C 20 % -10.4 C
1758 02-03-2011 15:38:01 11.7 C 20 % -10.48 C
1759 02-03-2011 15:50:01 13.3 C 20 % -9.15 C
1760 02-03-2011 16:02:01 13 C 20 % -9.4 C
1761 02-03-2011 16:14:01 12.9 C 20 % -9.49 C
1762 02-03-2011 16:26:02 13.1 C 20 % -9.32 C
1763 02-03-2011 16:38:01 13.3 C 20 % -9.15 C
1764 02-03-2011 16:50:02 13.6 C 20 % -8.91 C
1765 02-03-2011 17:02:02 12.3 C 20 % -9.98 C
1766 02-03-2011 17:14:02 12.2 C 20 % -10.07 C
1767 02-03-2011 17:26:02 11.2 C 20 % -10.9 C
1768 02-03-2011 17:38:03 8.7 C 20 % -12.97 C
1769 02-03-2011 17:50:02 7.4 C 20 % -14.05 C
1770 02-03-2011 18:02:01 6.7 C 21 % -14.05 C
1771 02-03-2011 18:14:01 6 C 27 % -11.55 C
1772 02-03-2011 18:26:02 4.6 C 33 % -10.26 C
1773 02-03-2011 18:38:02 3.6 C 40 % -8.71 C
1774 02-03-2011 18:50:02 3 C 43 % -8.33 C
1775 02-03-2011 19:02:02 3 C 43 % -8.33 C
Sensor: Nr:Datum:Temp:Feuchte:Taupunkt:
Aussen-T/F 1776 02-03-2011 19:14:02 2.4 C 47 % -7.74 C
1777 02-03-2011 19:26:02 2.2 C 47 % -7.92 C
1778 02-03-2011 19:38:02 2.5 C 48 % -7.38 C
1779 02-03-2011 19:50:02 2.4 C 45 % -8.3 C
1780 02-03-2011 20:02:02 3.2 C 41 % -8.76 C
1781 02-03-2011 20:14:02 2.6 C 43 % -8.69 C
1782 02-03-2011 20:26:02 3.6 C 36 % -10.05 C
1783 02-03-2011 20:38:02 2.4 C 43 % -8.88 C
1784 02-03-2011 20:50:02 2.7 C 44 % -8.31 C
1785 02-03-2011 21:02:02 3.1 C 40 % -9.16 C
1786 02-03-2011 21:14:02 2.1 C 43 % -9.15 C
1787 02-03-2011 21:26:03 2.9 C 39 % -9.66 C
1788 02-03-2011 21:38:02 3.3 C 37 % -9.97 C
1789 02-03-2011 21:51:03 2.8 C 40 % -9.43 C
1790 02-03-2011 22:03:03 3.4 C 38 % -9.54 C
1791 02-03-2011 22:15:04 2.7 C 40 % -9.52 C
1792 02-03-2011 22:27:04 2.4 C 40 % -9.79 C
1793 02-03-2011 22:39:04 2.2 C 41 % -9.66 C
1794 02-03-2011 22:51:04 1.5 C 45 % -9.12 C
1795 02-03-2011 23:03:04 1.6 C 46 % -8.75 C
1796 02-03-2011 23:15:04 1.5 C 46 % -8.84 C
1797 02-03-2011 23:27:04 0.7 C 51 % -8.26 C
1798 02-03-2011 23:39:04 0.1 C 55 % -7.85 C
1799 02-03-2011 23:51:04 0 C 56 % -7.71 C
1800 03-03-2011 00:03:04 0.1 C 54 % -8.08 C
Sensor: Nr:Datum:Temp:Feuchte:Taupunkt:
Aussen-T/F 1801 03-03-2011 00:15:04 -0.8 C 58 % -8.02 C
1802 03-03-2011 00:27:04 -0.9 C 60 % -7.68 C
1803 03-03-2011 00:39:04 -1.2 C 60 % -7.96 C
1804 03-03-2011 00:51:04 -1.4 C 61 % -7.94 C
1805 03-03-2011 01:03:04 -1.5 C 61 % -8.03 C
1806 03-03-2011 01:15:04 -1.7 C 62 % -8.01 C
1807 03-03-2011 01:27:04 -1.8 C 63 % -7.9 C
1808 03-03-2011 01:39:04 -1.7 C 63 % -7.81 C
1809 03-03-2011 01:51:04 -1.2 C 63 % -7.33 C
1810 03-03-2011 02:03:04 -1.9 C 62 % -8.2 C
1811 03-03-2011 02:15:05 -2 C 62 % -8.3 C
1812 03-03-2011 02:27:05 -1.8 C 60 % -8.53 C
1813 03-03-2011 02:39:05 -2 C 60 % -8.72 C
1814 03-03-2011 02:51:05 -2 C 62 % -8.3 C
1815 03-03-2011 03:03:05 -2 C 61 % -8.5 C
1816 03-03-2011 03:15:05 -2 C 62 % -8.3 C
1817 03-03-2011 03:27:05 -2.3 C 62 % -8.58 C
1818 03-03-2011 03:39:05 -2.2 C 62 % -8.49 C
1819 03-03-2011 03:51:05 -2.1 C 62 % -8.39 C
1820 03-03-2011 04:03:05 -1.8 C 60 % -8.53 C
1821 03-03-2011 04:15:05 -0.3 C 51 % -9.2 C
1822 03-03-2011 04:27:05 -1.3 C 52 % -9.88 C
1823 03-03-2011 04:39:05 -2.6 C 57 % -9.93 C
1824 03-03-2011 04:51:05 -2.8 C 62 % -9.05 C
1825 03-03-2011 05:03:05 -2.6 C 64 % -8.46 C
Sensor: Nr:Datum:Temp:Feuchte:Taupunkt:
Aussen-T/F 1826 03-03-2011 05:15:05 -3.1 C 64 % -8.93 C
1827 03-03-2011 05:27:05 -2.7 C 64 % -8.55 C
1828 03-03-2011 05:39:05 -2.7 C 62 % -8.96 C
1829 03-03-2011 05:51:05 -3 C 62 % -9.24 C
1830 03-03-2011 06:03:05 -3.1 C 63 % -9.14 C
1831 03-03-2011 06:15:06 -3.1 C 64 % -8.93 C
1832 03-03-2011 06:27:06 -3.6 C 64 % -9.41 C
1833 03-03-2011 06:39:06 -3.7 C 65 % -9.31 C
1834 03-03-2011 06:51:06 -3.6 C 67 % -8.83 C
1835 03-03-2011 07:03:03 -3.5 C 67 % -8.73 C
1836 03-03-2011 07:15:03 -3.2 C 66 % -8.64 C
1837 03-03-2011 07:27:04 -3.2 C 65 % -8.83 C
1838 03-03-2011 07:39:03 -3.1 C 65 % -8.74 C
1839 03-03-2011 07:51:02 -3 C 65 % -8.64 C
1840 03-03-2011 08:03:02 -3.2 C 65 % -8.83 C
1841 03-03-2011 08:15:02 -2.8 C 65 % -8.45 C
1842 03-03-2011 08:27:02 -2.5 C 63 % -8.57 C
1843 03-03-2011 08:39:02 -2.4 C 62 % -8.68 C
1844 03-03-2011 08:51:02 -2.3 C 62 % -8.58 C
1845 03-03-2011 09:03:02 -2 C 62 % -8.3 C
1846 03-03-2011 09:15:02 -1.9 C 61 % -8.41 C
1847 03-03-2011 09:27:02 -1.7 C 60 % -8.43 C
1848 03-03-2011 09:39:01 -1.6 C 61 % -8.13 C
1849 03-03-2011 09:51:02 -1.2 C 61 % -7.75 C
1850 03-03-2011 10:03:01 -1 C 61 % -7.56 C
Sensor: Nr:Datum:Temp:Feuchte:Taupunkt:
Aussen-T/F 1851 03-03-2011 10:15:01 0.2 C 59 % -6.85 C
1852 03-03-2011 10:27:01 0.7 C 56 % -7.05 C
1853 03-03-2011 10:39:02 1.8 C 48 % -8.02 C
1854 03-03-2011 10:51:02 2.5 C 41 % -9.39 C
1855 03-03-2011 11:03:02 4 C 36 % -9.69 C
1856 03-03-2011 11:15:02 3.8 C 35 % -10.23 C
1857 03-03-2011 11:27:02 3.9 C 34 % -10.5 C
1858 03-03-2011 11:39:02 4.9 C 30 % -11.19 C
1859 03-03-2011 11:51:02 4.6 C 30 % -11.45 C
1860 03-03-2011 12:03:02 5.1 C 29 % -11.44 C
1861 03-03-2011 12:15:02 5.8 C 28 % -11.27 C
1862 03-03-2011 12:27:02 6.5 C 23 % -13.1 C
1863 03-03-2011 12:39:02 8.7 C 20 % -12.97 C
1864 03-03-2011 12:51:01 8.6 C 20 % -13.06 C
1865 03-03-2011 13:03:01 9 C 20 % -12.72 C
1866 03-03-2011 13:15:02 9.3 C 20 % -12.47 C
1867 03-03-2011 13:27:02 7.8 C 20 % -13.72 C
1868 03-03-2011 13:39:01 8 C 20 % -13.56 C
1869 03-03-2011 13:51:03 8.1 C 20 % -13.47 C
1870 03-03-2011 14:03:02 7.9 C 20 % -13.64 C
1871 03-03-2011 14:15:02 8.8 C 20 % -12.89 C
1872 03-03-2011 14:27:03 8.6 C 20 % -13.06 C
1873 03-03-2011 14:39:02 9.4 C 20 % -12.39 C
1874 03-03-2011 14:51:02 8.8 C 20 % -12.89 C
1875 03-03-2011 15:03:01 9.3 C 20 % -12.47 C
Sensor: Nr:Datum:Temp:Feuchte:Taupunkt:
Aussen-T/F 1876 03-03-2011 15:15:02 9.3 C 20 % -12.47 C
1877 03-03-2011 15:27:02 9.4 C 20 % -12.39 C
1878 03-03-2011 15:39:02 9.3 C 20 % -12.47 C
1879 03-03-2011 15:51:02 10.3 C 20 % -11.64 C
1880 03-03-2011 16:03:03 9.5 C 20 % -12.31 C
1881 03-03-2011 16:15:02 11.1 C 20 % -10.98 C
1882 03-03-2011 16:27:02 12 C 20 % -10.23 C
1883 03-03-2011 16:39:02 10.7 C 20 % -11.31 C
1884 03-03-2011 16:51:01 10.5 C 20 % -11.48 C
1885 03-03-2011 17:03:02 9.7 C 20 % -12.14 C
1886 03-03-2011 17:15:01 9.4 C 20 % -12.39 C
1887 03-03-2011 17:27:01 8.5 C 20 % -13.14 C
1888 03-03-2011 17:39:01 7 C 20 % -14.39 C
1889 03-03-2011 17:51:01 5.9 C 30 % -10.32 C
1890 03-03-2011 18:03:01 4.6 C 34 % -9.88 C
1891 03-03-2011 18:15:02 3.8 C 38 % -9.19 C
1892 03-03-2011 18:27:02 3.3 C 40 % -8.98 C
1893 03-03-2011 18:39:01 2.4 C 45 % -8.3 C
1894 03-03-2011 18:51:03 1.8 C 48 % -8.02 C
1895 03-03-2011 19:03:02 1.4 C 51 % -7.61 C
1896 03-03-2011 19:15:02 1.2 C 52 % -7.54 C
1897 03-03-2011 19:27:02 1.1 C 54 % -7.15 C
1898 03-03-2011 19:39:02 0.9 C 56 % -6.87 C
1899 03-03-2011 19:51:02 0.8 C 57 % -6.73 C
1900 03-03-2011 20:03:01 1.1 C 55 % -6.91 C
Sensor: Nr:Datum:Temp:Feuchte:Taupunkt:
Aussen-T/F 1901 03-03-2011 20:15:02 0.5 C 58 % -6.79 C
1902 03-03-2011 20:27:02 0.5 C 59 % -6.56 C
1903 03-03-2011 20:39:02 0.4 C 60 % -6.44 C
1904 03-03-2011 20:51:02 0 C 61 % -6.6 C
1905 03-03-2011 21:03:03 -0.1 C 63 % -6.29 C
1906 03-03-2011 21:15:02 -0.1 C 62 % -6.5 C
1907 03-03-2011 21:27:02 -0.3 C 64 % -6.27 C
1908 03-03-2011 21:39:02 -0.4 C 65 % -6.16 C
1909 03-03-2011 21:51:01 -0.5 C 66 % -6.06 C
1910 03-03-2011 22:03:02 -0.4 C 66 % -5.96 C
1911 03-03-2011 22:15:02 -0.4 C 65 % -6.16 C
1912 03-03-2011 22:27:02 -0.7 C 66 % -6.25 C
1913 03-03-2011 22:39:01 -0.9 C 67 % -6.25 C
1914 03-03-2011 22:52:03 -1 C 69 % -5.96 C
1915 03-03-2011 23:04:03 -1.2 C 69 % -6.15 C
1916 03-03-2011 23:16:03 -1.1 C 69 % -6.05 C
1917 03-03-2011 23:28:03 -1.3 C 69 % -6.24 C
1918 03-03-2011 23:40:03 -1.5 C 68 % -6.63 C
1919 03-03-2011 23:52:03 -1.4 C 69 % -6.34 C
1920 04-03-2011 00:04:03 -1.5 C 68 % -6.63 C
1921 04-03-2011 00:16:03 -1.5 C 68 % -6.63 C
1922 04-03-2011 00:28:03 -1.6 C 68 % -6.72 C
1923 04-03-2011 00:40:04 -1.8 C 69 % -6.72 C
1924 04-03-2011 00:52:04 -1.7 C 69 % -6.63 C
1925 04-03-2011 01:04:04 -1.9 C 70 % -6.63 C
Sensor: Nr:Datum:Temp:Feuchte:Taupunkt:
Aussen-T/F 1926 04-03-2011 01:16:04 -1.7 C 70 % -6.44 C
1927 04-03-2011 01:28:04 -1.9 C 70 % -6.63 C
1928 04-03-2011 01:40:04 -1.9 C 70 % -6.63 C
1929 04-03-2011 01:52:04 -2 C 70 % -6.73 C
1930 04-03-2011 02:04:04 -2.2 C 70 % -6.92 C
1931 04-03-2011 02:16:04 -2.1 C 70 % -6.83 C
1932 04-03-2011 02:28:04 -2.3 C 70 % -7.02 C
1933 04-03-2011 02:40:04 -2.4 C 70 % -7.11 C
1934 04-03-2011 02:52:04 -2.2 C 71 % -6.74 C
1935 04-03-2011 03:04:04 -2.5 C 70 % -7.21 C
1936 04-03-2011 03:16:04 -2.7 C 71 % -7.22 C
1937 04-03-2011 03:28:04 -3 C 72 % -7.33 C
1938 04-03-2011 03:40:04 -3.2 C 73 % -7.34 C
1939 04-03-2011 03:52:04 -2.5 C 74 % -6.49 C
1940 04-03-2011 04:04:04 -2.8 C 74 % -6.78 C
1941 04-03-2011 04:16:04 -3.1 C 73 % -7.24 C
1942 04-03-2011 04:28:04 -3.9 C 73 % -8.02 C
1943 04-03-2011 04:40:04 -3.9 C 75 % -7.67 C
1944 04-03-2011 04:52:05 -4 C 76 % -7.59 C
1945 04-03-2011 05:04:05 -4.3 C 76 % -7.89 C
1946 04-03-2011 05:16:05 -4.3 C 76 % -7.89 C
1947 04-03-2011 05:28:05 -4.6 C 77 % -8.01 C
1948 04-03-2011 05:40:05 -4.3 C 78 % -7.55 C
1949 04-03-2011 05:52:05 -4.3 C 79 % -7.39 C
1950 04-03-2011 06:04:05 -4.7 C 79 % -7.78 C
Sensor: Nr:Datum:Temp:Feuchte:Taupunkt:
Aussen-T/F 1951 04-03-2011 06:16:05 -4.4 C 79 % -7.48 C
1952 04-03-2011 06:28:05 -4.4 C 79 % -7.48 C
1953 04-03-2011 06:40:05 -4.7 C 79 % -7.78 C
1954 04-03-2011 06:52:05 -5 C 78 % -8.23 C
1955 04-03-2011 07:04:05 -4.9 C 78 % -8.13 C
1956 04-03-2011 07:16:03 -4.9 C 79 % -7.97 C
1957 04-03-2011 07:28:03 -4.7 C 79 % -7.78 C
1958 04-03-2011 07:40:02 -4.6 C 79 % -7.68 C
1959 04-03-2011 07:52:02 -4.4 C 79 % -7.48 C
1960 04-03-2011 08:04:01 -4.5 C 79 % -7.58 C
1961 04-03-2011 08:16:02 -4 C 79 % -7.09 C
1962 04-03-2011 08:28:02 -4 C 80 % -6.93 C
1963 04-03-2011 08:40:02 -3.8 C 80 % -6.74 C
1964 04-03-2011 08:52:02 -3.6 C 79 % -6.7 C
1965 04-03-2011 09:04:02 -3.5 C 79 % -6.61 C
1966 04-03-2011 09:16:02 -3.1 C 79 % -6.22 C
1967 04-03-2011 09:28:02 -2.7 C 79 % -5.83 C
1968 04-03-2011 09:40:02 -2.4 C 78 % -5.7 C
1969 04-03-2011 09:52:02 -2.2 C 78 % -5.51 C
1970 04-03-2011 10:04:02 -1.6 C 77 % -5.1 C
1971 04-03-2011 10:16:02 -0.7 C 75 % -4.57 C
1972 04-03-2011 10:28:02 -0.1 C 72 % -4.53 C
1973 04-03-2011 10:40:03 0.5 C 69 % -4.51 C
1974 04-03-2011 10:52:02 1.4 C 66 % -4.24 C
1975 04-03-2011 11:04:02 2.9 C 59 % -4.31 C
Sensor: Nr:Datum:Temp:Feuchte:Taupunkt:
Aussen-T/F 1976 04-03-2011 11:16:02 3 C 54 % -5.38 C
1977 04-03-2011 11:28:02 3.3 C 51 % -5.85 C
1978 04-03-2011 11:40:02 4.6 C 46 % -6 C
1979 04-03-2011 11:52:02 4.2 C 45 % -6.65 C
1980 04-03-2011 12:04:01 4.6 C 46 % -6 C
1981 04-03-2011 12:16:02 5.4 C 42 % -6.46 C
1982 04-03-2011 12:28:02 7.3 C 39 % -5.72 C
1983 04-03-2011 12:40:02 9.5 C 31 % -6.76 C
1984 04-03-2011 12:52:01 10.5 C 30 % -6.32 C
1985 04-03-2011 13:04:01 11.6 C 26 % -7.22 C
1986 04-03-2011 13:16:01 12 C 25 % -7.39 C
1987 04-03-2011 13:28:01 10.1 C 30 % -6.66 C
1988 04-03-2011 13:40:02 9 C 31 % -7.2 C
1989 04-03-2011 13:52:02 8.9 C 32 % -6.87 C
1990 04-03-2011 14:04:02 8.6 C 33 % -6.74 C
1991 04-03-2011 14:16:01 9.8 C 32 % -6.09 C
1992 04-03-2011 14:28:01 9.8 C 32 % -6.09 C
1993 04-03-2011 14:40:02 10.1 C 32 % -5.82 C
1994 04-03-2011 14:52:02 10 C 31 % -6.32 C
1995 04-03-2011 15:04:02 10.9 C 30 % -5.97 C
1996 04-03-2011 15:16:02 10.7 C 31 % -5.71 C
1997 04-03-2011 15:28:02 10.8 C 30 % -6.06 C
1998 04-03-2011 15:40:02 13.2 C 26 % -5.86 C
1999 04-03-2011 15:52:02 14.2 C 25 % -5.52 C
2000 04-03-2011 16:04:01 15.1 C 20 % -7.66 C
Sensor: Nr:Datum:Temp:Feuchte:Taupunkt:
Aussen-T/F 2001 04-03-2011 16:16:01 16.9 C 20 % -6.17 C
2002 04-03-2011 16:28:01 16.6 C 20 % -6.42 C
2003 04-03-2011 16:40:02 15.2 C 22 % -6.35 C
2004 04-03-2011 16:52:02 14.9 C 25 % -4.93 C
2005 04-03-2011 17:04:02 13.5 C 25 % -6.11 C
2006 04-03-2011 17:16:02 13.2 C 27 % -5.36 C
2007 04-03-2011 17:28:02 11.1 C 34 % -4.15 C
2008 04-03-2011 17:40:02 8.9 C 40 % -3.95 C
2009 04-03-2011 17:52:02 7.9 C 44 % -3.58 C
2010 04-03-2011 18:04:02 6.4 C 48 % -3.79 C
2011 04-03-2011 18:16:02 5.5 C 52 % -3.56 C
2012 04-03-2011 18:28:02 5.1 C 54 % -3.42 C
2013 04-03-2011 18:40:02 4.7 C 56 % -3.31 C
2014 04-03-2011 18:52:01 5.2 C 53 % -3.58 C
2015 04-03-2011 19:04:02 5 C 52 % -4.02 C
2016 04-03-2011 19:16:01 5 C 50 % -4.54 C
2017 04-03-2011 19:28:01 4.3 C 52 % -4.67 C
2018 04-03-2011 19:40:01 4.4 C 58 % -3.12 C
2019 04-03-2011 19:52:01 3.6 C 60 % -3.42 C
2020 04-03-2011 20:04:01 3.2 C 63 % -3.15 C
2021 04-03-2011 20:16:02 2.8 C 65 % -3.11 C
2022 04-03-2011 20:28:02 2.6 C 66 % -3.1 C
2023 04-03-2011 20:40:01 2.7 C 67 % -2.8 C
2024 04-03-2011 20:52:03 2.3 C 67 % -3.18 C
2025 04-03-2011 21:04:02 2.1 C 69 % -2.98 C
Sensor: Nr:Datum:Temp:Feuchte:Taupunkt:
Aussen-T/F 2026 04-03-2011 21:16:02 1.6 C 71 % -3.08 C
2027 04-03-2011 21:28:02 1.9 C 71 % -2.79 C
2028 04-03-2011 21:41:03 1.8 C 70 % -3.07 C
2029 04-03-2011 21:53:03 1.7 C 72 % -2.79 C
2030 04-03-2011 22:05:03 1.7 C 72 % -2.79 C
2031 04-03-2011 22:17:03 1.4 C 72 % -3.08 C
2032 04-03-2011 22:29:03 0.9 C 75 % -3.02 C
2033 04-03-2011 22:41:03 0.7 C 76 % -3.03 C
2034 04-03-2011 22:53:03 0.4 C 78 % -2.98 C
2035 04-03-2011 23:05:03 -0.3 C 78 % -3.66 C
2036 04-03-2011 23:17:03 0 C 80 % -3.03 C
2037 04-03-2011 23:29:03 0.6 C 80 % -2.44 C
2038 04-03-2011 23:41:03 0 C 79 % -3.2 C
2039 04-03-2011 23:53:03 -0.6 C 81 % -3.45 C
2040 05-03-2011 00:05:03 -0.5 C 82 % -3.19 C
2041 05-03-2011 00:17:03 -0.4 C 83 % -2.93 C
2042 05-03-2011 00:29:04 -1.5 C 83 % -4 C
2043 05-03-2011 00:41:04 -1.3 C 83 % -3.81 C
2044 05-03-2011 00:53:04 -1.5 C 84 % -3.85 C
2045 05-03-2011 01:05:04 -0.7 C 85 % -2.9 C
2046 05-03-2011 01:17:04 -1.7 C 85 % -3.88 C
2047 05-03-2011 01:29:04 -2.3 C 85 % -4.47 C
2048 05-03-2011 01:41:04 -2.3 C 85 % -4.47 C
2049 05-03-2011 01:53:04 -2.4 C 85 % -4.57 C
2050 05-03-2011 02:05:04 -2.8 C 85 % -4.96 C
Sensor: Nr:Datum:Temp:Feuchte:Taupunkt:
Aussen-T/F 2051 05-03-2011 02:17:04 -2.9 C 85 % -5.06 C
2052 05-03-2011 02:29:04 -3.1 C 85 % -5.26 C
2053 05-03-2011 02:41:04 -3.2 C 85 % -5.36 C
2054 05-03-2011 02:53:04 -3.2 C 85 % -5.36 C
2055 05-03-2011 03:05:04 -3.5 C 85 % -5.65 C
2056 05-03-2011 03:17:04 -3.5 C 85 % -5.65 C
2057 05-03-2011 03:29:04 -3.7 C 85 % -5.85 C
2058 05-03-2011 03:41:04 -3.7 C 86 % -5.69 C
2059 05-03-2011 03:53:04 -3.5 C 86 % -5.5 C
2060 05-03-2011 04:05:04 -3.6 C 86 % -5.6 C
2061 05-03-2011 04:17:04 -3.9 C 86 % -5.89 C
2062 05-03-2011 04:29:04 -3.8 C 86 % -5.79 C
2063 05-03-2011 04:41:05 -3.7 C 87 % -5.54 C
2064 05-03-2011 04:53:05 -3.7 C 87 % -5.54 C
2065 05-03-2011 05:05:05 -3.7 C 87 % -5.54 C
2066 05-03-2011 05:17:05 -3.8 C 87 % -5.64 C
2067 05-03-2011 05:29:05 -4.1 C 87 % -5.94 C
2068 05-03-2011 05:41:05 -3.6 C 87 % -5.44 C
2069 05-03-2011 05:53:05 -4 C 87 % -5.84 C
2070 05-03-2011 06:05:05 -3.7 C 87 % -5.54 C
2071 05-03-2011 06:17:05 -2.8 C 87 % -4.66 C
2072 05-03-2011 06:29:05 -2.6 C 87 % -4.46 C
2073 05-03-2011 06:41:05 -2.5 C 87 % -4.36 C
2074 05-03-2011 06:53:05 -2.3 C 88 % -4.01 C
2075 05-03-2011 07:05:03 -2.4 C 88 % -4.11 C
Sensor: Nr:Datum:Temp:Feuchte:Taupunkt:
Aussen-T/F 2076 05-03-2011 07:17:02 -2.2 C 88 % -3.91 C
2077 05-03-2011 07:29:02 -2.7 C 87 % -4.56 C
2078 05-03-2011 07:41:02 -2.8 C 87 % -4.66 C
2079 05-03-2011 07:53:01 -1.9 C 88 % -3.62 C
2080 05-03-2011 08:05:02 -1.9 C 88 % -3.62 C
2081 05-03-2011 08:17:02 -1.8 C 88 % -3.52 C
2082 05-03-2011 08:29:02 -1.4 C 87 % -3.28 C
2083 05-03-2011 08:41:02 -1.4 C 87 % -3.28 C
2084 05-03-2011 08:53:02 -1.3 C 86 % -3.33 C
2085 05-03-2011 09:05:02 -1.1 C 86 % -3.14 C
2086 05-03-2011 09:17:02 -0.9 C 85 % -3.1 C
2087 05-03-2011 09:29:02 -0.7 C 84 % -3.06 C
2088 05-03-2011 09:41:02 -0.2 C 83 % -2.73 C
2089 05-03-2011 09:53:02 0.2 C 82 % -2.5 C
2090 05-03-2011 10:05:02 0.6 C 81 % -2.28 C
2091 05-03-2011 10:17:02 1 C 78 % -2.39 C
2092 05-03-2011 10:29:02 1.6 C 76 % -2.16 C
2093 05-03-2011 10:41:02 2.2 C 73 % -2.13 C
2094 05-03-2011 10:53:01 2.4 C 71 % -2.31 C
2095 05-03-2011 11:05:02 2.4 C 69 % -2.69 C
2096 05-03-2011 11:17:01 2.9 C 68 % -2.41 C
2097 05-03-2011 11:29:01 2.8 C 63 % -3.53 C
2098 05-03-2011 11:41:01 3 C 62 % -3.55 C
2099 05-03-2011 11:53:01 3 C 61 % -3.77 C
2100 05-03-2011 12:05:02 3.3 C 62 % -3.27 C
Sensor: Nr:Datum:Temp:Feuchte:Taupunkt:
Aussen-T/F 2101 05-03-2011 12:17:02 3.3 C 61 % -3.49 C
2102 05-03-2011 12:29:02 4.6 C 58 % -2.94 C
2103 05-03-2011 12:41:01 4.9 C 54 % -3.61 C
2104 05-03-2011 12:53:02 6.3 C 48 % -3.88 C
2105 05-03-2011 13:05:01 6.8 C 47 % -3.71 C
2106 05-03-2011 13:17:02 6.3 C 47 % -4.16 C
2107 05-03-2011 13:29:02 5.6 C 48 % -4.53 C
2108 05-03-2011 13:41:01 5 C 50 % -4.54 C
2109 05-03-2011 13:53:02 4.7 C 50 % -4.82 C
2110 05-03-2011 14:05:02 3.3 C 53 % -5.35 C
2111 05-03-2011 14:17:02 4 C 53 % -4.7 C
2112 05-03-2011 14:29:02 4.1 C 52 % -4.85 C
2113 05-03-2011 14:41:02 4.1 C 53 % -4.6 C
2114 05-03-2011 14:53:02 4.5 C 52 % -4.48 C
2115 05-03-2011 15:05:03 4.2 C 52 % -4.76 C
2116 05-03-2011 15:17:02 3.7 C 53 % -4.97 C
2117 05-03-2011 15:29:02 3.4 C 55 % -4.77 C
2118 05-03-2011 15:41:02 3.8 C 54 % -4.63 C
2119 05-03-2011 15:53:01 4.8 C 51 % -4.46 C
2120 05-03-2011 16:05:02 4.2 C 52 % -4.76 C
2121 05-03-2011 16:17:01 4.1 C 52 % -4.85 C
2122 05-03-2011 16:29:01 3.3 C 55 % -4.86 C
2123 05-03-2011 16:41:02 2.6 C 59 % -4.59 C
2124 05-03-2011 16:53:01 2.7 C 60 % -4.27 C
2125 05-03-2011 17:05:02 3.2 C 59 % -4.02 C
Sensor: Nr:Datum:Temp:Feuchte:Taupunkt:
Aussen-T/F 2126 05-03-2011 17:17:01 3.3 C 57 % -4.39 C
2127 05-03-2011 17:29:01 2.6 C 61 % -4.15 C
2128 05-03-2011 17:41:02 2.2 C 64 % -3.89 C
2129 05-03-2011 17:53:01 1.8 C 67 % -3.66 C
2130 05-03-2011 18:05:02 1.5 C 70 % -3.36 C
2131 05-03-2011 18:17:02 1.5 C 71 % -3.17 C
2132 05-03-2011 18:29:02 1.4 C 72 % -3.08 C
2133 05-03-2011 18:41:01 1.3 C 73 % -2.99 C
2134 05-03-2011 18:53:01 1.1 C 74 % -3 C
2135 05-03-2011 19:05:02 0.8 C 77 % -2.76 C
2136 05-03-2011 19:17:02 0.6 C 78 % -2.78 C
2137 05-03-2011 19:29:02 1.1 C 79 % -2.12 C
2138 05-03-2011 19:41:01 1.5 C 78 % -1.91 C
2139 05-03-2011 19:53:02 1.7 C 76 % -2.07 C
2140 05-03-2011 20:05:01 1.9 C 76 % -1.87 C
2141 05-03-2011 20:17:02 1.9 C 76 % -1.87 C
2142 05-03-2011 20:29:03 1.5 C 77 % -2.08 C
2143 05-03-2011 20:41:01 1.4 C 78 % -2.01 C
2144 05-03-2011 20:53:02 0.7 C 79 % -2.51 C
2145 05-03-2011 21:05:02 0.1 C 80 % -2.93 C
2146 05-03-2011 21:17:02 -0.6 C 80 % -3.62 C
2147 05-03-2011 21:29:02 -0.2 C 82 % -2.89 C
2148 05-03-2011 21:41:03 -0.6 C 82 % -3.29 C
2149 05-03-2011 21:54:03 -1.2 C 82 % -3.87 C
2150 05-03-2011 22:06:03 -0.9 C 83 % -3.42 C
Sensor: Nr:Datum:Temp:Feuchte:Taupunkt:
Aussen-T/F 2151 05-03-2011 22:18:03 -1.2 C 84 % -3.55 C
2152 05-03-2011 22:30:03 -0.9 C 84 % -3.26 C
2153 05-03-2011 22:42:03 -1.4 C 84 % -3.75 C
2154 05-03-2011 22:54:03 -1.7 C 84 % -4.04 C
2155 05-03-2011 23:06:04 -1.6 C 84 % -3.94 C
2156 05-03-2011 23:18:04 -2 C 84 % -4.34 C
2157 05-03-2011 23:30:04 -1.4 C 85 % -3.59 C
2158 05-03-2011 23:42:04 -1.8 C 85 % -3.98 C
2159 05-03-2011 23:54:04 -1.3 C 86 % -3.33 C
2160 06-03-2011 00:06:04 -1.6 C 86 % -3.63 C
2161 06-03-2011 00:18:04 -1.8 C 86 % -3.83 C
2162 06-03-2011 00:30:04 -1.4 C 87 % -3.28 C
2163 06-03-2011 00:42:04 -1.4 C 87 % -3.28 C
2164 06-03-2011 00:54:04 -1.9 C 86 % -3.92 C
2165 06-03-2011 01:06:04 -2.4 C 86 % -4.42 C
2166 06-03-2011 01:18:04 -2.2 C 87 % -4.07 C
2167 06-03-2011 01:30:04 -2.4 C 87 % -4.26 C
2168 06-03-2011 01:42:04 -1.5 C 88 % -3.22 C
2169 06-03-2011 01:54:04 -1.2 C 88 % -2.93 C
2170 06-03-2011 02:06:04 -0.9 C 89 % -2.48 C
2171 06-03-2011 02:18:04 -0.4 C 89 % -1.99 C
2172 06-03-2011 02:30:04 -0.5 C 89 % -2.09 C
2173 06-03-2011 02:42:04 -0.3 C 88 % -2.04 C
2174 06-03-2011 02:54:04 -0.3 C 88 % -2.04 C
2175 06-03-2011 03:06:04 -0.1 C 88 % -1.84 C
Sensor: Nr:Datum:Temp:Feuchte:Taupunkt:
Aussen-T/F 2176 06-03-2011 03:18:05 0 C 88 % -1.74 C
2177 06-03-2011 03:30:05 0 C 87 % -1.9 C
2178 06-03-2011 03:42:05 0 C 87 % -1.9 C
2179 06-03-2011 03:54:05 0 C 87 % -1.9 C
2180 06-03-2011 04:06:05 0.1 C 86 % -1.96 C
2181 06-03-2011 04:18:05 0.1 C 85 % -2.11 C
2182 06-03-2011 04:30:05 0.1 C 83 % -2.44 C
2183 06-03-2011 04:42:05 -0.3 C 80 % -3.32 C
2184 06-03-2011 04:54:05 -0.4 C 78 % -3.76 C
2185 06-03-2011 05:06:05 -0.1 C 75 % -3.99 C
2186 06-03-2011 05:18:05 -1.6 C 74 % -5.62 C
2187 06-03-2011 05:30:05 -1.7 C 76 % -5.36 C
2188 06-03-2011 05:42:05 -2.1 C 77 % -5.58 C
2189 06-03-2011 05:54:05 -2.1 C 78 % -5.41 C
2190 06-03-2011 06:06:05 -2.8 C 79 % -5.93 C
2191 06-03-2011 06:18:05 -3 C 80 % -5.96 C
2192 06-03-2011 06:30:05 -2.8 C 81 % -5.6 C
2193 06-03-2011 06:42:05 -3 C 82 % -5.63 C
2194 06-03-2011 06:54:05 -2.5 C 83 % -4.98 C
2195 06-03-2011 07:06:05 -1.9 C 83 % -4.4 C
2196 06-03-2011 07:18:05 -1.6 C 81 % -4.43 C
2197 06-03-2011 07:30:06 -1.6 C 79 % -4.76 C
2198 06-03-2011 07:42:06 -2.3 C 78 % -5.61 C
2199 06-03-2011 07:54:06 -2.3 C 78 % -5.61 C
2200 06-03-2011 08:06:04 -1.5 C 79 % -4.66 C
Sensor: Nr:Datum:Temp:Feuchte:Taupunkt:
Aussen-T/F 2201 06-03-2011 08:18:03 -0.9 C 77 % -4.42 C
2202 06-03-2011 08:30:03 -0.2 C 74 % -4.26 C
2203 06-03-2011 08:42:04 0.2 C 71 % -4.42 C
2204 06-03-2011 08:54:02 0.7 C 67 % -4.71 C
2205 06-03-2011 09:06:02 1.1 C 63 % -5.14 C
2206 06-03-2011 09:18:02 1.1 C 61 % -5.56 C
2207 06-03-2011 09:30:02 0.8 C 61 % -5.85 C
2208 06-03-2011 09:42:02 1.4 C 59 % -5.72 C
2209 06-03-2011 09:54:01 1.8 C 53 % -6.74 C
2210 06-03-2011 10:06:02 2.1 C 51 % -6.96 C
2211 06-03-2011 10:18:01 2.6 C 49 % -7.02 C
2212 06-03-2011 10:30:01 2 C 49 % -7.57 C
2213 06-03-2011 10:42:01 1.7 C 53 % -6.83 C
2214 06-03-2011 10:54:01 2.3 C 49 % -7.29 C
2215 06-03-2011 11:06:02 2.7 C 47 % -7.46 C
2216 06-03-2011 11:18:01 3.1 C 45 % -7.66 C
2217 06-03-2011 11:30:01 4.3 C 42 % -7.46 C
2218 06-03-2011 11:42:01 4.6 C 41 % -7.49 C
2219 06-03-2011 11:54:01 4.1 C 40 % -8.26 C
2220 06-03-2011 12:06:01 4.6 C 40 % -7.81 C
2221 06-03-2011 12:18:02 3.8 C 41 % -8.22 C
2222 06-03-2011 12:30:02 5 C 40 % -7.45 C
2223 06-03-2011 12:42:01 7.2 C 33 % -7.97 C
2224 06-03-2011 12:54:02 5.7 C 34 % -8.91 C
2225 06-03-2011 13:06:01 7.8 C 30 % -8.66 C
Sensor: Nr:Datum:Temp:Feuchte:Taupunkt:
Aussen-T/F 2226 06-03-2011 13:18:01 5.6 C 32 % -9.77 C
2227 06-03-2011 13:30:01 5.5 C 35 % -8.72 C
2228 06-03-2011 13:42:01 4.9 C 37 % -8.54 C
2229 06-03-2011 13:54:02 5.8 C 34 % -8.82 C
2230 06-03-2011 14:06:02 5.8 C 33 % -9.2 C
2231 06-03-2011 14:18:02 6.9 C 31 % -9.03 C
2232 06-03-2011 14:30:02 6.5 C 30 % -9.8 C
2233 06-03-2011 14:42:01 7 C 28 % -10.23 C
2234 06-03-2011 14:54:02 7.1 C 30 % -9.27 C
2235 06-03-2011 15:06:01 8 C 28 % -9.37 C
2236 06-03-2011 15:18:01 8 C 28 % -9.37 C
2237 06-03-2011 15:30:01 9.2 C 25 % -9.77 C
2238 06-03-2011 15:42:02 8.9 C 21 % -12.2 C
2239 06-03-2011 15:54:02 11.4 C 20 % -10.73 C
2240 06-03-2011 16:06:02 12.6 C 20 % -9.73 C
2241 06-03-2011 16:18:02 12.6 C 20 % -9.73 C
2242 06-03-2011 16:30:02 13.2 C 20 % -9.24 C
2243 06-03-2011 16:42:02 12.3 C 20 % -9.98 C
2244 06-03-2011 16:54:02 12.6 C 20 % -9.73 C
2245 06-03-2011 17:06:02 11.1 C 20 % -10.98 C
2246 06-03-2011 17:18:02 10.5 C 20 % -11.48 C
2247 06-03-2011 17:30:02 8.6 C 25 % -10.28 C
2248 06-03-2011 17:42:02 7.9 C 33 % -7.35 C
2249 06-03-2011 17:54:01 6.2 C 37 % -7.38 C
2250 06-03-2011 18:06:01 4.3 C 42 % -7.46 C
Sensor: Nr:Datum:Temp:Feuchte:Taupunkt:
Aussen-T/F 2251 06-03-2011 18:18:02 2.5 C 50 % -6.85 C
2252 06-03-2011 18:30:02 1.5 C 55 % -6.54 C
2253 06-03-2011 18:42:01 1.2 C 56 % -6.59 C
2254 06-03-2011 18:54:02 0.6 C 59 % -6.47 C
2255 06-03-2011 19:06:02 0.4 C 60 % -6.44 C
2256 06-03-2011 19:18:03 0.2 C 62 % -6.2 C
2257 06-03-2011 19:30:03 0 C 63 % -6.18 C
2258 06-03-2011 19:42:02 -0.2 C 63 % -6.38 C
2259 06-03-2011 19:54:02 -0.2 C 63 % -6.38 C
2260 06-03-2011 20:06:02 -0.2 C 63 % -6.38 C
2261 06-03-2011 20:18:02 -0.5 C 65 % -6.26 C
2262 06-03-2011 20:30:03 -0.5 C 65 % -6.26 C
2263 06-03-2011 20:42:02 -0.5 C 65 % -6.26 C
2264 06-03-2011 20:54:02 -0.9 C 65 % -6.64 C
2265 06-03-2011 21:06:01 -0.9 C 66 % -6.44 C
2266 06-03-2011 21:18:02 -1 C 65 % -6.74 C
2267 06-03-2011 21:30:02 -1.1 C 66 % -6.63 C
2268 06-03-2011 21:42:02 -1.3 C 66 % -6.82 C
2269 06-03-2011 21:55:03 -1.2 C 66 % -6.73 C
2270 06-03-2011 22:07:03 -1.3 C 65 % -7.02 C
2271 06-03-2011 22:19:03 -1.6 C 66 % -7.11 C
2272 06-03-2011 22:31:03 -1.6 C 67 % -6.91 C
2273 06-03-2011 22:43:03 -1.8 C 67 % -7.11 C
2274 06-03-2011 22:55:03 -1.7 C 67 % -7.01 C
2275 06-03-2011 23:07:03 -2.1 C 67 % -7.39 C
Sensor: Nr:Datum:Temp:Feuchte:Taupunkt:
Aussen-T/F 2276 06-03-2011 23:19:03 -2 C 66 % -7.49 C
2277 06-03-2011 23:31:03 -2.1 C 66 % -7.59 C
2278 06-03-2011 23:43:03 -2.2 C 65 % -7.88 C
2279 06-03-2011 23:55:03 -2.1 C 65 % -7.78 C
2280 07-03-2011 00:07:03 -2.2 C 66 % -7.68 C
2281 07-03-2011 00:19:03 -2.3 C 66 % -7.78 C
2282 07-03-2011 00:31:03 -2.3 C 66 % -7.78 C
2283 07-03-2011 00:43:03 -2.5 C 66 % -7.97 C
2284 07-03-2011 00:55:03 -2.8 C 66 % -8.26 C
2285 07-03-2011 01:07:03 -2.9 C 68 % -7.97 C
2286 07-03-2011 01:19:03 -2.7 C 69 % -7.59 C
2287 07-03-2011 01:31:03 -3.1 C 68 % -8.16 C
2288 07-03-2011 01:43:03 -3.3 C 69 % -8.16 C
2289 07-03-2011 01:55:03 -3.1 C 69 % -7.97 C
2290 07-03-2011 02:07:04 -3.4 C 69 % -8.26 C
2291 07-03-2011 02:19:04 -3.6 C 69 % -8.45 C
2292 07-03-2011 02:31:04 -3.6 C 70 % -8.27 C
2293 07-03-2011 02:43:04 -3.7 C 70 % -8.36 C
2294 07-03-2011 02:55:04 -3.8 C 70 % -8.46 C
2295 07-03-2011 03:07:04 -4.1 C 71 % -8.57 C
2296 07-03-2011 03:19:04 -4.1 C 71 % -8.57 C
2297 07-03-2011 03:31:04 -4.1 C 71 % -8.57 C
2298 07-03-2011 03:43:04 -4.3 C 71 % -8.76 C
2299 07-03-2011 03:55:04 -4.3 C 71 % -8.76 C
2300 07-03-2011 04:07:04 -4.4 C 71 % -8.85 C
Sensor: Nr:Datum:Temp:Feuchte:Taupunkt:
Aussen-T/F 2301 07-03-2011 04:19:04 -4.4 C 72 % -8.68 C
2302 07-03-2011 04:31:04 -4.6 C 72 % -8.87 C
2303 07-03-2011 04:43:04 -4.8 C 72 % -9.06 C
2304 07-03-2011 04:55:04 -5 C 72 % -9.25 C
2305 07-03-2011 05:07:04 -4.8 C 72 % -9.06 C
2306 07-03-2011 05:19:04 -4.5 C 72 % -8.77 C
2307 07-03-2011 05:31:04 -4.6 C 72 % -8.87 C
2308 07-03-2011 05:43:04 -4.7 C 71 % -9.14 C
2309 07-03-2011 05:55:04 -4.6 C 71 % -9.05 C
2310 07-03-2011 06:07:05 -4.6 C 70 % -9.23 C
2311 07-03-2011 06:19:05 -4.6 C 71 % -9.05 C
2312 07-03-2011 06:31:05 -4.7 C 70 % -9.32 C
2313 07-03-2011 06:43:05 -4.5 C 69 % -9.31 C
2314 07-03-2011 06:55:05 -4.6 C 68 % -9.6 C
2315 07-03-2011 07:07:05 -4.7 C 69 % -9.51 C
2316 07-03-2011 07:19:05 -4.6 C 68 % -9.6 C
2317 07-03-2011 07:31:05 -4.7 C 68 % -9.69 C
2318 07-03-2011 07:43:05 -4.7 C 68 % -9.69 C
2319 07-03-2011 07:55:05 -4.4 C 68 % -9.4 C
2320 07-03-2011 08:07:05 -3.9 C 65 % -9.5 C
2321 07-03-2011 08:19:05 -4 C 63 % -9.99 C
2322 07-03-2011 08:31:05 -4 C 64 % -9.79 C
2323 07-03-2011 08:43:05 -3.5 C 62 % -9.72 C
2324 07-03-2011 08:55:05 -3.4 C 61 % -9.83 C
2325 07-03-2011 09:07:04 -3.3 C 61 % -9.73 C
Sensor: Nr:Datum:Temp:Feuchte:Taupunkt:
Aussen-T/F 2326 07-03-2011 09:19:03 -3.5 C 60 % -10.13 C
2327 07-03-2011 09:31:03 -2.9 C 61 % -9.36 C
2328 07-03-2011 09:43:03 -2.6 C 60 % -9.28 C
2329 07-03-2011 09:55:01 -2.3 C 59 % -9.21 C
2330 07-03-2011 10:07:02 -1.1 C 57 % -8.52 C
2331 07-03-2011 10:19:01 0.1 C 49 % -9.32 C
2332 07-03-2011 10:31:02 1.3 C 39 % -11.1 C
2333 07-03-2011 10:43:02 2.1 C 30 % -13.63 C
2334 07-03-2011 10:55:01 2.8 C 26 % -14.76 C
2335 07-03-2011 11:07:02 3.6 C 20 % -17.22 C
2336 07-03-2011 11:19:01 4 C 20 % -16.89 C
2337 07-03-2011 11:31:01 4.3 C 20 % -16.64 C
2338 07-03-2011 11:43:01 4.9 C 20 % -16.14 C
2339 07-03-2011 11:55:01 4.6 C 20 % -16.39 C
2340 07-03-2011 12:07:02 5.1 C 20 % -15.97 C
2341 07-03-2011 12:19:02 6 C 20 % -15.22 C
2342 07-03-2011 12:31:01 8.3 C 20 % -13.31 C
2343 07-03-2011 12:43:01 9.6 C 20 % -12.22 C
2344 07-03-2011 12:55:02 9.7 C 20 % -12.14 C
2345 07-03-2011 13:07:01 9.8 C 20 % -12.06 C
2346 07-03-2011 13:19:01 9.3 C 20 % -12.47 C
2347 07-03-2011 13:31:01 8 C 20 % -13.56 C
2348 07-03-2011 13:43:01 7.1 C 20 % -14.3 C
2349 07-03-2011 13:55:02 7.3 C 20 % -14.14 C
2350 07-03-2011 14:07:02 7.5 C 20 % -13.97 C
Sensor: Nr:Datum:Temp:Feuchte:Taupunkt:
Aussen-T/F 2351 07-03-2011 14:19:02 8.7 C 20 % -12.97 C
2352 07-03-2011 14:31:02 8.4 C 20 % -13.22 C
2353 07-03-2011 14:43:02 8.7 C 20 % -12.97 C
2354 07-03-2011 14:55:02 8.5 C 20 % -13.14 C
2355 07-03-2011 15:07:01 9.5 C 20 % -12.31 C
2356 07-03-2011 15:19:02 10.5 C 20 % -11.48 C
2357 07-03-2011 15:31:01 10.2 C 20 % -11.73 C
2358 07-03-2011 15:43:01 11.1 C 20 % -10.98 C
2359 07-03-2011 15:55:02 13.7 C 20 % -8.82 C
2360 07-03-2011 16:07:02 13.3 C 20 % -9.15 C
2361 07-03-2011 16:19:02 14.6 C 20 % -8.08 C
2362 07-03-2011 16:31:02 14.3 C 20 % -8.33 C
2363 07-03-2011 16:43:02 12 C 20 % -10.23 C
2364 07-03-2011 16:55:02 14 C 20 % -8.57 C
2365 07-03-2011 17:07:01 12.9 C 20 % -9.49 C
2366 07-03-2011 17:19:01 11.8 C 20 % -10.4 C
2367 07-03-2011 17:31:02 10.4 C 20 % -11.56 C
2368 07-03-2011 17:43:02 9.6 C 20 % -12.22 C
2369 07-03-2011 17:55:02 7.4 C 20 % -14.05 C
2370 07-03-2011 18:07:02 5.6 C 20 % -15.55 C
2371 07-03-2011 18:19:02 2.7 C 32 % -12.31 C
2372 07-03-2011 18:31:02 1.9 C 37 % -11.22 C
2373 07-03-2011 18:43:02 1.3 C 41 % -10.47 C
2374 07-03-2011 18:55:02 0.7 C 41 % -11.02 C
2375 07-03-2011 19:07:02 0.9 C 43 % -10.24 C
Sensor: Nr:Datum:Temp:Feuchte:Taupunkt:
Aussen-T/F 2376 07-03-2011 19:19:02 0.6 C 43 % -10.51 C
2377 07-03-2011 19:31:02 0.3 C 45 % -10.21 C
2378 07-03-2011 19:43:02 0.2 C 43 % -10.87 C
2379 07-03-2011 19:55:02 0 C 45 % -10.49 C
2380 07-03-2011 20:07:02 -0.5 C 46 % -10.69 C
2381 07-03-2011 20:19:01 -0.5 C 46 % -10.69 C
2382 07-03-2011 20:31:02 -0.4 C 45 % -10.87 C
2383 07-03-2011 20:43:02 -0.5 C 45 % -10.96 C
2384 07-03-2011 20:55:01 -0.3 C 47 % -10.23 C
2385 07-03-2011 21:07:02 -0.2 C 45 % -10.69 C
2386 07-03-2011 21:20:03 -0.4 C 46 % -10.59 C
2387 07-03-2011 21:32:03 -0.4 C 45 % -10.87 C
2388 07-03-2011 21:44:03 -0.5 C 46 % -10.69 C
2389 07-03-2011 21:56:03 -0.4 C 45 % -10.87 C
2390 07-03-2011 22:08:03 -1.2 C 47 % -11.06 C
2391 07-03-2011 22:20:03 -1.2 C 48 % -10.79 C
2392 07-03-2011 22:32:03 -1.4 C 48 % -10.98 C
2393 07-03-2011 22:44:03 -1.3 C 48 % -10.89 C
2394 07-03-2011 22:56:03 -1.3 C 48 % -10.89 C
2395 07-03-2011 23:08:03 -1.6 C 50 % -10.65 C
2396 07-03-2011 23:20:03 -1.2 C 47 % -11.06 C
2397 07-03-2011 23:32:03 -1.8 C 50 % -10.84 C
2398 07-03-2011 23:44:03 -2.2 C 50 % -11.21 C
2399 07-03-2011 23:56:03 -1.9 C 52 % -10.44 C
2400 08-03-2011 00:08:03 -2.7 C 52 % -11.18 C
Sensor: Nr:Datum:Temp:Feuchte:Taupunkt:
Aussen-T/F 2401 08-03-2011 00:20:03 -3.1 C 55 % -10.85 C
2402 08-03-2011 00:32:04 -3.4 C 57 % -10.68 C
2403 08-03-2011 00:44:04 -3.7 C 55 % -11.41 C
2404 08-03-2011 00:56:04 -4.2 C 55 % -11.88 C
2405 08-03-2011 01:08:04 -4.6 C 56 % -12.03 C
2406 08-03-2011 01:20:04 -4.4 C 58 % -11.41 C
2407 08-03-2011 01:32:04 -4.1 C 61 % -10.49 C
2408 08-03-2011 01:44:04 -4.2 C 60 % -10.79 C
2409 08-03-2011 01:56:04 -4.7 C 60 % -11.27 C
2410 08-03-2011 02:08:04 -4.8 C 58 % -11.78 C
2411 08-03-2011 02:20:04 -4.8 C 59 % -11.57 C
2412 08-03-2011 02:32:04 -5.1 C 59 % -11.85 C
2413 08-03-2011 02:44:04 -5.2 C 60 % -11.74 C
2414 08-03-2011 02:56:04 -5.3 C 60 % -11.83 C
2415 08-03-2011 03:08:04 -5.1 C 61 % -11.44 C
2416 08-03-2011 03:20:04 -5.8 C 62 % -11.9 C
2417 08-03-2011 03:32:04 -6.1 C 63 % -11.99 C
2418 08-03-2011 03:44:04 -6.3 C 63 % -12.18 C
2419 08-03-2011 03:56:04 -6.2 C 65 % -11.69 C
2420 08-03-2011 04:08:04 -6.3 C 66 % -11.6 C
2421 08-03-2011 04:20:04 -6.3 C 67 % -11.41 C
2422 08-03-2011 04:32:05 -6.3 C 67 % -11.41 C
2423 08-03-2011 04:44:05 -6.2 C 67 % -11.31 C
2424 08-03-2011 04:56:05 -6.1 C 66 % -11.41 C
2425 08-03-2011 05:08:05 -6 C 63 % -11.89 C
Sensor: Nr:Datum:Temp:Feuchte:Taupunkt:
Aussen-T/F 2426 08-03-2011 05:20:05 -5.2 C 63 % -11.13 C
2427 08-03-2011 05:32:05 -6 C 63 % -11.89 C
2428 08-03-2011 05:44:05 -6.3 C 64 % -11.98 C
2429 08-03-2011 05:56:05 -5.3 C 64 % -11.03 C
2430 08-03-2011 06:08:05 -6 C 62 % -12.09 C
2431 08-03-2011 06:20:05 -6 C 63 % -11.89 C
2432 08-03-2011 06:32:05 -6.3 C 64 % -11.98 C
2433 08-03-2011 06:44:05 -6.7 C 65 % -12.17 C
2434 08-03-2011 06:56:05 -6.8 C 66 % -12.08 C
2435 08-03-2011 07:08:05 -6.9 C 66 % -12.17 C
2436 08-03-2011 07:20:05 -6 C 67 % -11.12 C
2437 08-03-2011 07:32:02 -6.1 C 66 % -11.41 C
2438 08-03-2011 07:44:02 -5.5 C 67 % -10.64 C
2439 08-03-2011 07:56:02 -5.4 C 65 % -10.93 C
2440 08-03-2011 08:08:02 -5.5 C 65 % -11.02 C
2441 08-03-2011 08:20:02 -5.3 C 65 % -10.83 C
2442 08-03-2011 08:32:02 -5.2 C 65 % -10.74 C
2443 08-03-2011 08:44:02 -4.8 C 65 % -10.36 C
2444 08-03-2011 08:56:02 -4.6 C 65 % -10.17 C
2445 08-03-2011 09:08:01 -4.4 C 62 % -10.57 C
2446 08-03-2011 09:20:01 -4.1 C 61 % -10.49 C
2447 08-03-2011 09:32:02 -3.7 C 63 % -9.71 C
2448 08-03-2011 09:44:02 -3.1 C 63 % -9.14 C
2449 08-03-2011 09:56:02 -2.5 C 61 % -8.98 C
2450 08-03-2011 10:08:02 -1.7 C 57 % -9.09 C
Sensor: Nr:Datum:Temp:Feuchte:Taupunkt:
Aussen-T/F 2451 08-03-2011 10:20:02 -0.2 C 55 % -8.14 C
2452 08-03-2011 10:32:01 0.3 C 49 % -9.14 C
2453 08-03-2011 10:44:01 0.9 C 47 % -9.11 C
2454 08-03-2011 10:56:01 2.4 C 40 % -9.79 C
2455 08-03-2011 11:08:01 3.2 C 42 % -8.45 C
2456 08-03-2011 11:20:01 3.2 C 39 % -9.39 C
2457 08-03-2011 11:32:01 4.1 C 34 % -10.32 C
2458 08-03-2011 11:44:01 6.4 C 31 % -9.47 C
2459 08-03-2011 11:56:02 5.6 C 32 % -9.77 C
2460 08-03-2011 12:08:02 6.1 C 27 % -11.46 C
2461 08-03-2011 12:20:01 7.1 C 28 % -10.15 C
2462 08-03-2011 12:32:01 9.2 C 20 % -12.56 C
2463 08-03-2011 12:44:01 10.8 C 20 % -11.23 C
2464 08-03-2011 12:56:01 12.2 C 20 % -10.07 C
2465 08-03-2011 13:08:02 11.1 C 20 % -10.98 C
2466 08-03-2011 13:20:01 11.4 C 20 % -10.73 C
2467 08-03-2011 13:32:01 11.1 C 20 % -10.98 C
2468 08-03-2011 13:44:01 10 C 20 % -11.89 C
2469 08-03-2011 13:56:01 10.5 C 21 % -10.87 C
2470 08-03-2011 14:08:01 11.8 C 23 % -8.63 C
2471 08-03-2011 14:20:02 11.7 C 20 % -10.48 C
2472 08-03-2011 14:32:01 12.3 C 20 % -9.98 C
2473 08-03-2011 14:44:01 12.9 C 20 % -9.49 C
2474 08-03-2011 14:56:02 12.7 C 25 % -6.79 C
2475 08-03-2011 15:08:02 12.9 C 23 % -7.7 C
Sensor: Nr:Datum:Temp:Feuchte:Taupunkt:
Aussen-T/F 2476 08-03-2011 15:20:02 13.9 C 21 % -8.03 C
2477 08-03-2011 15:32:02 13.6 C 20 % -8.91 C
2478 08-03-2011 15:44:02 14.2 C 20 % -8.41 C
2479 08-03-2011 15:56:02 15.2 C 20 % -7.58 C
2480 08-03-2011 16:08:01 15.7 C 20 % -7.17 C
2481 08-03-2011 16:20:02 14.6 C 20 % -8.08 C
2482 08-03-2011 16:32:02 14.9 C 20 % -7.83 C
2483 08-03-2011 16:44:02 15.2 C 20 % -7.58 C
2484 08-03-2011 16:56:02 14.8 C 20 % -7.91 C
2485 08-03-2011 17:08:02 13.9 C 24 % -6.31 C
2486 08-03-2011 17:20:02 13.1 C 25 % -6.45 C
2487 08-03-2011 17:32:02 12.2 C 28 % -5.75 C
2488 08-03-2011 17:44:02 10.3 C 34 % -4.85 C
2489 08-03-2011 17:56:01 10.3 C 34 % -4.85 C
2490 08-03-2011 18:08:02 10.3 C 34 % -4.85 C
2491 08-03-2011 18:20:01 6.9 C 46 % -3.9 C
2492 08-03-2011 18:32:02 6.2 C 49 % -3.7 C
2493 08-03-2011 18:44:02 6.2 C 49 % -3.7 C
2494 08-03-2011 18:56:02 6.2 C 49 % -3.7 C
2495 08-03-2011 19:08:02 6.2 C 49 % -3.7 C
2496 08-03-2011 19:20:01 6.2 C 49 % -3.7 C
2497 08-03-2011 19:32:02 6.2 C 49 % -3.7 C
2498 08-03-2011 19:44:02 4.6 C 62 % -2.04 C
2499 08-03-2011 19:56:01 4.2 C 64 % -1.99 C
2500 08-03-2011 20:08:02 3.8 C 67 % -1.75 C
Sensor: Nr:Datum:Temp:Feuchte:Taupunkt:
Aussen-T/F 2501 08-03-2011 20:20:02 3.5 C 69 % -1.64 C
2502 08-03-2011 20:32:02 3.5 C 71 % -1.25 C
2503 08-03-2011 20:44:02 2.9 C 73 % -1.45 C
2504 08-03-2011 20:56:02 2.8 C 74 % -1.36 C
2505 08-03-2011 21:08:01 2.2 C 73 % -2.13 C
2506 08-03-2011 21:21:04 1.8 C 75 % -2.15 C
2507 08-03-2011 21:33:04 1.9 C 77 % -1.69 C
2508 08-03-2011 21:45:04 1.8 C 79 % -1.44 C
2509 08-03-2011 21:57:04 1.8 C 80 % -1.27 C
2510 08-03-2011 22:09:04 1.3 C 80 % -1.76 C
2511 08-03-2011 22:21:04 1.6 C 81 % -1.3 C
2512 08-03-2011 22:33:04 1.6 C 82 % -1.13 C
2513 08-03-2011 22:45:05 1.3 C 82 % -1.43 C
2514 08-03-2011 22:57:05 1 C 82 % -1.72 C
2515 08-03-2011 23:09:05 1.1 C 83 % -1.46 C
2516 08-03-2011 23:21:05 1 C 83 % -1.55 C
2517 08-03-2011 23:33:05 1.1 C 84 % -1.29 C
2518 08-03-2011 23:45:05 0.5 C 84 % -1.88 C
2519 08-03-2011 23:57:05 0.2 C 84 % -2.18 C
2520 09-03-2011 00:09:05 0 C 85 % -2.21 C
2521 09-03-2011 00:21:05 -0.4 C 85 % -2.61 C
2522 09-03-2011 00:33:05 -0.6 C 85 % -2.8 C
2523 09-03-2011 00:45:05 -0.7 C 85 % -2.9 C
2524 09-03-2011 00:57:05 -0.6 C 86 % -2.65 C
2525 09-03-2011 01:09:05 -0.5 C 87 % -2.39 C
Sensor: Nr:Datum:Temp:Feuchte:Taupunkt:
Aussen-T/F 2526 09-03-2011 01:21:05 -0.4 C 87 % -2.29 C
2527 09-03-2011 01:33:05 -0.7 C 87 % -2.59 C
2528 09-03-2011 01:45:05 -0.9 C 87 % -2.79 C
2529 09-03-2011 01:57:05 -0.9 C 87 % -2.79 C
2530 09-03-2011 02:09:05 0 C 88 % -1.74 C
2531 09-03-2011 02:21:05 1.6 C 89 % -0.01 C
2532 09-03-2011 02:33:05 0.4 C 89 % -1.2 C
2533 09-03-2011 02:45:06 0.2 C 89 % -1.39 C
2534 09-03-2011 02:57:06 1.5 C 89 % -0.11 C
2535 09-03-2011 03:09:06 2.3 C 89 % 0.68 C
2536 09-03-2011 03:21:06 2.3 C 88 % 0.52 C
2537 09-03-2011 03:33:06 2.9 C 86 % 0.8 C
2538 09-03-2011 03:45:06 2.7 C 83 % 0.11 C
2539 09-03-2011 03:57:06 3.7 C 79 % 0.4 C
2540 09-03-2011 04:09:06 3.5 C 74 % -0.69 C
2541 09-03-2011 04:21:06 3.1 C 73 % -1.26 C
2542 09-03-2011 04:33:06 3.1 C 74 % -1.07 C
2543 09-03-2011 04:45:06 3.6 C 74 % -0.59 C
2544 09-03-2011 04:57:06 3 C 74 % -1.17 C
2545 09-03-2011 05:09:06 2.6 C 76 % -1.19 C
2546 09-03-2011 05:21:06 3.1 C 75 % -0.89 C
2547 09-03-2011 05:33:06 2.5 C 75 % -1.47 C
2548 09-03-2011 05:45:06 2.4 C 77 % -1.21 C
2549 09-03-2011 05:57:06 1.6 C 79 % -1.64 C
2550 09-03-2011 06:09:06 2.2 C 81 % -0.71 C
Sensor: Nr:Datum:Temp:Feuchte:Taupunkt:
Aussen-T/F 2551 09-03-2011 06:21:06 2.1 C 79 % -1.15 C
2552 09-03-2011 06:33:06 2.6 C 78 % -0.84 C
2553 09-03-2011 06:45:06 2.7 C 76 % -1.1 C
2554 09-03-2011 06:57:07 2.2 C 77 % -1.4 C
2555 09-03-2011 07:09:07 2.5 C 77 % -1.11 C
2556 09-03-2011 07:21:03 2.8 C 77 % -0.82 C
2557 09-03-2011 07:33:03 3 C 74 % -1.17 C
2558 09-03-2011 07:45:01 3.3 C 73 % -1.06 C
2559 09-03-2011 07:57:01 3.4 C 72 % -1.16 C
2560 09-03-2011 08:09:01 2.7 C 74 % -1.46 C
2561 09-03-2011 08:21:01 2.8 C 74 % -1.36 C
2562 09-03-2011 08:33:02 3.6 C 73 % -0.78 C
2563 09-03-2011 08:45:01 4.5 C 69 % -0.68 C
2564 09-03-2011 08:57:01 5.2 C 64 % -1.04 C
2565 09-03-2011 09:09:02 6.4 C 60 % -0.78 C
2566 09-03-2011 09:21:01 7.8 C 53 % -1.17 C
2567 09-03-2011 09:33:02 8.2 C 49 % -1.86 C
2568 09-03-2011 09:45:01 8.5 C 48 % -1.86 C
2569 09-03-2011 09:57:01 8.9 C 47 % -1.78 C
2570 09-03-2011 10:09:02 9 C 46 % -1.98 C
2571 09-03-2011 10:21:02 9.2 C 46 % -1.8 C
2572 09-03-2011 10:33:01 9 C 46 % -1.98 C
2573 09-03-2011 10:45:02 9.3 C 47 % -1.42 C
2574 09-03-2011 10:57:02 9.5 C 47 % -1.23 C
2575 09-03-2011 11:09:01 9.6 C 49 % -0.57 C
Sensor: Nr:Datum:Temp:Feuchte:Taupunkt:
Aussen-T/F 2576 09-03-2011 11:21:02 9.9 C 49 % -0.3 C
2577 09-03-2011 11:33:01 10.4 C 48 % -0.12 C
2578 09-03-2011 11:45:02 10.2 C 47 % -0.59 C
2579 09-03-2011 11:57:02 10 C 48 % -0.49 C
2580 09-03-2011 12:09:02 9.8 C 49 % -0.39 C
2581 09-03-2011 12:21:02 9.8 C 49 % -0.39 C
2582 09-03-2011 12:33:02 9.8 C 50 % -0.11 C
2583 09-03-2011 12:45:01 10.1 C 49 % -0.11 C
2584 09-03-2011 12:57:01 10.4 C 49 % 0.16 C
2585 09-03-2011 13:09:02 11.2 C 46 % 0.02 C
2586 09-03-2011 13:21:01 11 C 46 % -0.16 C
2587 09-03-2011 13:33:02 11.7 C 45 % 0.18 C
2588 09-03-2011 13:45:02 11.4 C 41 % -1.37 C
2589 09-03-2011 13:57:02 11.6 C 40 % -1.52 C
2590 09-03-2011 14:09:02 12.1 C 39 % -1.42 C
2591 09-03-2011 14:21:02 11.8 C 40 % -1.34 C
2592 09-03-2011 14:33:02 11.6 C 39 % -1.86 C
2593 09-03-2011 14:45:02 11.8 C 38 % -2.04 C
2594 09-03-2011 14:57:02 11.7 C 36 % -2.85 C
2595 09-03-2011 15:09:02 11.6 C 36 % -2.94 C
2596 09-03-2011 15:21:02 11.2 C 36 % -3.3 C
2597 09-03-2011 15:33:02 11.3 C 36 % -3.21 C
2598 09-03-2011 15:45:02 11.3 C 37 % -2.84 C
2599 09-03-2011 15:57:02 11.2 C 37 % -2.93 C
2600 09-03-2011 16:09:02 11.1 C 38 % -2.66 C
Sensor: Nr:Datum:Temp:Feuchte:Taupunkt:
Aussen-T/F 2601 09-03-2011 16:21:02 10.9 C 39 % -2.49 C
2602 09-03-2011 16:33:02 10.7 C 39 % -2.67 C
2603 09-03-2011 16:45:02 10.7 C 38 % -3.02 C
2604 09-03-2011 16:57:02 10.6 C 38 % -3.11 C
2605 09-03-2011 17:09:02 10.4 C 42 % -1.94 C
2606 09-03-2011 17:21:02 10.3 C 44 % -1.4 C
2607 09-03-2011 17:33:02 10.2 C 46 % -0.89 C
2608 09-03-2011 17:45:02 10 C 47 % -0.78 C
2609 09-03-2011 17:57:02 9.7 C 50 % -0.21 C
2610 09-03-2011 18:09:01 9.7 C 50 % -0.21 C
2611 09-03-2011 18:21:02 9.6 C 50 % -0.3 C
2612 09-03-2011 18:33:01 9.3 C 52 % -0.04 C
2613 09-03-2011 18:45:01 8.8 C 54 % 0.02 C
2614 09-03-2011 18:57:02 9 C 54 % 0.2 C
2615 09-03-2011 19:09:01 8.9 C 55 % 0.36 C
2616 09-03-2011 19:21:01 9.3 C 53 % 0.23 C
2617 09-03-2011 19:33:02 9 C 53 % -0.05 C
2618 09-03-2011 19:45:02 8.4 C 57 % 0.39 C
2619 09-03-2011 19:57:02 8.2 C 58 % 0.44 C
2620 09-03-2011 20:09:02 8.2 C 59 % 0.68 C
2621 09-03-2011 20:21:01 8.2 C 58 % 0.44 C
2622 09-03-2011 20:33:02 8 C 59 % 0.49 C
2623 09-03-2011 20:45:02 8.1 C 58 % 0.35 C
2624 09-03-2011 20:57:02 7.9 C 60 % 0.63 C
2625 09-03-2011 21:09:02 8 C 58 % 0.25 C
Sensor: Nr:Datum:Temp:Feuchte:Taupunkt:
Aussen-T/F 2626 09-03-2011 21:21:02 7.9 C 59 % 0.4 C
2627 09-03-2011 21:33:02 7.6 C 61 % 0.57 C
2628 09-03-2011 21:46:04 7.2 C 62 % 0.42 C
2629 09-03-2011 21:58:04 7.6 C 62 % 0.8 C
2630 09-03-2011 22:10:04 7.6 C 62 % 0.8 C
2631 09-03-2011 22:22:04 7.1 C 63 % 0.55 C
2632 09-03-2011 22:34:04 6.5 C 67 % 0.83 C
2633 09-03-2011 22:46:04 6 C 69 % 0.76 C
2634 09-03-2011 22:58:04 6 C 71 % 1.15 C
2635 09-03-2011 23:10:04 5.1 C 73 % 0.67 C
2636 09-03-2011 23:22:04 4.9 C 76 % 1.03 C
2637 09-03-2011 23:34:04 5 C 75 % 0.95 C
2638 09-03-2011 23:46:04 6 C 72 % 1.35 C
2639 09-03-2011 23:58:04 6 C 68 % 0.55 C
2640 10-03-2011 00:10:04 5.5 C 69 % 0.28 C
2641 10-03-2011 00:22:04 5.9 C 69 % 0.66 C
2642 10-03-2011 00:34:04 6.1 C 67 % 0.44 C
2643 10-03-2011 00:46:04 5.4 C 68 % -0.02 C
2644 10-03-2011 00:58:04 4.9 C 71 % 0.09 C
2645 10-03-2011 01:10:05 5.2 C 71 % 0.38 C
2646 10-03-2011 01:22:05 5.4 C 70 % 0.38 C
2647 10-03-2011 01:34:05 5.2 C 70 % 0.19 C
2648 10-03-2011 01:46:05 5.4 C 69 % 0.18 C
2649 10-03-2011 01:58:05 5.2 C 70 % 0.19 C
2650 10-03-2011 02:10:05 5.3 C 70 % 0.28 C
Sensor: Nr:Datum:Temp:Feuchte:Taupunkt:
Aussen-T/F 2651 10-03-2011 02:22:05 4.9 C 71 % 0.09 C
2652 10-03-2011 02:34:05 4 C 73 % -0.39 C
2653 10-03-2011 02:46:05 3.8 C 77 % 0.15 C
2654 10-03-2011 02:58:05 4.1 C 77 % 0.44 C
2655 10-03-2011 03:10:05 4.7 C 73 % 0.28 C
2656 10-03-2011 03:22:05 5.4 C 66 % -0.43 C
2657 10-03-2011 03:34:05 5.7 C 64 % -0.56 C
2658 10-03-2011 03:46:05 5.5 C 65 % -0.54 C
2659 10-03-2011 03:58:05 4.5 C 68 % -0.88 C
2660 10-03-2011 04:10:05 4.5 C 69 % -0.68 C
2661 10-03-2011 04:22:05 4 C 71 % -0.77 C
2662 10-03-2011 04:34:05 5.2 C 70 % 0.19 C
2663 10-03-2011 04:46:05 4.9 C 71 % 0.09 C
2664 10-03-2011 04:58:05 4.5 C 69 % -0.68 C
2665 10-03-2011 05:10:05 5 C 68 % -0.4 C
2666 10-03-2011 05:22:06 5.1 C 67 % -0.51 C
2667 10-03-2011 05:34:06 4.6 C 69 % -0.58 C
2668 10-03-2011 05:46:06 5 C 68 % -0.4 C
2669 10-03-2011 05:58:06 5 C 68 % -0.4 C
2670 10-03-2011 06:10:06 4.7 C 72 % 0.09 C
2671 10-03-2011 06:22:06 4.6 C 72 % 0 C
2672 10-03-2011 06:34:06 4.6 C 71 % -0.19 C
2673 10-03-2011 06:46:06 4.5 C 71 % -0.29 C
2674 10-03-2011 06:58:06 4.6 C 71 % -0.19 C
2675 10-03-2011 07:10:06 4.6 C 71 % -0.19 C
Sensor: Nr:Datum:Temp:Feuchte:Taupunkt:
Aussen-T/F 2676 10-03-2011 07:22:03 4.4 C 72 % -0.19 C
2677 10-03-2011 07:34:04 4.6 C 72 % 0 C
2678 10-03-2011 07:46:02 4.5 C 71 % -0.29 C
2679 10-03-2011 07:58:02 5.2 C 67 % -0.41 C
2680 10-03-2011 08:10:02 5.4 C 66 % -0.43 C
2681 10-03-2011 08:22:02 5.7 C 65 % -0.35 C
2682 10-03-2011 08:34:02 5.9 C 64 % -0.38 C
2683 10-03-2011 08:46:01 6.1 C 63 % -0.4 C
2684 10-03-2011 08:58:01 6.3 C 61 % -0.65 C
2685 10-03-2011 09:10:02 6.7 C 60 % -0.5 C
2686 10-03-2011 09:22:01 6.8 C 58 % -0.87 C
2687 10-03-2011 09:34:02 7 C 57 % -0.92 C
2688 10-03-2011 09:46:02 7 C 56 % -1.16 C
2689 10-03-2011 09:58:02 7.2 C 56 % -0.98 C
2690 10-03-2011 10:10:02 7.6 C 54 % -1.1 C
2691 10-03-2011 10:22:01 7.8 C 52 % -1.43 C
2692 10-03-2011 10:34:02 8.1 C 52 % -1.15 C
2693 10-03-2011 10:46:02 8.2 C 51 % -1.32 C
2694 10-03-2011 10:58:02 8.6 C 50 % -1.22 C
2695 10-03-2011 11:10:02 8.4 C 50 % -1.4 C
2696 10-03-2011 11:22:01 8.5 C 50 % -1.31 C
2697 10-03-2011 11:34:02 9 C 49 % -1.13 C
2698 10-03-2011 11:46:01 9.2 C 47 % -1.51 C
2699 10-03-2011 11:58:01 9.5 C 47 % -1.23 C
2700 10-03-2011 12:10:02 9.3 C 46 % -1.71 C
Sensor: Nr:Datum:Temp:Feuchte:Taupunkt:
Aussen-T/F 2701 10-03-2011 12:22:02 10 C 45 % -1.37 C
2702 10-03-2011 12:34:01 9.3 C 45 % -2.01 C
2703 10-03-2011 12:46:02 9.8 C 46 % -1.25 C
2704 10-03-2011 12:58:02 10 C 45 % -1.37 C
2705 10-03-2011 13:10:01 9.8 C 42 % -2.48 C
2706 10-03-2011 13:22:02 9.8 C 42 % -2.48 C
2707 10-03-2011 13:34:01 9.9 C 42 % -2.39 C
2708 10-03-2011 13:46:02 9.7 C 41 % -2.9 C
2709 10-03-2011 13:58:03 10.3 C 41 % -2.36 C
2710 10-03-2011 14:10:02 9.9 C 43 % -2.08 C
2711 10-03-2011 14:22:02 9 C 45 % -2.28 C
2712 10-03-2011 14:34:02 9.1 C 45 % -2.19 C
2713 10-03-2011 14:46:02 9.1 C 45 % -2.19 C
2714 10-03-2011 14:58:02 9 C 46 % -1.98 C
2715 10-03-2011 15:10:01 8.6 C 47 % -2.06 C
2716 10-03-2011 15:22:02 8.5 C 48 % -1.86 C
2717 10-03-2011 15:34:02 8.5 C 48 % -1.86 C
2718 10-03-2011 15:46:02 8.5 C 47 % -2.15 C
2719 10-03-2011 15:58:02 8.5 C 47 % -2.15 C
2720 10-03-2011 16:10:03 8.6 C 48 % -1.77 C
2721 10-03-2011 16:22:02 8.4 C 48 % -1.96 C
2722 10-03-2011 16:34:02 8.2 C 50 % -1.59 C
2723 10-03-2011 16:46:01 8.1 C 51 % -1.41 C
2724 10-03-2011 16:58:01 8.2 C 51 % -1.32 C
2725 10-03-2011 17:10:02 8.2 C 51 % -1.32 C
Sensor: Nr:Datum:Temp:Feuchte:Taupunkt:
Aussen-T/F 2726 10-03-2011 17:22:01 8.2 C 51 % -1.32 C
2727 10-03-2011 17:34:02 8.2 C 51 % -1.32 C
2728 10-03-2011 17:46:01 8.1 C 52 % -1.15 C
2729 10-03-2011 17:58:01 8.2 C 52 % -1.05 C
2730 10-03-2011 18:10:02 8.3 C 52 % -0.96 C
2731 10-03-2011 18:22:01 8.3 C 52 % -0.96 C
2732 10-03-2011 18:34:01 8.3 C 52 % -0.96 C
2733 10-03-2011 18:46:01 8.5 C 52 % -0.78 C
2734 10-03-2011 18:58:01 8.6 C 52 % -0.68 C
2735 10-03-2011 19:10:02 8.6 C 52 % -0.68 C
2736 10-03-2011 19:22:02 8.9 C 51 % -0.67 C
2737 10-03-2011 19:34:01 8.8 C 51 % -0.76 C
2738 10-03-2011 19:46:02 8.9 C 51 % -0.67 C
2739 10-03-2011 19:58:02 9 C 50 % -0.85 C
2740 10-03-2011 20:10:01 8.9 C 51 % -0.67 C
2741 10-03-2011 20:22:02 8.7 C 52 % -0.59 C
2742 10-03-2011 20:34:01 8.9 C 52 % -0.41 C
2743 10-03-2011 20:46:02 8.9 C 52 % -0.41 C
2744 10-03-2011 20:58:02 8.9 C 53 % -0.15 C
2745 10-03-2011 21:10:02 8.7 C 54 % -0.07 C
2746 10-03-2011 21:22:02 8.8 C 54 % 0.02 C
2747 10-03-2011 21:34:03 8.3 C 57 % 0.3 C
2748 10-03-2011 21:46:02 8.4 C 58 % 0.63 C
2749 10-03-2011 21:58:02 8.5 C 57 % 0.48 C
2750 10-03-2011 22:10:01 8.8 C 55 % 0.27 C
Sensor: Nr:Datum:Temp:Feuchte:Taupunkt:
Aussen-T/F 2751 10-03-2011 22:23:03 8.7 C 56 % 0.43 C
2752 10-03-2011 22:35:03 8.8 C 55 % 0.27 C
2753 10-03-2011 22:47:03 8.9 C 56 % 0.61 C
2754 10-03-2011 22:59:03 8.7 C 56 % 0.43 C
2755 10-03-2011 23:11:03 8.9 C 55 % 0.36 C
2756 10-03-2011 23:23:03 8.9 C 55 % 0.36 C
2757 10-03-2011 23:35:03 9 C 54 % 0.2 C
2758 10-03-2011 23:47:03 8.9 C 55 % 0.36 C
2759 10-03-2011 23:59:03 9 C 55 % 0.46 C
2760 11-03-2011 00:11:03 8.8 C 56 % 0.52 C
2761 11-03-2011 00:23:03 8.8 C 56 % 0.52 C
2762 11-03-2011 00:35:03 8.9 C 56 % 0.61 C
2763 11-03-2011 00:47:04 8.8 C 57 % 0.76 C
2764 11-03-2011 00:59:04 8.8 C 57 % 0.76 C
2765 11-03-2011 01:11:04 8.7 C 57 % 0.67 C
2766 11-03-2011 01:23:04 8.7 C 57 % 0.67 C
2767 11-03-2011 01:35:04 8.7 C 58 % 0.91 C
2768 11-03-2011 01:47:04 8.6 C 58 % 0.82 C
2769 11-03-2011 01:59:04 8.7 C 58 % 0.91 C
2770 11-03-2011 02:11:04 8.6 C 58 % 0.82 C
2771 11-03-2011 02:23:04 8.6 C 59 % 1.05 C
2772 11-03-2011 02:35:04 8.6 C 59 % 1.05 C
2773 11-03-2011 02:47:04 8.6 C 59 % 1.05 C
2774 11-03-2011 02:59:04 8.6 C 59 % 1.05 C
2775 11-03-2011 03:11:04 8.5 C 59 % 0.96 C
Sensor: Nr:Datum:Temp:Feuchte:Taupunkt:
Aussen-T/F 2776 11-03-2011 03:23:04 8.7 C 59 % 1.15 C
2777 11-03-2011 03:35:04 8.5 C 60 % 1.19 C
2778 11-03-2011 03:47:04 8.3 C 61 % 1.23 C
2779 11-03-2011 03:59:04 8.4 C 63 % 1.78 C
2780 11-03-2011 04:11:04 8.4 C 62 % 1.55 C
2781 11-03-2011 04:23:04 8.2 C 62 % 1.37 C
2782 11-03-2011 04:35:04 8.2 C 64 % 1.81 C
2783 11-03-2011 04:47:05 8.2 C 64 % 1.81 C
2784 11-03-2011 04:59:05 8.1 C 64 % 1.71 C
2785 11-03-2011 05:11:05 8.2 C 63 % 1.59 C
2786 11-03-2011 05:23:05 8.6 C 61 % 1.52 C
2787 11-03-2011 05:35:05 8.5 C 61 % 1.42 C
2788 11-03-2011 05:47:05 8.5 C 61 % 1.42 C
2789 11-03-2011 05:59:05 8.2 C 61 % 1.14 C
2790 11-03-2011 06:11:05 7.8 C 65 % 1.64 C
2791 11-03-2011 06:23:05 7.8 C 65 % 1.64 C
2792 11-03-2011 06:35:05 8.5 C 62 % 1.65 C
2793 11-03-2011 06:47:05 8.4 C 61 % 1.33 C
2794 11-03-2011 06:59:05 8.4 C 60 % 1.1 C
2795 11-03-2011 07:11:05 8.4 C 60 % 1.1 C
2796 11-03-2011 07:23:02 8.7 C 59 % 1.15 C
2797 11-03-2011 07:35:03 8.7 C 59 % 1.15 C
2798 11-03-2011 07:47:02 8.7 C 59 % 1.15 C
2799 11-03-2011 07:59:02 8.7 C 59 % 1.15 C
2800 11-03-2011 08:11:02 8.7 C 59 % 1.15 C
Sensor: Nr:Datum:Temp:Feuchte:Taupunkt:
Aussen-T/F 2801 11-03-2011 08:23:02 8.8 C 59 % 1.24 C
2802 11-03-2011 08:35:02 8.9 C 59 % 1.34 C
2803 11-03-2011 08:47:01 8.9 C 58 % 1.1 C
2804 11-03-2011 08:59:01 8.9 C 58 % 1.1 C
2805 11-03-2011 09:11:02 9.2 C 56 % 0.89 C
2806 11-03-2011 09:23:02 9.2 C 55 % 0.64 C
2807 11-03-2011 09:35:02 9.2 C 55 % 0.64 C
2808 11-03-2011 09:47:02 9.3 C 55 % 0.74 C
2809 11-03-2011 09:59:02 9.8 C 54 % 0.95 C
2810 11-03-2011 10:11:01 10.2 C 51 % 0.53 C
2811 11-03-2011 10:23:02 10.4 C 51 % 0.71 C
2812 11-03-2011 10:35:01 10.2 C 50 % 0.26 C
2813 11-03-2011 10:47:02 10.6 C 48 % 0.06 C
2814 11-03-2011 10:59:03 10.9 C 48 % 0.34 C
2815 11-03-2011 11:11:02 10.8 C 47 % -0.04 C
2816 11-03-2011 11:23:02 11.2 C 46 % 0.02 C
2817 11-03-2011 11:35:02 10.7 C 46 % -0.43 C
2818 11-03-2011 11:47:02 11 C 44 % -0.77 C
2819 11-03-2011 11:59:02 10.9 C 44 % -0.86 C
2820 11-03-2011 12:11:02 10.7 C 43 % -1.35 C
2821 11-03-2011 12:23:01 11.5 C 42 % -0.95 C
2822 11-03-2011 12:35:02 11.1 C 41 % -1.64 C
2823 11-03-2011 12:47:02 11.2 C 39 % -2.22 C
2824 11-03-2011 12:59:02 11.7 C 39 % -1.78 C
2825 11-03-2011 13:11:02 11.7 C 37 % -2.49 C
Sensor: Nr:Datum:Temp:Feuchte:Taupunkt:
Aussen-T/F 2826 11-03-2011 13:23:01 12 C 35 % -2.97 C
2827 11-03-2011 13:35:02 11.5 C 38 % -2.3 C
2828 11-03-2011 13:47:02 11.2 C 40 % -1.88 C
2829 11-03-2011 13:59:02 11.1 C 38 % -2.66 C
2830 11-03-2011 14:11:03 11.1 C 39 % -2.31 C
2831 11-03-2011 14:23:02 11.1 C 39 % -2.31 C
2832 11-03-2011 14:35:02 11.2 C 39 % -2.22 C
2833 11-03-2011 14:47:02 11.2 C 39 % -2.22 C
2834 11-03-2011 14:59:02 11.1 C 38 % -2.66 C
2835 11-03-2011 15:11:02 11.2 C 38 % -2.57 C
2836 11-03-2011 15:23:02 11.2 C 38 % -2.57 C
2837 11-03-2011 15:35:01 11.2 C 38 % -2.57 C
2838 11-03-2011 15:47:02 11.1 C 38 % -2.66 C
2839 11-03-2011 15:59:02 11 C 39 % -2.4 C
2840 11-03-2011 16:11:01 11 C 39 % -2.4 C
2841 11-03-2011 16:23:01 11.1 C 39 % -2.31 C
2842 11-03-2011 16:35:02 11.1 C 37 % -3.02 C
2843 11-03-2011 16:47:02 11.2 C 37 % -2.93 C
2844 11-03-2011 16:59:02 11.2 C 35 % -3.67 C
2845 11-03-2011 17:11:23 11 C 36 % -3.47 C
2846 11-03-2011 17:23:23 10.9 C 37 % -3.2 C
2847 11-03-2011 17:35:23 11 C 37 % -3.11 C
2848 11-03-2011 17:47:23 10.6 C 37 % -3.46 C
2849 11-03-2011 17:59:23 10.5 C 37 % -3.55 C
2850 11-03-2011 18:11:01 10.2 C 37 % -3.82 C
Sensor: Nr:Datum:Temp:Feuchte:Taupunkt:
Aussen-T/F 2851 11-03-2011 18:23:01 9.9 C 40 % -3.05 C
2852 11-03-2011 18:35:01 9.6 C 41 % -2.99 C
2853 11-03-2011 18:47:02 9.4 C 42 % -2.84 C
2854 11-03-2011 18:59:02 9.1 C 46 % -1.89 C
2855 11-03-2011 19:11:03 8.6 C 49 % -1.49 C
2856 11-03-2011 19:23:02 8.4 C 51 % -1.13 C
2857 11-03-2011 19:35:03 8.2 C 52 % -1.05 C
2858 11-03-2011 19:47:01 8 C 53 % -0.98 C
2859 11-03-2011 19:59:01 7.8 C 54 % -0.91 C
2860 11-03-2011 20:11:02 7.6 C 54 % -1.1 C
2861 11-03-2011 20:23:01 7.1 C 54 % -1.56 C
2862 11-03-2011 20:35:02 7 C 56 % -1.16 C
2863 11-03-2011 20:47:02 6.4 C 60 % -0.78 C
2864 11-03-2011 20:59:02 6 C 60 % -1.16 C
2865 11-03-2011 21:11:02 5.5 C 63 % -0.97 C
2866 11-03-2011 21:23:03 5 C 65 % -1.02 C
2867 11-03-2011 21:35:02 4.7 C 67 % -0.89 C
2868 11-03-2011 21:47:03 4.9 C 69 % -0.3 C
2869 11-03-2011 21:59:03 4.3 C 69 % -0.87 C
2870 11-03-2011 22:11:02 3.8 C 72 % -0.77 C
2871 11-03-2011 22:24:04 3.5 C 74 % -0.69 C
2872 11-03-2011 22:36:04 3.4 C 75 % -0.6 C
2873 11-03-2011 22:48:04 3.3 C 76 % -0.52 C
2874 11-03-2011 23:00:04 2.9 C 78 % -0.55 C
2875 11-03-2011 23:12:04 2.4 C 78 % -1.03 C
Sensor: Nr:Datum:Temp:Feuchte:Taupunkt:
Aussen-T/F 2876 11-03-2011 23:24:04 2.2 C 79 % -1.05 C
2877 11-03-2011 23:36:04 1.9 C 80 % -1.18 C
2878 11-03-2011 23:48:04 1.8 C 81 % -1.1 C
2879 12-03-2011 00:00:04 1.6 C 82 % -1.13 C
2880 12-03-2011 00:12:04 1.2 C 82 % -1.52 C
2881 12-03-2011 00:24:04 0.8 C 83 % -1.75 C
2882 12-03-2011 00:36:04 0.5 C 83 % -2.04 C
2883 12-03-2011 00:48:04 0.5 C 84 % -1.88 C
2884 12-03-2011 01:00:04 0.4 C 84 % -1.98 C
2885 12-03-2011 01:12:04 0.3 C 84 % -2.08 C
2886 12-03-2011 01:24:04 0.3 C 85 % -1.92 C
2887 12-03-2011 01:36:05 0.1 C 85 % -2.11 C
2888 12-03-2011 01:48:05 0 C 85 % -2.21 C
2889 12-03-2011 02:00:05 -0.2 C 86 % -2.25 C
2890 12-03-2011 02:12:05 -0.2 C 86 % -2.25 C
2891 12-03-2011 02:24:05 -0.3 C 86 % -2.35 C
2892 12-03-2011 02:36:05 -0.3 C 87 % -2.2 C
2893 12-03-2011 02:48:05 -0.6 C 87 % -2.49 C
2894 12-03-2011 03:00:05 -0.6 C 87 % -2.49 C
2895 12-03-2011 03:12:05 -0.7 C 87 % -2.59 C
2896 12-03-2011 03:24:05 -0.9 C 87 % -2.79 C
2897 12-03-2011 03:36:05 -1 C 87 % -2.88 C
2898 12-03-2011 03:48:05 -0.5 C 88 % -2.24 C
2899 12-03-2011 04:00:05 -1 C 87 % -2.88 C
2900 12-03-2011 04:12:05 -1.2 C 88 % -2.93 C
Sensor: Nr:Datum:Temp:Feuchte:Taupunkt:
Aussen-T/F 2901 12-03-2011 04:24:05 -1.3 C 88 % -3.03 C
2902 12-03-2011 04:36:05 -1.4 C 88 % -3.13 C
2903 12-03-2011 04:48:05 -1.3 C 88 % -3.03 C
2904 12-03-2011 05:00:05 -1.4 C 88 % -3.13 C
2905 12-03-2011 05:12:05 -1.5 C 88 % -3.22 C
2906 12-03-2011 05:24:05 -1.5 C 88 % -3.22 C
2907 12-03-2011 05:36:06 -1.8 C 88 % -3.52 C
2908 12-03-2011 05:48:06 -1.9 C 88 % -3.62 C
2909 12-03-2011 06:00:06 -2 C 88 % -3.72 C
2910 12-03-2011 06:12:06 -2 C 88 % -3.72 C
2911 12-03-2011 06:24:06 -2.1 C 88 % -3.82 C
2912 12-03-2011 06:36:06 -1.8 C 88 % -3.52 C
2913 12-03-2011 06:48:06 -1.9 C 89 % -3.47 C
2914 12-03-2011 07:00:06 -2.2 C 89 % -3.76 C
2915 12-03-2011 07:12:06 -2.3 C 89 % -3.86 C
2916 12-03-2011 07:24:06 -2 C 89 % -3.57 C
2917 12-03-2011 07:36:04 -1.9 C 89 % -3.47 C
2918 12-03-2011 07:48:02 -1.6 C 89 % -3.17 C
2919 12-03-2011 08:00:02 -1.2 C 89 % -2.78 C
2920 12-03-2011 08:12:02 -0.6 C 90 % -2.03 C
2921 12-03-2011 08:24:02 -0.2 C 90 % -1.64 C
2922 12-03-2011 08:36:02 0.1 C 90 % -1.34 C
2923 12-03-2011 08:48:02 0.3 C 90 % -1.14 C
2924 12-03-2011 09:00:02 0.5 C 90 % -0.95 C
2925 12-03-2011 09:12:02 1.2 C 89 % -0.41 C
Sensor: Nr:Datum:Temp:Feuchte:Taupunkt:
Aussen-T/F 2926 12-03-2011 09:24:02 1.7 C 89 % 0.09 C
2927 12-03-2011 09:36:02 2.3 C 88 % 0.52 C
2928 12-03-2011 09:48:02 3.1 C 86 % 0.99 C
2929 12-03-2011 10:00:02 3.7 C 84 % 1.25 C
2930 12-03-2011 10:12:02 4.3 C 82 % 1.51 C
2931 12-03-2011 10:24:02 6 C 75 % 1.91 C
2932 12-03-2011 10:36:02 7 C 68 % 1.51 C
2933 12-03-2011 10:48:02 7.6 C 63 % 1.02 C
2934 12-03-2011 11:00:02 8.5 C 60 % 1.19 C
2935 12-03-2011 11:12:01 10 C 53 % 0.87 C
2936 12-03-2011 11:24:02 10.9 C 48 % 0.34 C
2937 12-03-2011 11:36:02 11.8 C 45 % 0.27 C
2938 12-03-2011 11:48:02 12.5 C 42 % -0.05 C
2939 12-03-2011 12:00:02 13 C 38 % -0.97 C
2940 12-03-2011 12:12:02 13.7 C 38 % -0.34 C
2941 12-03-2011 12:24:02 14.8 C 35 % -0.49 C
2942 12-03-2011 12:36:02 15.6 C 35 % 0.21 C
2943 12-03-2011 12:48:01 15.9 C 32 % -0.75 C
2944 12-03-2011 13:00:01 15.3 C 34 % -0.45 C
2945 12-03-2011 13:12:01 15.3 C 34 % -0.45 C
2946 12-03-2011 13:24:01 16.8 C 32 % 0.03 C
2947 12-03-2011 13:36:01 16.8 C 32 % 0.03 C
2948 12-03-2011 13:48:01 16.6 C 30 % -1.02 C
2949 12-03-2011 14:00:01 16 C 30 % -1.54 C
2950 12-03-2011 14:12:01 16.9 C 30 % -0.76 C
Sensor: Nr:Datum:Temp:Feuchte:Taupunkt:
Aussen-T/F 2951 12-03-2011 14:24:02 16.7 C 31 % -0.49 C
2952 12-03-2011 14:36:01 16.8 C 30 % -0.85 C
2953 12-03-2011 14:48:03 16.5 C 32 % -0.23 C
2954 12-03-2011 15:00:03 16.4 C 32 % -0.32 C
2955 12-03-2011 15:12:02 15.6 C 32 % -1.01 C
2956 12-03-2011 15:24:03 16.2 C 32 % -0.49 C
2957 12-03-2011 15:36:02 16.2 C 32 % -0.49 C
2958 12-03-2011 15:48:02 17.1 C 30 % -0.59 C
2959 12-03-2011 16:00:02 17 C 31 % -0.23 C
2960 12-03-2011 16:12:02 17.4 C 30 % -0.33 C
2961 12-03-2011 16:24:02 18.5 C 27 % -0.83 C
2962 12-03-2011 16:36:03 18.6 C 27 % -0.74 C
2963 12-03-2011 16:48:02 18.6 C 27 % -0.74 C
2964 12-03-2011 17:00:02 17.9 C 28 % -0.84 C
2965 12-03-2011 17:12:01 16.3 C 33 % 0.02 C
2966 12-03-2011 17:24:02 14.7 C 39 % 0.91 C
2967 12-03-2011 17:36:02 13.6 C 43 % 1.27 C
2968 12-03-2011 17:48:02 12.4 C 47 % 1.42 C
2969 12-03-2011 18:00:02 11.4 C 50 % 1.36 C
2970 12-03-2011 18:12:03 11.2 C 51 % 1.45 C
2971 12-03-2011 18:24:02 10.9 C 53 % 1.71 C
2972 12-03-2011 18:36:03 10.8 C 53 % 1.62 C
2973 12-03-2011 18:48:01 10.6 C 53 % 1.43 C
2974 12-03-2011 19:00:01 10.7 C 51 % 0.99 C
2975 12-03-2011 19:12:02 10.7 C 48 % 0.15 C
Sensor: Nr:Datum:Temp:Feuchte:Taupunkt:
Aussen-T/F 2976 12-03-2011 19:24:02 10.8 C 46 % -0.34 C
2977 12-03-2011 19:36:02 11 C 43 % -1.08 C
2978 12-03-2011 19:48:02 11.2 C 45 % -0.28 C
2979 12-03-2011 20:00:02 10.7 C 45 % -0.73 C
2980 12-03-2011 20:12:03 11.1 C 42 % -1.31 C
2981 12-03-2011 20:24:02 11.4 C 41 % -1.37 C
2982 12-03-2011 20:36:02 11.7 C 41 % -1.1 C
2983 12-03-2011 20:48:01 11.8 C 41 % -1.01 C
2984 12-03-2011 21:00:01 12.3 C 38 % -1.59 C
2985 12-03-2011 21:12:02 12.1 C 40 % -1.07 C
2986 12-03-2011 21:24:01 12.5 C 39 % -1.06 C
2987 12-03-2011 21:36:01 12.4 C 40 % -0.8 C
2988 12-03-2011 21:48:01 11.8 C 42 % -0.68 C
2989 12-03-2011 22:00:01 12.2 C 42 % -0.32 C
2990 12-03-2011 22:13:02 11.8 C 43 % -0.36 C
2991 12-03-2011 22:25:02 12.5 C 41 % -0.38 C
2992 12-03-2011 22:37:02 12.2 C 42 % -0.32 C
2993 12-03-2011 22:49:02 11.8 C 44 % -0.04 C
2994 12-03-2011 23:01:02 11.4 C 46 % 0.21 C
2995 12-03-2011 23:13:02 11.4 C 46 % 0.21 C
2996 12-03-2011 23:25:02 11.2 C 46 % 0.02 C
2997 12-03-2011 23:37:02 11 C 48 % 0.43 C
2998 12-03-2011 23:49:02 10.7 C 51 % 0.99 C
2999 13-03-2011 00:01:02 10.5 C 53 % 1.34 C
3000 13-03-2011 00:13:02 10 C 58 % 2.13 C
Sensor: Nr:Datum:Temp:Feuchte:Taupunkt:
Aussen-T/F 3001 13-03-2011 00:25:02 10.1 C 59 % 2.46 C
3002 13-03-2011 00:37:02 9.8 C 61 % 2.65 C
3003 13-03-2011 00:49:02 10.1 C 59 % 2.46 C
3004 13-03-2011 01:01:02 9.7 C 61 % 2.55 C
3005 13-03-2011 01:13:02 9.8 C 61 % 2.65 C
3006 13-03-2011 01:25:02 10.1 C 59 % 2.46 C
3007 13-03-2011 01:37:02 10.8 C 57 % 2.63 C
3008 13-03-2011 01:49:02 10.7 C 57 % 2.54 C
3009 13-03-2011 02:01:02 10.9 C 58 % 2.97 C
3010 13-03-2011 02:13:02 10.7 C 58 % 2.79 C
3011 13-03-2011 02:25:03 10.5 C 60 % 3.08 C
3012 13-03-2011 02:37:03 10.5 C 60 % 3.08 C
3013 13-03-2011 02:49:03 10.4 C 61 % 3.21 C
3014 13-03-2011 03:01:03 10.5 C 60 % 3.08 C
3015 13-03-2011 03:13:03 10 C 61 % 2.84 C
3016 13-03-2011 03:25:03 9.7 C 64 % 3.23 C
3017 13-03-2011 03:37:03 9.8 C 63 % 3.1 C
3018 13-03-2011 03:49:03 9.9 C 64 % 3.42 C
3019 13-03-2011 04:01:03 9.8 C 63 % 3.1 C
3020 13-03-2011 04:13:03 9.6 C 64 % 3.14 C
3021 13-03-2011 04:25:03 9 C 68 % 3.42 C
3022 13-03-2011 04:37:03 8.5 C 76 % 4.52 C
3023 13-03-2011 04:49:03 8.4 C 80 % 5.16 C
3024 13-03-2011 05:01:03 8.1 C 81 % 5.04 C
3025 13-03-2011 05:13:03 8 C 83 % 5.29 C
Sensor: Nr:Datum:Temp:Feuchte:Taupunkt:
Aussen-T/F 3026 13-03-2011 05:25:03 7.9 C 85 % 5.54 C
3027 13-03-2011 05:37:03 7.8 C 85 % 5.44 C
3028 13-03-2011 05:49:03 7.7 C 86 % 5.51 C
3029 13-03-2011 06:01:03 7.6 C 86 % 5.41 C
3030 13-03-2011 06:13:03 7.9 C 86 % 5.71 C
3031 13-03-2011 06:25:03 7.8 C 86 % 5.61 C
3032 13-03-2011 06:37:04 7.6 C 86 % 5.41 C
3033 13-03-2011 06:49:04 7.6 C 85 % 5.24 C
3034 13-03-2011 07:01:02 7.6 C 85 % 5.24 C
3035 13-03-2011 07:13:02 7.8 C 85 % 5.44 C
3036 13-03-2011 07:25:02 7.8 C 85 % 5.44 C
3037 13-03-2011 07:37:02 7.9 C 84 % 5.37 C
3038 13-03-2011 07:49:01 8 C 83 % 5.29 C
3039 13-03-2011 08:01:02 8.1 C 83 % 5.39 C
3040 13-03-2011 08:13:02 8.4 C 82 % 5.51 C
3041 13-03-2011 08:25:02 8.6 C 81 % 5.53 C
3042 13-03-2011 08:37:02 9.1 C 77 % 5.29 C
3043 13-03-2011 08:49:02 9.4 C 75 % 5.2 C
3044 13-03-2011 09:01:02 9.9 C 72 % 5.1 C
3045 13-03-2011 09:13:02 10.3 C 68 % 4.66 C
3046 13-03-2011 09:25:01 10.8 C 66 % 4.71 C
3047 13-03-2011 09:37:02 11.3 C 64 % 4.75 C
3048 13-03-2011 09:49:01 12 C 60 % 4.49 C
3049 13-03-2011 10:01:02 12.4 C 58 % 4.38 C
3050 13-03-2011 10:13:02 12.7 C 57 % 4.41 C
Sensor: Nr:Datum:Temp:Feuchte:Taupunkt:
Aussen-T/F 3051 13-03-2011 10:25:02 12.5 C 53 % 3.19 C
3052 13-03-2011 10:37:02 12.8 C 53 % 3.47 C
3053 13-03-2011 10:49:02 12.8 C 54 % 3.74 C
3054 13-03-2011 11:01:01 13.3 C 51 % 3.39 C
3055 13-03-2011 11:13:01 14.1 C 47 % 2.97 C
3056 13-03-2011 11:25:02 14.3 C 47 % 3.15 C
3057 13-03-2011 11:37:01 15.1 C 45 % 3.27 C
3058 13-03-2011 11:49:02 14.9 C 44 % 2.77 C
3059 13-03-2011 12:01:01 14.7 C 45 % 2.91 C
3060 13-03-2011 12:13:01 14.7 C 44 % 2.59 C
3061 13-03-2011 12:25:01 14.3 C 45 % 2.54 C
3062 13-03-2011 12:37:02 14.4 C 44 % 2.32 C
3063 13-03-2011 12:49:02 15.6 C 41 % 2.41 C
3064 13-03-2011 13:01:02 15.2 C 41 % 2.05 C
3065 13-03-2011 13:13:02 15 C 40 % 1.53 C
3066 13-03-2011 13:25:02 15 C 41 % 1.87 C
3067 13-03-2011 13:37:02 14.2 C 44 % 2.14 C
3068 13-03-2011 13:49:02 14.1 C 46 % 2.67 C
3069 13-03-2011 14:01:02 14.5 C 45 % 2.72 C
3070 13-03-2011 14:13:02 14.9 C 43 % 2.45 C
3071 13-03-2011 14:25:02 15.2 C 40 % 1.71 C
3072 13-03-2011 14:37:02 15.6 C 41 % 2.41 C
3073 13-03-2011 14:49:02 15.4 C 40 % 1.89 C
3074 13-03-2011 15:01:02 15.5 C 41 % 2.32 C
3075 13-03-2011 15:13:02 16.2 C 38 % 1.88 C
Sensor: Nr:Datum:Temp:Feuchte:Taupunkt:
Aussen-T/F 3076 13-03-2011 15:25:03 15.6 C 39 % 1.71 C
3077 13-03-2011 15:37:02 14.8 C 42 % 2.03 C
3078 13-03-2011 15:49:02 14.7 C 43 % 2.27 C
3079 13-03-2011 16:01:02 15 C 42 % 2.21 C
3080 13-03-2011 16:13:02 14.8 C 43 % 2.36 C
3081 13-03-2011 16:25:02 14.8 C 43 % 2.36 C
3082 13-03-2011 16:37:02 14.1 C 45 % 2.36 C
3083 13-03-2011 16:49:02 13.8 C 47 % 2.7 C
3084 13-03-2011 17:01:02 13.5 C 51 % 3.57 C
3085 13-03-2011 17:13:02 13.2 C 52 % 3.57 C
3086 13-03-2011 17:25:02 12.8 C 53 % 3.47 C
3087 13-03-2011 17:37:01 12.6 C 55 % 3.81 C
3088 13-03-2011 17:49:02 12.4 C 57 % 4.13 C
3089 13-03-2011 18:01:01 12 C 58 % 4 C
3090 13-03-2011 18:13:01 11.8 C 60 % 4.3 C
3091 13-03-2011 18:25:02 11.4 C 62 % 4.39 C
3092 13-03-2011 18:37:02 11.2 C 63 % 4.43 C
3093 13-03-2011 18:49:02 11.2 C 63 % 4.43 C
3094 13-03-2011 19:01:03 11.2 C 63 % 4.43 C
3095 13-03-2011 19:13:03 11.2 C 63 % 4.43 C
3096 13-03-2011 19:25:02 11 C 64 % 4.46 C
3097 13-03-2011 19:37:02 10.3 C 71 % 5.28 C
3098 13-03-2011 19:49:01 10.1 C 76 % 6.07 C
3099 13-03-2011 20:01:02 9.9 C 81 % 6.8 C
3100 13-03-2011 20:13:02 9.7 C 83 % 6.96 C
Sensor: Nr:Datum:Temp:Feuchte:Taupunkt:
Aussen-T/F 3101 13-03-2011 20:25:01 9.6 C 84 % 7.03 C
3102 13-03-2011 20:37:01 9.5 C 85 % 7.11 C
3103 13-03-2011 20:49:01 9.4 C 86 % 7.18 C
3104 13-03-2011 21:01:02 9.4 C 86 % 7.18 C
3105 13-03-2011 21:13:02 9.3 C 86 % 7.08 C
3106 13-03-2011 21:25:01 9.3 C 87 % 7.25 C
3107 13-03-2011 21:37:01 9.1 C 87 % 7.05 C
3108 13-03-2011 21:49:01 9 C 87 % 6.96 C
3109 13-03-2011 22:02:04 8.9 C 88 % 7.02 C
3110 13-03-2011 22:14:04 8.9 C 88 % 7.02 C
3111 13-03-2011 22:26:04 8.9 C 88 % 7.02 C
3112 13-03-2011 22:38:04 8.9 C 89 % 7.19 C
3113 13-03-2011 22:50:04 8.7 C 89 % 6.99 C
3114 13-03-2011 23:02:04 8.7 C 89 % 6.99 C
3115 13-03-2011 23:14:04 8.7 C 89 % 6.99 C
3116 13-03-2011 23:26:05 8.7 C 89 % 6.99 C
3117 13-03-2011 23:38:05 8.6 C 89 % 6.89 C
3118 13-03-2011 23:50:05 8.6 C 89 % 6.89 C
3119 14-03-2011 00:02:05 8.6 C 89 % 6.89 C
3120 14-03-2011 00:14:05 8.6 C 89 % 6.89 C
3121 14-03-2011 00:26:05 8.6 C 89 % 6.89 C
3122 14-03-2011 00:38:05 8.6 C 89 % 6.89 C
3123 14-03-2011 00:50:05 8.6 C 90 % 7.06 C
3124 14-03-2011 01:02:05 8.6 C 90 % 7.06 C
3125 14-03-2011 01:14:05 8.6 C 90 % 7.06 C
Sensor: Nr:Datum:Temp:Feuchte:Taupunkt:
Aussen-T/F 3126 14-03-2011 01:26:05 8.6 C 90 % 7.06 C
3127 14-03-2011 01:38:05 8.6 C 90 % 7.06 C
3128 14-03-2011 01:50:05 8.4 C 90 % 6.86 C
3129 14-03-2011 02:02:05 8.5 C 90 % 6.96 C
3130 14-03-2011 02:14:05 8.6 C 90 % 7.06 C
3131 14-03-2011 02:26:05 8.5 C 90 % 6.96 C
3132 14-03-2011 02:38:05 8.4 C 90 % 6.86 C
3133 14-03-2011 02:50:05 8.4 C 90 % 6.86 C
3134 14-03-2011 03:02:05 8.4 C 90 % 6.86 C
3135 14-03-2011 03:14:05 8.2 C 90 % 6.66 C
3136 14-03-2011 03:26:05 8.2 C 90 % 6.66 C
3137 14-03-2011 03:38:06 8.1 C 90 % 6.56 C
3138 14-03-2011 03:50:06 8.2 C 90 % 6.66 C
3139 14-03-2011 04:02:06 8.2 C 90 % 6.66 C
3140 14-03-2011 04:14:06 8.3 C 90 % 6.76 C
3141 14-03-2011 04:26:06 8.4 C 90 % 6.86 C
3142 14-03-2011 04:38:06 8.4 C 90 % 6.86 C
3143 14-03-2011 04:50:06 8.4 C 90 % 6.86 C
3144 14-03-2011 05:02:06 8.4 C 90 % 6.86 C
3145 14-03-2011 05:14:06 8.4 C 91 % 7.02 C
3146 14-03-2011 05:26:06 8.5 C 91 % 7.12 C
3147 14-03-2011 05:38:06 8.3 C 91 % 6.92 C
3148 14-03-2011 05:50:06 8.1 C 91 % 6.72 C
3149 14-03-2011 06:02:06 8 C 91 % 6.62 C
3150 14-03-2011 06:14:06 8 C 90 % 6.46 C
Sensor: Nr:Datum:Temp:Feuchte:Taupunkt:
Aussen-T/F 3151 14-03-2011 06:26:06 7.6 C 91 % 6.23 C
3152 14-03-2011 06:38:06 7.6 C 91 % 6.23 C
3153 14-03-2011 06:50:06 7.8 C 92 % 6.58 C
3154 14-03-2011 07:02:06 7.9 C 92 % 6.68 C
3155 14-03-2011 07:14:06 7.9 C 92 % 6.68 C
3156 14-03-2011 07:26:03 7.9 C 92 % 6.68 C
3157 14-03-2011 07:38:03 8.2 C 91 % 6.82 C
3158 14-03-2011 07:50:02 8.3 C 91 % 6.92 C
3159 14-03-2011 08:02:02 8.4 C 91 % 7.02 C
3160 14-03-2011 08:14:02 8.5 C 91 % 7.12 C
3161 14-03-2011 08:26:01 8.5 C 91 % 7.12 C
3162 14-03-2011 08:38:02 8.7 C 91 % 7.32 C
3163 14-03-2011 08:50:02 8.9 C 91 % 7.51 C
3164 14-03-2011 09:02:02 9.1 C 91 % 7.71 C
3165 14-03-2011 09:14:02 9 C 90 % 7.45 C
3166 14-03-2011 09:26:01 9.2 C 91 % 7.81 C
3167 14-03-2011 09:38:02 9.4 C 91 % 8.01 C
3168 14-03-2011 09:50:01 10 C 89 % 8.27 C
3169 14-03-2011 10:02:02 10.7 C 89 % 8.96 C
3170 14-03-2011 10:14:02 10.8 C 85 % 8.38 C
3171 14-03-2011 10:26:01 11 C 77 % 7.13 C
3172 14-03-2011 10:38:02 12.1 C 71 % 7.01 C
3173 14-03-2011 10:50:01 12 C 68 % 6.29 C
3174 14-03-2011 11:02:02 12.8 C 67 % 6.83 C
3175 14-03-2011 11:14:02 12.1 C 67 % 6.17 C
Sensor: Nr:Datum:Temp:Feuchte:Taupunkt:
Aussen-T/F 3176 14-03-2011 11:26:01 12.9 C 67 % 6.93 C
3177 14-03-2011 11:38:02 12.8 C 63 % 5.94 C
3178 14-03-2011 11:50:02 13 C 62 % 5.9 C
3179 14-03-2011 12:02:02 12.6 C 63 % 5.75 C
3180 14-03-2011 12:14:02 13.4 C 61 % 6.04 C
3181 14-03-2011 12:26:02 13 C 60 % 5.43 C
3182 14-03-2011 12:38:02 13 C 63 % 6.13 C
3183 14-03-2011 12:50:01 13.6 C 61 % 6.23 C
3184 14-03-2011 13:02:01 14.4 C 58 % 6.25 C
3185 14-03-2011 13:14:02 14.5 C 54 % 5.31 C
3186 14-03-2011 13:26:01 14.4 C 54 % 5.22 C
3187 14-03-2011 13:38:01 14 C 55 % 5.11 C
3188 14-03-2011 13:50:01 14 C 54 % 4.85 C
3189 14-03-2011 14:02:02 14.5 C 53 % 5.05 C
3190 14-03-2011 14:14:02 14.1 C 52 % 4.4 C
3191 14-03-2011 14:26:01 13.7 C 56 % 5.09 C
3192 14-03-2011 14:38:01 13.7 C 57 % 5.35 C
3193 14-03-2011 14:50:01 14 C 55 % 5.11 C
3194 14-03-2011 15:02:01 13.9 C 55 % 5.02 C
3195 14-03-2011 15:14:01 13.4 C 56 % 4.81 C
3196 14-03-2011 15:26:02 13.8 C 55 % 4.93 C
3197 14-03-2011 15:38:01 13.5 C 55 % 4.65 C
3198 14-03-2011 15:50:02 13.8 C 54 % 4.66 C
3199 14-03-2011 16:02:01 15.2 C 49 % 4.57 C
3200 14-03-2011 16:14:01 16.4 C 43 % 3.8 C
Sensor: Nr:Datum:Temp:Feuchte:Taupunkt:
Aussen-T/F 3201 14-03-2011 16:26:02 15.4 C 44 % 3.22 C
3202 14-03-2011 16:38:01 14.6 C 48 % 3.73 C
3203 14-03-2011 16:50:02 14.1 C 50 % 3.85 C
3204 14-03-2011 17:02:02 13.9 C 51 % 3.94 C
3205 14-03-2011 17:14:02 13.7 C 49 % 3.19 C
3206 14-03-2011 17:26:02 13.1 C 56 % 4.53 C
3207 14-03-2011 17:38:03 12.6 C 61 % 5.29 C
3208 14-03-2011 17:50:02 12.1 C 63 % 5.28 C
3209 14-03-2011 18:02:02 11.7 C 66 % 5.57 C
3210 14-03-2011 18:14:02 11.4 C 67 % 5.5 C
3211 14-03-2011 18:26:02 11.2 C 68 % 5.52 C
3212 14-03-2011 18:38:02 11 C 70 % 5.75 C
3213 14-03-2011 18:50:02 10.7 C 72 % 5.87 C
3214 14-03-2011 19:02:02 10.4 C 73 % 5.78 C
3215 14-03-2011 19:14:02 10.4 C 74 % 5.97 C
3216 14-03-2011 19:26:02 10.2 C 74 % 5.78 C
3217 14-03-2011 19:38:02 10 C 75 % 5.78 C
3218 14-03-2011 19:50:01 9.2 C 77 % 5.38 C
3219 14-03-2011 20:02:02 8.5 C 79 % 5.07 C
3220 14-03-2011 20:14:02 8.4 C 81 % 5.33 C
3221 14-03-2011 20:26:01 8.2 C 82 % 5.32 C
3222 14-03-2011 20:38:01 8.3 C 83 % 5.59 C
3223 14-03-2011 20:50:01 8.6 C 84 % 6.05 C
3224 14-03-2011 21:02:02 8.6 C 84 % 6.05 C
3225 14-03-2011 21:14:02 8.6 C 84 % 6.05 C
Sensor: Nr:Datum:Temp:Feuchte:Taupunkt:
Aussen-T/F 3226 14-03-2011 21:26:02 8 C 83 % 5.29 C
3227 14-03-2011 21:38:01 7.6 C 84 % 5.07 C
3228 14-03-2011 21:50:02 7.1 C 84 % 4.58 C
3229 14-03-2011 22:02:02 7 C 85 % 4.66 C
3230 14-03-2011 22:14:02 7.6 C 87 % 5.58 C
3231 14-03-2011 22:27:03 7.4 C 87 % 5.38 C
3232 14-03-2011 22:39:03 7.3 C 88 % 5.45 C
3233 14-03-2011 22:51:03 7 C 88 % 5.15 C
3234 14-03-2011 23:03:03 6.5 C 88 % 4.66 C
3235 14-03-2011 23:15:03 6 C 88 % 4.17 C
3236 14-03-2011 23:27:04 5.6 C 89 % 3.93 C
3237 14-03-2011 23:39:04 5.6 C 89 % 3.93 C
3238 14-03-2011 23:51:04 5.6 C 89 % 3.93 C
3239 15-03-2011 00:03:04 5.3 C 89 % 3.64 C
3240 15-03-2011 00:15:04 5.1 C 89 % 3.44 C
3241 15-03-2011 00:27:04 5.5 C 90 % 3.99 C
3242 15-03-2011 00:39:04 5 C 90 % 3.5 C
3243 15-03-2011 00:51:04 5.1 C 90 % 3.6 C
3244 15-03-2011 01:03:04 4.9 C 91 % 3.56 C
3245 15-03-2011 01:15:04 4.6 C 91 % 3.26 C
3246 15-03-2011 01:27:04 4.6 C 91 % 3.26 C
3247 15-03-2011 01:39:04 4.9 C 91 % 3.56 C
3248 15-03-2011 01:51:04 5.4 C 91 % 4.05 C
3249 15-03-2011 02:03:04 6.1 C 90 % 4.59 C
3250 15-03-2011 02:15:04 6 C 90 % 4.49 C
Sensor: Nr:Datum:Temp:Feuchte:Taupunkt:
Aussen-T/F 3251 15-03-2011 02:27:04 5.9 C 92 % 4.7 C
3252 15-03-2011 02:39:04 6 C 91 % 4.65 C
3253 15-03-2011 02:51:04 5.8 C 92 % 4.6 C
3254 15-03-2011 03:03:04 5.7 C 92 % 4.5 C
3255 15-03-2011 03:15:04 5.7 C 92 % 4.5 C
3256 15-03-2011 03:27:04 5.7 C 92 % 4.5 C
3257 15-03-2011 03:39:05 5.7 C 92 % 4.5 C
3258 15-03-2011 03:51:05 5.7 C 92 % 4.5 C
3259 15-03-2011 04:03:05 5.8 C 92 % 4.6 C
3260 15-03-2011 04:15:05 6 C 91 % 4.65 C
3261 15-03-2011 04:27:05 5.7 C 92 % 4.5 C
3262 15-03-2011 04:39:05 5.7 C 92 % 4.5 C
3263 15-03-2011 04:51:05 5.7 C 92 % 4.5 C
3264 15-03-2011 05:03:05 5.7 C 92 % 4.5 C
3265 15-03-2011 05:15:05 5.5 C 92 % 4.31 C
3266 15-03-2011 05:27:05 5.4 C 92 % 4.21 C
3267 15-03-2011 05:39:05 5.1 C 92 % 3.91 C
3268 15-03-2011 05:51:05 4.8 C 92 % 3.61 C
3269 15-03-2011 06:03:05 4.7 C 92 % 3.51 C
3270 15-03-2011 06:15:05 4.2 C 92 % 3.02 C
3271 15-03-2011 06:27:05 4.5 C 92 % 3.32 C
3272 15-03-2011 06:39:05 4.7 C 92 % 3.51 C
3273 15-03-2011 06:51:01 4.8 C 92 % 3.61 C
3274 15-03-2011 07:03:02 4.8 C 92 % 3.61 C
3275 15-03-2011 07:15:01 4.9 C 92 % 3.71 C
Sensor: Nr:Datum:Temp:Feuchte:Taupunkt:
Aussen-T/F 3276 15-03-2011 07:27:01 5 C 92 % 3.81 C
3277 15-03-2011 07:39:02 5.1 C 92 % 3.91 C
3278 15-03-2011 07:51:01 5.2 C 92 % 4.01 C
3279 15-03-2011 08:03:02 5.2 C 92 % 4.01 C
3280 15-03-2011 08:15:02 5.2 C 92 % 4.01 C
3281 15-03-2011 08:27:02 5.3 C 92 % 4.11 C
3282 15-03-2011 08:39:02 5.5 C 92 % 4.31 C
3283 15-03-2011 08:51:02 5.5 C 92 % 4.31 C
3284 15-03-2011 09:03:01 5.7 C 92 % 4.5 C
3285 15-03-2011 09:15:02 6.1 C 91 % 4.74 C
3286 15-03-2011 09:27:02 6.5 C 91 % 5.14 C
3287 15-03-2011 09:39:02 6.9 C 92 % 5.69 C
3288 15-03-2011 09:51:02 7.8 C 91 % 6.43 C
3289 15-03-2011 10:03:02 8.3 C 90 % 6.76 C
3290 15-03-2011 10:15:02 9 C 89 % 7.29 C
3291 15-03-2011 10:27:02 9.5 C 89 % 7.78 C
3292 15-03-2011 10:39:02 10.1 C 86 % 7.87 C
3293 15-03-2011 10:51:01 10.6 C 84 % 8.01 C
3294 15-03-2011 11:03:01 11.5 C 77 % 7.61 C
3295 15-03-2011 11:15:01 12 C 72 % 7.12 C
3296 15-03-2011 11:27:01 13.2 C 64 % 6.55 C
3297 15-03-2011 11:39:02 14 C 58 % 5.88 C
3298 15-03-2011 11:51:02 14.5 C 52 % 4.77 C
3299 15-03-2011 12:03:02 15.6 C 47 % 4.34 C
3300 15-03-2011 12:15:02 16.4 C 43 % 3.8 C
Sensor: Nr:Datum:Temp:Feuchte:Taupunkt:
Aussen-T/F 3301 15-03-2011 12:27:02 18.1 C 40 % 4.3 C
3302 15-03-2011 12:39:02 18.7 C 36 % 3.34 C
3303 15-03-2011 12:51:01 20.3 C 31 % 2.64 C
3304 15-03-2011 13:03:02 20 C 32 % 2.82 C
3305 15-03-2011 13:15:02 18.9 C 35 % 3.12 C
3306 15-03-2011 13:27:02 19.2 C 35 % 3.38 C
3307 15-03-2011 13:39:02 18.4 C 37 % 3.46 C
3308 15-03-2011 13:51:02 19.3 C 35 % 3.47 C
3309 15-03-2011 14:03:03 18.5 C 35 % 2.77 C
3310 15-03-2011 14:15:02 18.5 C 35 % 2.77 C
3311 15-03-2011 14:27:02 18.5 C 35 % 2.77 C
3312 15-03-2011 14:39:02 19 C 33 % 2.38 C
3313 15-03-2011 14:51:01 20 C 31 % 2.38 C
3314 15-03-2011 15:03:02 21 C 30 % 2.78 C
3315 15-03-2011 15:15:02 20.9 C 28 % 1.73 C
3316 15-03-2011 15:27:02 19.8 C 30 % 1.74 C
3317 15-03-2011 15:39:02 21.9 C 27 % 2.08 C
3318 15-03-2011 15:51:02 21.7 C 26 % 1.38 C
3319 15-03-2011 16:03:01 19.9 C 30 % 1.83 C
3320 15-03-2011 16:15:02 20.6 C 28 % 1.47 C
3321 15-03-2011 16:27:03 21.8 C 26 % 1.46 C
3322 15-03-2011 16:39:01 20.8 C 27 % 1.14 C
3323 15-03-2011 16:51:02 20.4 C 26 % 0.28 C
3324 15-03-2011 17:03:01 19.5 C 31 % 1.94 C
3325 15-03-2011 17:15:01 18.4 C 34 % 2.27 C
Sensor: Nr:Datum:Temp:Feuchte:Taupunkt:
Aussen-T/F 3326 15-03-2011 17:27:01 18 C 35 % 2.33 C
3327 15-03-2011 17:39:02 17.7 C 38 % 3.22 C
3328 15-03-2011 17:51:02 16.9 C 39 % 2.87 C
3329 15-03-2011 18:03:02 15.9 C 44 % 3.68 C
3330 15-03-2011 18:15:02 15 C 46 % 3.49 C
3331 15-03-2011 18:27:02 13.2 C 54 % 4.11 C
3332 15-03-2011 18:39:02 12.6 C 57 % 4.32 C
3333 15-03-2011 18:51:02 12.2 C 58 % 4.19 C
3334 15-03-2011 19:03:03 12 C 58 % 4 C
3335 15-03-2011 19:15:02 12 C 59 % 4.25 C
3336 15-03-2011 19:27:02 11.9 C 61 % 4.63 C
3337 15-03-2011 19:39:02 12.2 C 61 % 4.91 C
3338 15-03-2011 19:51:01 12.4 C 59 % 4.62 C
3339 15-03-2011 20:03:02 12.2 C 59 % 4.43 C
3340 15-03-2011 20:15:01 11.2 C 63 % 4.43 C
3341 15-03-2011 20:27:01 10.7 C 66 % 4.62 C
3342 15-03-2011 20:39:01 10.8 C 68 % 5.14 C
3343 15-03-2011 20:51:01 10.2 C 67 % 4.36 C
3344 15-03-2011 21:03:01 9.6 C 71 % 4.61 C
3345 15-03-2011 21:15:02 9.7 C 71 % 4.7 C
3346 15-03-2011 21:27:02 10.2 C 71 % 5.18 C
3347 15-03-2011 21:39:01 9.7 C 71 % 4.7 C
3348 15-03-2011 21:51:01 9.7 C 71 % 4.7 C
3349 15-03-2011 22:03:02 9.2 C 72 % 4.42 C
3350 15-03-2011 22:16:01 8.7 C 74 % 4.33 C
Sensor: Nr:Datum:Temp:Feuchte:Taupunkt:
Aussen-T/F 3351 15-03-2011 22:28:01 9 C 73 % 4.43 C
3352 15-03-2011 22:40:01 9.2 C 72 % 4.42 C
3353 15-03-2011 22:52:01 10.1 C 70 % 4.89 C
3354 15-03-2011 23:04:02 9.2 C 69 % 3.82 C
3355 15-03-2011 23:16:02 9.2 C 69 % 3.82 C
3356 15-03-2011 23:28:02 9.1 C 70 % 3.93 C
3357 15-03-2011 23:40:02 9.1 C 69 % 3.72 C
3358 15-03-2011 23:52:02 9.4 C 68 % 3.8 C
3359 16-03-2011 00:04:02 9.5 C 67 % 3.69 C
3360 16-03-2011 00:16:02 8.8 C 70 % 3.64 C
3361 16-03-2011 00:28:02 8.4 C 73 % 3.85 C
3362 16-03-2011 00:40:02 8.2 C 73 % 3.66 C
3363 16-03-2011 00:52:02 8.1 C 74 % 3.75 C
3364 16-03-2011 01:04:02 7.4 C 75 % 3.27 C
3365 16-03-2011 01:16:02 7 C 78 % 3.43 C
3366 16-03-2011 01:28:02 6.5 C 80 % 3.31 C
3367 16-03-2011 01:40:02 7 C 81 % 3.97 C
3368 16-03-2011 01:52:02 6.5 C 82 % 3.66 C
3369 16-03-2011 02:04:02 6.7 C 83 % 4.02 C
3370 16-03-2011 02:16:02 6.9 C 83 % 4.22 C
3371 16-03-2011 02:28:02 6.4 C 82 % 3.56 C
3372 16-03-2011 02:40:02 6.4 C 83 % 3.73 C
3373 16-03-2011 02:52:02 6.8 C 83 % 4.12 C
3374 16-03-2011 03:04:02 6.7 C 82 % 3.85 C
3375 16-03-2011 03:16:03 6.4 C 82 % 3.56 C
Sensor: Nr:Datum:Temp:Feuchte:Taupunkt:
Aussen-T/F 3376 16-03-2011 03:28:03 6.7 C 82 % 3.85 C
3377 16-03-2011 03:40:03 7.4 C 79 % 4 C
3378 16-03-2011 03:52:03 7.1 C 77 % 3.35 C
3379 16-03-2011 04:04:03 7.3 C 77 % 3.54 C
3380 16-03-2011 04:16:03 7 C 77 % 3.25 C
3381 16-03-2011 04:28:03 7.1 C 76 % 3.16 C
3382 16-03-2011 04:40:03 7.2 C 76 % 3.26 C
3383 16-03-2011 04:52:03 7.4 C 76 % 3.45 C
3384 16-03-2011 05:04:03 7.3 C 75 % 3.17 C
3385 16-03-2011 05:16:03 7.1 C 75 % 2.98 C
3386 16-03-2011 05:28:03 7 C 75 % 2.88 C
3387 16-03-2011 05:40:03 7 C 75 % 2.88 C
3388 16-03-2011 05:52:03 6.8 C 77 % 3.06 C
3389 16-03-2011 06:04:03 7 C 77 % 3.25 C
3390 16-03-2011 06:16:03 7.1 C 76 % 3.16 C
3391 16-03-2011 06:28:03 6.9 C 77 % 3.16 C
3392 16-03-2011 06:40:03 7.4 C 76 % 3.45 C
3393 16-03-2011 06:52:03 7.3 C 75 % 3.17 C
3394 16-03-2011 07:04:03 7.1 C 76 % 3.16 C
3395 16-03-2011 07:16:04 7.6 C 75 % 3.46 C
3396 16-03-2011 07:28:04 7.8 C 74 % 3.46 C
3397 16-03-2011 07:40:04 8.1 C 71 % 3.17 C
3398 16-03-2011 07:52:04 8.3 C 71 % 3.36 C
3399 16-03-2011 08:04:01 8.7 C 69 % 3.34 C
3400 16-03-2011 08:16:01 8.9 C 68 % 3.32 C
Sensor: Nr:Datum:Temp:Feuchte:Taupunkt:
Aussen-T/F 3401 16-03-2011 08:28:01 9.2 C 66 % 3.19 C
3402 16-03-2011 08:40:01 9.3 C 64 % 2.85 C
3403 16-03-2011 08:52:02 9.4 C 64 % 2.95 C
3404 16-03-2011 09:04:03 9.5 C 63 % 2.82 C
3405 16-03-2011 09:16:02 9.8 C 63 % 3.1 C
3406 16-03-2011 09:28:02 9.8 C 62 % 2.88 C
3407 16-03-2011 09:40:02 10.2 C 60 % 2.79 C
3408 16-03-2011 09:52:01 10.1 C 60 % 2.7 C
3409 16-03-2011 10:04:02 10 C 60 % 2.6 C
3410 16-03-2011 10:16:02 10.2 C 59 % 2.56 C
3411 16-03-2011 10:28:02 10.3 C 59 % 2.65 C
3412 16-03-2011 10:40:01 10.4 C 58 % 2.5 C
3413 16-03-2011 10:52:01 10.5 C 58 % 2.6 C
3414 16-03-2011 11:04:01 11.1 C 55 % 2.41 C
3415 16-03-2011 11:16:02 11.1 C 54 % 2.16 C
3416 16-03-2011 11:28:02 11.4 C 53 % 2.17 C
3417 16-03-2011 11:40:01 11.8 C 53 % 2.54 C
3418 16-03-2011 11:52:03 11.3 C 54 % 2.34 C
3419 16-03-2011 12:04:02 11 C 54 % 2.06 C
3420 16-03-2011 12:16:02 10.9 C 55 % 2.23 C
3421 16-03-2011 12:28:02 11 C 54 % 2.06 C
3422 16-03-2011 12:40:02 11.7 C 53 % 2.45 C
3423 16-03-2011 12:52:02 11.4 C 53 % 2.17 C
3424 16-03-2011 13:04:02 11.5 C 52 % 2 C
3425 16-03-2011 13:16:02 11.8 C 52 % 2.28 C
Sensor: Nr:Datum:Temp:Feuchte:Taupunkt:
Aussen-T/F 3426 16-03-2011 13:28:02 11.6 C 53 % 2.36 C
3427 16-03-2011 13:40:02 11.5 C 54 % 2.53 C
3428 16-03-2011 13:52:01 11.5 C 53 % 2.27 C
3429 16-03-2011 14:04:02 11.6 C 53 % 2.36 C
3430 16-03-2011 14:16:01 11.7 C 52 % 2.18 C
3431 16-03-2011 14:28:01 11.6 C 53 % 2.36 C
3432 16-03-2011 14:40:02 11.5 C 53 % 2.27 C
3433 16-03-2011 14:52:02 11.5 C 53 % 2.27 C
3434 16-03-2011 15:04:02 11.2 C 54 % 2.25 C
3435 16-03-2011 15:16:01 11 C 55 % 2.32 C
3436 16-03-2011 15:28:01 10.7 C 56 % 2.29 C
3437 16-03-2011 15:40:02 10.5 C 57 % 2.35 C
3438 16-03-2011 15:52:01 10.4 C 57 % 2.26 C
3439 16-03-2011 16:04:02 10.4 C 57 % 2.26 C
3440 16-03-2011 16:16:02 10.1 C 57 % 1.98 C
3441 16-03-2011 16:28:02 10.1 C 57 % 1.98 C
3442 16-03-2011 16:40:02 9.9 C 58 % 2.04 C
3443 16-03-2011 16:52:01 9.8 C 58 % 1.94 C
3444 16-03-2011 17:04:03 9.7 C 59 % 2.09 C
3445 16-03-2011 17:16:03 9.7 C 60 % 2.32 C
3446 16-03-2011 17:28:03 9.5 C 60 % 2.13 C
3447 16-03-2011 17:40:03 9.4 C 60 % 2.04 C
3448 16-03-2011 17:52:03 9.3 C 61 % 2.18 C
3449 16-03-2011 18:04:03 9.1 C 61 % 1.99 C
3450 16-03-2011 18:16:02 8.9 C 63 % 2.25 C
Sensor: Nr:Datum:Temp:Feuchte:Taupunkt:
Aussen-T/F 3451 16-03-2011 18:28:02 8.6 C 63 % 1.97 C
3452 16-03-2011 18:40:02 8.4 C 64 % 2 C
3453 16-03-2011 18:52:02 8.4 C 64 % 2 C
3454 16-03-2011 19:04:02 8.3 C 64 % 1.9 C
3455 16-03-2011 19:16:02 8.2 C 64 % 1.81 C
3456 16-03-2011 19:28:02 8.2 C 65 % 2.02 C
3457 16-03-2011 19:40:03 8 C 65 % 1.83 C
3458 16-03-2011 19:52:02 8.1 C 65 % 1.93 C
3459 16-03-2011 20:04:03 8.1 C 65 % 1.93 C
3460 16-03-2011 20:16:02 8 C 65 % 1.83 C
3461 16-03-2011 20:28:02 7.9 C 66 % 1.95 C
3462 16-03-2011 20:40:03 7.8 C 66 % 1.86 C
3463 16-03-2011 20:52:02 7.7 C 67 % 1.97 C
3464 16-03-2011 21:04:02 7.5 C 67 % 1.78 C
3465 16-03-2011 21:16:02 7.5 C 67 % 1.78 C
3466 16-03-2011 21:28:02 7.4 C 67 % 1.69 C
3467 16-03-2011 21:40:02 7.3 C 67 % 1.59 C
3468 16-03-2011 21:52:01 7.3 C 68 % 1.8 C
3469 16-03-2011 22:04:01 7.2 C 68 % 1.7 C
3470 16-03-2011 22:17:02 7.1 C 68 % 1.61 C
3471 16-03-2011 22:29:02 7.2 C 69 % 1.9 C
3472 16-03-2011 22:41:02 7.1 C 69 % 1.81 C
3473 16-03-2011 22:53:02 7 C 69 % 1.71 C
3474 16-03-2011 23:05:02 7 C 70 % 1.91 C
3475 16-03-2011 23:17:02 7 C 70 % 1.91 C
Sensor: Nr:Datum:Temp:Feuchte:Taupunkt:
Aussen-T/F 3476 16-03-2011 23:29:02 7 C 70 % 1.91 C
3477 16-03-2011 23:41:02 6.9 C 71 % 2.02 C
3478 16-03-2011 23:53:02 6.9 C 72 % 2.21 C
3479 17-03-2011 00:05:02 6.9 C 72 % 2.21 C
3480 17-03-2011 00:17:02 6.9 C 72 % 2.21 C
3481 17-03-2011 00:29:02 6.8 C 72 % 2.12 C
3482 17-03-2011 00:41:02 6.8 C 72 % 2.12 C
3483 17-03-2011 00:53:02 6.8 C 72 % 2.12 C
3484 17-03-2011 01:05:02 6.8 C 72 % 2.12 C
3485 17-03-2011 01:17:02 6.8 C 72 % 2.12 C
3486 17-03-2011 01:29:02 6.8 C 72 % 2.12 C
3487 17-03-2011 01:41:02 6.8 C 73 % 2.31 C
3488 17-03-2011 01:53:02 6.8 C 72 % 2.12 C
3489 17-03-2011 02:05:03 6.8 C 73 % 2.31 C
3490 17-03-2011 02:17:03 6.8 C 73 % 2.31 C
3491 17-03-2011 02:29:03 6.8 C 73 % 2.31 C
3492 17-03-2011 02:41:03 6.8 C 73 % 2.31 C
3493 17-03-2011 02:53:03 6.7 C 74 % 2.4 C
3494 17-03-2011 03:05:03 6.7 C 74 % 2.4 C
3495 17-03-2011 03:17:03 6.7 C 74 % 2.4 C
3496 17-03-2011 03:29:03 6.8 C 75 % 2.69 C
3497 17-03-2011 03:41:03 6.8 C 74 % 2.5 C
3498 17-03-2011 03:53:03 6.8 C 73 % 2.31 C
3499 17-03-2011 04:05:03 6.8 C 74 % 2.5 C
3500 17-03-2011 04:17:03 6.8 C 74 % 2.5 C
Sensor: Nr:Datum:Temp:Feuchte:Taupunkt:
Aussen-T/F 3501 17-03-2011 04:29:03 6.8 C 74 % 2.5 C
3502 17-03-2011 04:41:03 6.8 C 74 % 2.5 C
3503 17-03-2011 04:53:03 6.7 C 74 % 2.4 C
3504 17-03-2011 05:05:03 6.7 C 74 % 2.4 C
3505 17-03-2011 05:17:03 6.7 C 75 % 2.59 C
3506 17-03-2011 05:29:03 6.8 C 75 % 2.69 C
3507 17-03-2011 05:41:03 6.8 C 75 % 2.69 C
3508 17-03-2011 05:53:03 6.8 C 74 % 2.5 C
3509 17-03-2011 06:05:04 6.8 C 74 % 2.5 C
3510 17-03-2011 06:17:04 6.8 C 74 % 2.5 C
3511 17-03-2011 06:29:04 6.8 C 75 % 2.69 C
3512 17-03-2011 06:41:04 6.8 C 75 % 2.69 C
3513 17-03-2011 06:53:04 6.7 C 75 % 2.59 C
3514 17-03-2011 07:05:02 6.7 C 76 % 2.78 C
3515 17-03-2011 07:17:01 6.5 C 77 % 2.77 C
3516 17-03-2011 07:29:01 6.4 C 78 % 2.85 C
3517 17-03-2011 07:41:02 6.3 C 78 % 2.75 C
3518 17-03-2011 07:53:01 6.3 C 78 % 2.75 C
3519 17-03-2011 08:05:02 6.4 C 77 % 2.67 C
3520 17-03-2011 08:17:02 6.3 C 76 % 2.39 C
3521 17-03-2011 08:29:02 6.4 C 76 % 2.49 C
3522 17-03-2011 08:41:02 6.3 C 76 % 2.39 C
3523 17-03-2011 08:53:02 6.2 C 76 % 2.29 C
3524 17-03-2011 09:05:01 6 C 77 % 2.28 C
3525 17-03-2011 09:17:02 5.9 C 79 % 2.54 C
Sensor: Nr:Datum:Temp:Feuchte:Taupunkt:
Aussen-T/F 3526 17-03-2011 09:29:02 6 C 79 % 2.64 C
3527 17-03-2011 09:41:02 6 C 79 % 2.64 C
3528 17-03-2011 09:53:02 5.8 C 81 % 2.8 C
3529 17-03-2011 10:05:03 5.7 C 83 % 3.04 C
3530 17-03-2011 10:17:02 6.1 C 83 % 3.44 C
3531 17-03-2011 10:29:02 5.7 C 84 % 3.21 C
3532 17-03-2011 10:41:02 5.8 C 84 % 3.31 C
3533 17-03-2011 10:53:01 5.9 C 83 % 3.24 C
3534 17-03-2011 11:05:02 5.9 C 83 % 3.24 C
3535 17-03-2011 11:17:01 5.9 C 83 % 3.24 C
3536 17-03-2011 11:29:01 6 C 82 % 3.17 C
3537 17-03-2011 11:41:02 6 C 82 % 3.17 C
3538 17-03-2011 11:53:02 6.1 C 81 % 3.09 C
3539 17-03-2011 12:05:02 6.2 C 81 % 3.19 C
3540 17-03-2011 12:17:02 5.9 C 82 % 3.07 C
3541 17-03-2011 12:29:02 6.1 C 82 % 3.26 C
3542 17-03-2011 12:41:02 6.2 C 82 % 3.36 C
3543 17-03-2011 12:53:02 6.2 C 82 % 3.36 C
3544 17-03-2011 13:05:02 6.1 C 82 % 3.26 C
3545 17-03-2011 13:17:02 6.2 C 82 % 3.36 C
3546 17-03-2011 13:29:02 6.2 C 82 % 3.36 C
3547 17-03-2011 13:41:02 6 C 82 % 3.17 C
3548 17-03-2011 13:53:01 6 C 83 % 3.34 C
3549 17-03-2011 14:05:02 6 C 83 % 3.34 C
3550 17-03-2011 14:17:01 6 C 83 % 3.34 C
Sensor: Nr:Datum:Temp:Feuchte:Taupunkt:
Aussen-T/F 3551 17-03-2011 14:29:01 6 C 83 % 3.34 C
3552 17-03-2011 14:41:01 5.8 C 84 % 3.31 C
3553 17-03-2011 14:53:01 5.9 C 85 % 3.58 C
3554 17-03-2011 15:05:02 6.1 C 84 % 3.61 C
3555 17-03-2011 15:17:01 5.8 C 85 % 3.48 C
3556 17-03-2011 15:29:01 5.7 C 85 % 3.38 C
3557 17-03-2011 15:41:02 5.9 C 85 % 3.58 C
3558 17-03-2011 15:53:02 6.1 C 83 % 3.44 C
3559 17-03-2011 16:05:02 6 C 83 % 3.34 C
3560 17-03-2011 16:17:02 6.1 C 83 % 3.44 C
3561 17-03-2011 16:29:02 5.9 C 83 % 3.24 C
3562 17-03-2011 16:41:03 6 C 83 % 3.34 C
3563 17-03-2011 16:53:02 6 C 82 % 3.17 C
3564 17-03-2011 17:05:02 6 C 82 % 3.17 C
3565 17-03-2011 17:17:01 6 C 83 % 3.34 C
3566 17-03-2011 17:29:01 6 C 83 % 3.34 C
3567 17-03-2011 17:41:02 5.9 C 84 % 3.41 C
3568 17-03-2011 17:53:02 5.8 C 85 % 3.48 C
3569 17-03-2011 18:05:01 5.8 C 85 % 3.48 C
3570 17-03-2011 18:17:02 5.9 C 85 % 3.58 C
3571 17-03-2011 18:29:02 6 C 84 % 3.51 C
3572 17-03-2011 18:41:01 6.1 C 84 % 3.61 C
3573 17-03-2011 18:53:02 6.1 C 83 % 3.44 C
3574 17-03-2011 19:05:01 6.2 C 83 % 3.53 C
3575 17-03-2011 19:17:02 6.2 C 83 % 3.53 C
Sensor: Nr:Datum:Temp:Feuchte:Taupunkt:
Aussen-T/F 3576 17-03-2011 19:29:02 6.2 C 83 % 3.53 C
3577 17-03-2011 19:41:01 6.2 C 83 % 3.53 C
3578 17-03-2011 19:53:02 6.3 C 83 % 3.63 C
3579 17-03-2011 20:05:02 6.3 C 83 % 3.63 C
3580 17-03-2011 20:18:55 6.3 C 82 % 3.46 C
3581 17-03-2011 20:30:55 6.3 C 83 % 3.63 C
3582 17-03-2011 20:42:56 6.3 C 83 % 3.63 C
3583 17-03-2011 20:54:56 6.4 C 82 % 3.56 C
3584 17-03-2011 21:06:56 6.3 C 82 % 3.46 C
3585 17-03-2011 21:18:56 6.3 C 82 % 3.46 C
3586 17-03-2011 21:30:56 6.3 C 82 % 3.46 C
3587 17-03-2011 21:42:56 6.4 C 82 % 3.56 C
3588 17-03-2011 21:54:56 6.3 C 81 % 3.29 C
3589 17-03-2011 22:06:56 6.3 C 81 % 3.29 C
3590 17-03-2011 22:18:56 6.3 C 81 % 3.29 C
3591 17-03-2011 22:30:56 6.2 C 80 % 3.01 C
3592 17-03-2011 22:42:56 6.2 C 80 % 3.01 C
3593 17-03-2011 22:54:56 6.1 C 81 % 3.09 C
3594 17-03-2011 23:06:56 6 C 81 % 2.99 C
3595 17-03-2011 23:18:56 6 C 81 % 2.99 C
3596 17-03-2011 23:30:56 6 C 80 % 2.82 C
3597 17-03-2011 23:42:56 6 C 80 % 2.82 C
3598 17-03-2011 23:54:56 5.9 C 80 % 2.72 C
3599 18-03-2011 00:06:56 6 C 79 % 2.64 C
3600 18-03-2011 00:18:57 5.9 C 79 % 2.54 C
Sensor: Nr:Datum:Temp:Feuchte:Taupunkt:
Aussen-T/F 3601 18-03-2011 00:30:57 6.1 C 77 % 2.38 C
3602 18-03-2011 00:42:57 6 C 76 % 2.1 C
3603 18-03-2011 00:54:57 5.9 C 77 % 2.19 C
3604 18-03-2011 01:06:57 6 C 77 % 2.28 C
3605 18-03-2011 01:18:57 5.7 C 78 % 2.17 C
3606 18-03-2011 01:30:57 5.7 C 79 % 2.35 C
3607 18-03-2011 01:42:57 5.6 C 80 % 2.43 C
3608 18-03-2011 01:54:57 5.5 C 81 % 2.51 C
3609 18-03-2011 02:06:57 5.5 C 81 % 2.51 C
3610 18-03-2011 02:18:57 5.5 C 81 % 2.51 C
3611 18-03-2011 02:30:57 5.5 C 81 % 2.51 C
3612 18-03-2011 02:42:57 5.4 C 82 % 2.58 C
3613 18-03-2011 02:54:57 5.3 C 83 % 2.65 C
3614 18-03-2011 03:06:57 5.2 C 84 % 2.72 C
3615 18-03-2011 03:18:58 5.1 C 85 % 2.79 C
3616 18-03-2011 03:30:58 5.1 C 85 % 2.79 C
3617 18-03-2011 03:42:58 5.1 C 85 % 2.79 C
3618 18-03-2011 03:54:58 5.1 C 84 % 2.63 C
3619 18-03-2011 04:06:58 5.2 C 84 % 2.72 C
3620 18-03-2011 04:18:58 5.2 C 83 % 2.56 C
3621 18-03-2011 04:30:58 5.2 C 82 % 2.39 C
3622 18-03-2011 04:42:58 5.1 C 82 % 2.29 C
3623 18-03-2011 04:54:58 5.1 C 83 % 2.46 C
3624 18-03-2011 05:06:58 5.1 C 83 % 2.46 C
3625 18-03-2011 05:18:58 5.1 C 83 % 2.46 C
Sensor: Nr:Datum:Temp:Feuchte:Taupunkt:
Aussen-T/F 3626 18-03-2011 05:30:58 5 C 82 % 2.19 C
3627 18-03-2011 05:42:58 5 C 83 % 2.36 C
3628 18-03-2011 05:54:58 5 C 83 % 2.36 C
3629 18-03-2011 06:06:58 5 C 83 % 2.36 C
3630 18-03-2011 06:18:58 4.8 C 83 % 2.16 C
3631 18-03-2011 06:30:58 4.7 C 83 % 2.07 C
3632 18-03-2011 06:42:58 4.9 C 82 % 2.09 C
3633 18-03-2011 06:54:58 4.8 C 81 % 1.82 C
3634 18-03-2011 07:06:58 4.8 C 81 % 1.82 C
3635 18-03-2011 07:18:04 4.7 C 81 % 1.73 C
3636 18-03-2011 07:30:04 4.7 C 81 % 1.73 C
3637 18-03-2011 07:42:03 4.8 C 80 % 1.65 C
3638 18-03-2011 07:54:02 5.1 C 76 % 1.23 C
3639 18-03-2011 08:06:02 5.1 C 74 % 0.86 C
3640 18-03-2011 08:18:03 5.2 C 73 % 0.77 C
3641 18-03-2011 08:30:03 5.2 C 73 % 0.77 C
3642 18-03-2011 08:42:02 5.3 C 73 % 0.86 C
3643 18-03-2011 08:54:03 5.2 C 73 % 0.77 C
3644 18-03-2011 09:06:02 5.3 C 74 % 1.05 C
3645 18-03-2011 09:18:02 5.5 C 72 % 0.86 C
3646 18-03-2011 09:30:02 5.7 C 66 % -0.14 C
3647 18-03-2011 09:42:02 6 C 62 % -0.71 C
3648 18-03-2011 09:54:02 6.1 C 62 % -0.62 C
3649 18-03-2011 10:06:02 6 C 61 % -0.94 C
3650 18-03-2011 10:18:02 6.1 C 62 % -0.62 C
Sensor: Nr:Datum:Temp:Feuchte:Taupunkt:
Aussen-T/F 3651 18-03-2011 10:30:02 6.6 C 61 % -0.37 C
3652 18-03-2011 10:42:02 6.5 C 60 % -0.69 C
3653 18-03-2011 10:54:01 6.3 C 62 % -0.43 C
3654 18-03-2011 11:06:01 6.4 C 63 % -0.12 C
3655 18-03-2011 11:18:01 6.5 C 63 % -0.02 C
3656 18-03-2011 11:30:01 6.5 C 63 % -0.02 C
3657 18-03-2011 11:42:01 7.1 C 62 % 0.33 C
3658 18-03-2011 11:54:01 7.4 C 60 % 0.16 C
3659 18-03-2011 12:06:02 7.3 C 58 % -0.4 C
3660 18-03-2011 12:18:01 7.6 C 59 % 0.11 C
3661 18-03-2011 12:30:01 7.5 C 58 % -0.21 C
3662 18-03-2011 12:42:02 7.5 C 59 % 0.02 C
3663 18-03-2011 12:54:02 7.6 C 58 % -0.12 C
3664 18-03-2011 13:06:03 8.5 C 56 % 0.24 C
3665 18-03-2011 13:18:02 8.4 C 53 % -0.61 C
3666 18-03-2011 13:30:02 8.8 C 52 % -0.5 C
3667 18-03-2011 13:42:02 9.2 C 51 % -0.4 C
3668 18-03-2011 13:54:02 8.9 C 52 % -0.41 C
3669 18-03-2011 14:06:02 8.6 C 52 % -0.68 C
3670 18-03-2011 14:18:01 8.6 C 53 % -0.42 C
3671 18-03-2011 14:30:01 8.7 C 52 % -0.59 C
3672 18-03-2011 14:42:02 9.1 C 51 % -0.49 C
3673 18-03-2011 14:54:04 8.9 C 52 % -0.41 C
3674 18-03-2011 15:06:02 8.9 C 51 % -0.67 C
3675 18-03-2011 15:18:02 8.5 C 52 % -0.78 C
Sensor: Nr:Datum:Temp:Feuchte:Taupunkt:
Aussen-T/F 3676 18-03-2011 15:30:02 8.7 C 52 % -0.59 C
3677 18-03-2011 15:42:01 9.1 C 51 % -0.49 C
3678 18-03-2011 15:54:02 9.3 C 50 % -0.57 C
3679 18-03-2011 16:06:02 9.2 C 50 % -0.67 C
3680 18-03-2011 16:18:02 8.9 C 52 % -0.41 C
3681 18-03-2011 16:30:02 8.7 C 52 % -0.59 C
3682 18-03-2011 16:42:01 8.5 C 52 % -0.78 C
3683 18-03-2011 16:54:02 8.4 C 53 % -0.61 C
3684 18-03-2011 17:06:01 8.2 C 55 % -0.29 C
3685 18-03-2011 17:18:02 8 C 57 % 0.01 C
3686 18-03-2011 17:30:02 7.9 C 60 % 0.63 C
3687 18-03-2011 17:42:01 7.9 C 61 % 0.86 C
3688 18-03-2011 17:54:01 7.7 C 60 % 0.44 C
3689 18-03-2011 18:06:01 7.6 C 62 % 0.8 C
3690 18-03-2011 18:18:02 7.4 C 63 % 0.83 C
3691 18-03-2011 18:30:02 7.3 C 64 % 0.95 C
3692 18-03-2011 18:42:01 7.2 C 66 % 1.29 C
3693 18-03-2011 18:54:02 7.2 C 67 % 1.49 C
3694 18-03-2011 19:06:01 7.1 C 67 % 1.4 C
3695 18-03-2011 19:18:02 7 C 67 % 1.3 C
3696 18-03-2011 19:30:02 6.8 C 68 % 1.32 C
3697 18-03-2011 19:42:01 6.8 C 68 % 1.32 C
3698 18-03-2011 19:54:02 6.6 C 70 % 1.53 C
3699 18-03-2011 20:06:02 6.6 C 71 % 1.73 C
3700 18-03-2011 20:18:02 6.4 C 71 % 1.54 C
Sensor: Nr:Datum:Temp:Feuchte:Taupunkt:
Aussen-T/F 3701 18-03-2011 20:30:02 6.4 C 71 % 1.54 C
3702 18-03-2011 20:42:02 6.3 C 71 % 1.44 C
3703 18-03-2011 20:54:02 6.3 C 72 % 1.63 C
3704 18-03-2011 21:06:02 6.4 C 71 % 1.54 C
3705 18-03-2011 21:18:02 6.4 C 71 % 1.54 C
3706 18-03-2011 21:30:02 6.2 C 71 % 1.34 C
3707 18-03-2011 21:42:01 6 C 74 % 1.73 C
3708 18-03-2011 21:54:02 6 C 76 % 2.1 C
3709 18-03-2011 22:06:01 5.7 C 79 % 2.35 C
3710 18-03-2011 22:19:02 5.6 C 81 % 2.6 C
3711 18-03-2011 22:31:02 5.4 C 83 % 2.75 C
3712 18-03-2011 22:43:03 5.3 C 84 % 2.82 C
3713 18-03-2011 22:55:03 5.2 C 85 % 2.89 C
3714 18-03-2011 23:07:03 5.2 C 86 % 3.05 C
3715 18-03-2011 23:19:03 5.1 C 87 % 3.12 C
3716 18-03-2011 23:31:03 5.1 C 88 % 3.28 C
3717 18-03-2011 23:43:03 5 C 88 % 3.18 C
3718 18-03-2011 23:55:03 5 C 88 % 3.18 C
3719 19-03-2011 00:07:03 4.9 C 89 % 3.24 C
3720 19-03-2011 00:19:03 4.8 C 89 % 3.14 C
3721 19-03-2011 00:31:03 4.7 C 90 % 3.2 C
3722 19-03-2011 00:43:03 4.6 C 90 % 3.1 C
3723 19-03-2011 00:55:03 4.6 C 90 % 3.1 C
3724 19-03-2011 01:07:03 4.6 C 90 % 3.1 C
3725 19-03-2011 01:19:03 4.6 C 90 % 3.1 C
Sensor: Nr:Datum:Temp:Feuchte:Taupunkt:
Aussen-T/F 3726 19-03-2011 01:31:03 4.5 C 90 % 3.01 C
3727 19-03-2011 01:43:03 4.5 C 91 % 3.16 C
3728 19-03-2011 01:55:03 4.4 C 91 % 3.06 C
3729 19-03-2011 02:07:03 4.4 C 91 % 3.06 C
3730 19-03-2011 02:19:03 4.3 C 91 % 2.96 C
3731 19-03-2011 02:31:03 4.4 C 91 % 3.06 C
3732 19-03-2011 02:43:03 4.4 C 91 % 3.06 C
3733 19-03-2011 02:55:04 4.4 C 91 % 3.06 C
3734 19-03-2011 03:07:04 4.4 C 91 % 3.06 C
3735 19-03-2011 03:19:04 4.4 C 91 % 3.06 C
3736 19-03-2011 03:31:04 4.5 C 91 % 3.16 C
3737 19-03-2011 03:43:04 4.5 C 91 % 3.16 C
3738 19-03-2011 03:55:04 4.6 C 91 % 3.26 C
3739 19-03-2011 04:07:04 4.7 C 91 % 3.36 C
3740 19-03-2011 04:19:04 4.7 C 92 % 3.51 C
3741 19-03-2011 04:31:04 4.7 C 92 % 3.51 C
3742 19-03-2011 04:43:04 4.7 C 92 % 3.51 C
3743 19-03-2011 04:55:04 4.6 C 92 % 3.42 C
3744 19-03-2011 05:07:04 4.6 C 92 % 3.42 C
3745 19-03-2011 05:19:04 4.7 C 92 % 3.51 C
3746 19-03-2011 05:31:04 4.7 C 92 % 3.51 C
3747 19-03-2011 05:43:04 4.7 C 92 % 3.51 C
3748 19-03-2011 05:55:04 4.7 C 92 % 3.51 C
3749 19-03-2011 06:07:04 4.7 C 92 % 3.51 C
3750 19-03-2011 06:19:04 4.6 C 92 % 3.42 C
Sensor: Nr:Datum:Temp:Feuchte:Taupunkt:
Aussen-T/F 3751 19-03-2011 06:31:04 4.5 C 92 % 3.32 C
3752 19-03-2011 06:43:04 4.5 C 92 % 3.32 C
3753 19-03-2011 06:55:05 4.4 C 92 % 3.22 C
3754 19-03-2011 07:07:05 4.4 C 92 % 3.22 C
3755 19-03-2011 07:19:05 4.4 C 92 % 3.22 C
3756 19-03-2011 07:31:05 4.4 C 92 % 3.22 C
3757 19-03-2011 07:43:05 4.3 C 92 % 3.12 C
3758 19-03-2011 07:55:05 4.4 C 92 % 3.22 C
3759 19-03-2011 08:07:03 4.5 C 92 % 3.32 C
3760 19-03-2011 08:19:02 4.6 C 92 % 3.42 C
3761 19-03-2011 08:31:02 4.8 C 91 % 3.46 C
3762 19-03-2011 08:43:03 4.8 C 90 % 3.3 C
3763 19-03-2011 08:55:01 5 C 88 % 3.18 C
3764 19-03-2011 09:07:02 5.2 C 86 % 3.05 C
3765 19-03-2011 09:19:01 5.3 C 84 % 2.82 C
3766 19-03-2011 09:31:02 6 C 81 % 2.99 C
3767 19-03-2011 09:43:02 6.6 C 75 % 2.49 C
3768 19-03-2011 09:55:02 5.8 C 75 % 1.72 C
3769 19-03-2011 10:07:02 6.5 C 73 % 2.02 C
3770 19-03-2011 10:19:02 7 C 70 % 1.91 C
3771 19-03-2011 10:31:02 6.9 C 67 % 1.21 C
3772 19-03-2011 10:43:02 6.8 C 69 % 1.52 C
3773 19-03-2011 10:55:02 6.8 C 67 % 1.11 C
3774 19-03-2011 11:07:01 6.7 C 67 % 1.02 C
3775 19-03-2011 11:19:01 6.4 C 70 % 1.34 C
Sensor: Nr:Datum:Temp:Feuchte:Taupunkt:
Aussen-T/F 3776 19-03-2011 11:31:02 6.9 C 67 % 1.21 C
3777 19-03-2011 11:43:02 7.9 C 56 % -0.32 C
3778 19-03-2011 11:55:02 8.9 C 52 % -0.41 C
3779 19-03-2011 12:07:02 9.1 C 45 % -2.19 C
3780 19-03-2011 12:19:02 10 C 40 % -2.96 C
3781 19-03-2011 12:31:02 10.8 C 36 % -3.65 C
3782 19-03-2011 12:43:02 12.4 C 28 % -5.57 C
3783 19-03-2011 12:55:02 14.3 C 25 % -5.43 C
3784 19-03-2011 13:07:02 11.8 C 27 % -6.56 C
3785 19-03-2011 13:19:01 12.6 C 26 % -6.37 C
3786 19-03-2011 13:31:02 12.1 C 29 % -5.37 C
3787 19-03-2011 13:43:02 11.9 C 30 % -5.1 C
3788 19-03-2011 13:55:02 12 C 25 % -7.39 C
3789 19-03-2011 14:07:02 11.2 C 26 % -7.57 C
3790 19-03-2011 14:19:02 11.8 C 26 % -7.05 C
3791 19-03-2011 14:31:02 11.8 C 25 % -7.56 C
3792 19-03-2011 14:43:02 13 C 21 % -8.78 C
3793 19-03-2011 14:55:01 15.2 C 20 % -7.58 C
3794 19-03-2011 15:07:02 14.3 C 20 % -8.33 C
3795 19-03-2011 15:19:01 14.9 C 20 % -7.83 C
3796 19-03-2011 15:31:01 15.4 C 20 % -7.41 C
3797 19-03-2011 15:43:02 18 C 20 % -5.27 C
3798 19-03-2011 15:55:02 17.4 C 20 % -5.76 C
3799 19-03-2011 16:07:02 18.2 C 20 % -5.1 C
3800 19-03-2011 16:19:01 17.3 C 20 % -5.84 C
Sensor: Nr:Datum:Temp:Feuchte:Taupunkt:
Aussen-T/F 3801 19-03-2011 16:31:02 17.3 C 20 % -5.84 C
3802 19-03-2011 16:43:02 17.6 C 20 % -5.6 C
3803 19-03-2011 16:55:02 16.9 C 20 % -6.17 C
3804 19-03-2011 17:07:02 16.8 C 20 % -6.26 C
3805 19-03-2011 17:19:01 15.5 C 20 % -7.33 C
3806 19-03-2011 17:31:02 15.4 C 20 % -7.41 C
3807 19-03-2011 17:43:02 14.7 C 20 % -7.99 C
3808 19-03-2011 17:55:02 14.5 C 20 % -8.16 C
3809 19-03-2011 18:07:02 12.7 C 26 % -6.28 C
3810 19-03-2011 18:19:02 10.8 C 34 % -4.41 C
3811 19-03-2011 18:31:02 7.8 C 40 % -4.93 C
3812 19-03-2011 18:43:02 6 C 47 % -4.44 C
3813 19-03-2011 18:55:02 5.2 C 48 % -4.89 C
3814 19-03-2011 19:07:02 4.6 C 52 % -4.39 C
3815 19-03-2011 19:19:03 3.9 C 56 % -4.06 C
3816 19-03-2011 19:31:02 4 C 55 % -4.21 C
3817 19-03-2011 19:43:02 3.6 C 55 % -4.58 C
3818 19-03-2011 19:55:02 3.2 C 57 % -4.48 C
3819 19-03-2011 20:07:02 3.4 C 60 % -3.61 C
3820 19-03-2011 20:19:03 3 C 62 % -3.55 C
3821 19-03-2011 20:31:02 2.3 C 63 % -4 C
3822 19-03-2011 20:43:02 2.2 C 66 % -3.48 C
3823 19-03-2011 20:55:02 2 C 67 % -3.47 C
3824 19-03-2011 21:07:02 2.2 C 67 % -3.28 C
3825 19-03-2011 21:19:02 1.4 C 68 % -3.84 C
Sensor: Nr:Datum:Temp:Feuchte:Taupunkt:
Aussen-T/F 3826 19-03-2011 21:31:02 0.5 C 72 % -3.95 C
3827 19-03-2011 21:43:02 0.3 C 74 % -3.78 C
3828 19-03-2011 21:55:03 0 C 76 % -3.71 C
3829 19-03-2011 22:07:03 0 C 77 % -3.54 C
3830 19-03-2011 22:20:04 -0.4 C 78 % -3.76 C
3831 19-03-2011 22:32:04 -0.9 C 78 % -4.24 C
3832 19-03-2011 22:44:04 -1.1 C 78 % -4.44 C
3833 19-03-2011 22:56:04 -1.4 C 78 % -4.73 C
3834 19-03-2011 23:08:04 -1.6 C 79 % -4.76 C
3835 19-03-2011 23:20:04 -1.7 C 79 % -4.85 C
3836 19-03-2011 23:32:04 -1.8 C 79 % -4.95 C
3837 19-03-2011 23:44:04 -2 C 80 % -4.98 C
3838 19-03-2011 23:56:04 -2.1 C 80 % -5.08 C
3839 20-03-2011 00:08:04 -2.1 C 80 % -5.08 C
3840 20-03-2011 00:20:04 -2.4 C 82 % -5.05 C
3841 20-03-2011 00:32:04 -2.3 C 82 % -4.95 C
3842 20-03-2011 00:44:04 -2.6 C 83 % -5.08 C
3843 20-03-2011 00:56:04 -2.8 C 83 % -5.28 C
3844 20-03-2011 01:08:04 -2.6 C 83 % -5.08 C
3845 20-03-2011 01:20:04 -2.8 C 83 % -5.28 C
3846 20-03-2011 01:32:05 -2.9 C 84 % -5.22 C
3847 20-03-2011 01:44:05 -3.1 C 84 % -5.41 C
3848 20-03-2011 01:56:05 -2.9 C 85 % -5.06 C
3849 20-03-2011 02:08:05 -3.1 C 85 % -5.26 C
3850 20-03-2011 02:20:05 -3.2 C 85 % -5.36 C
Sensor: Nr:Datum:Temp:Feuchte:Taupunkt:
Aussen-T/F 3851 20-03-2011 02:32:05 -3.4 C 85 % -5.55 C
3852 20-03-2011 02:44:05 -3.4 C 85 % -5.55 C
3853 20-03-2011 02:56:05 -3.4 C 85 % -5.55 C
3854 20-03-2011 03:08:05 -3.5 C 86 % -5.5 C
3855 20-03-2011 03:20:05 -3.5 C 86 % -5.5 C
3856 20-03-2011 03:32:05 -3.5 C 86 % -5.5 C
3857 20-03-2011 03:44:05 -3.8 C 86 % -5.79 C
3858 20-03-2011 03:56:05 -3.8 C 86 % -5.79 C
3859 20-03-2011 04:08:05 -3.8 C 86 % -5.79 C
3860 20-03-2011 04:20:05 -3.8 C 86 % -5.79 C
3861 20-03-2011 04:32:05 -4 C 86 % -5.99 C
3862 20-03-2011 04:44:05 -4 C 86 % -5.99 C
3863 20-03-2011 04:56:05 -3.7 C 87 % -5.54 C
3864 20-03-2011 05:08:05 -4.1 C 87 % -5.94 C
3865 20-03-2011 05:20:05 -3.9 C 87 % -5.74 C
3866 20-03-2011 05:32:06 -3.9 C 87 % -5.74 C
3867 20-03-2011 05:44:06 -3.3 C 88 % -5 C
3868 20-03-2011 05:56:06 -3.7 C 88 % -5.39 C
3869 20-03-2011 06:08:06 -3.9 C 88 % -5.59 C
3870 20-03-2011 06:20:06 -4.1 C 88 % -5.79 C
3871 20-03-2011 06:32:06 -4.1 C 88 % -5.79 C
3872 20-03-2011 06:44:06 -3 C 89 % -4.55 C
3873 20-03-2011 06:56:06 -3.5 C 89 % -5.05 C
3874 20-03-2011 07:08:06 -3.6 C 89 % -5.15 C
3875 20-03-2011 07:20:06 -3.8 C 89 % -5.34 C
Sensor: Nr:Datum:Temp:Feuchte:Taupunkt:
Aussen-T/F 3876 20-03-2011 07:32:06 -3.9 C 88 % -5.59 C
3877 20-03-2011 07:44:06 -3.8 C 89 % -5.34 C
3878 20-03-2011 07:56:06 -3.7 C 89 % -5.24 C
3879 20-03-2011 08:08:06 -3.4 C 89 % -4.95 C
3880 20-03-2011 08:20:06 -2.7 C 89 % -4.26 C
3881 20-03-2011 08:32:03 -2.7 C 89 % -4.26 C
3882 20-03-2011 08:44:03 -2 C 90 % -3.42 C
3883 20-03-2011 08:56:01 -1.8 C 90 % -3.22 C
3884 20-03-2011 09:08:01 -1.3 C 89 % -2.88 C
3885 20-03-2011 09:20:02 -1.1 C 89 % -2.68 C
3886 20-03-2011 09:32:01 -0.9 C 89 % -2.48 C